<?xml version="1.0" encoding="UTF-8" standalone="no" ?>
<gpx xmlns="http://www.topografix.com/GPX/1/1" xmlns:xsi="http://www.w3.org/2001/XMLSchema-instance" xsi:schemaLocation="http://www.topografix.com/GPX/1/1 http://www.topografix.com/GPX/1/1/gpx.xsd" version="1.1" creator="VisuGPX - https://www.visugpx.com">
  <metadata>
    <name>GR441 Tour de la Chaîne des Puys (Puy-de-Dôme) (2021)</name>
    <desc><![CDATA[Randonnée sur le GR®441, Tour de la Chaîne des Puys, à travers le Puy-de-Dôme (Auvergne) au départ de Volvic. Gîtes d'étapes, Chambres d'hôtes, Maison d'hôtes, Hôtels, Camping, Refuges, Auberges, Commerces.]]></desc>
  </metadata>
  <trk>
    <name><![CDATA[GR®441 Tour de la Chaîne des Puys (Puy-de-Dôme) (2021)]]></name>
    <desc><![CDATA[Randonnée sur le GR®441, Tour de la Chaîne des Puys, à travers le Puy-de-Dôme (Auvergne) au départ de Volvic. Gîtes d'étapes, Chambres d'hôtes, Maison d'hôtes, Hôtels, Camping, Refuges, Auberges, Commerces.]]></desc>
    <extensions>
      <line xmlns="http://www.topografix.com/GPX/gpx_style/0/2">
        <color>0000FF</color>
        <width>4</width>
      </line>
    </extensions>
    <trkseg>
      <trkpt lat="45.8718" lon="3.03353">
        <ele>555.124</ele>
        <time>2021-03-28T13:21:43Z</time>
      </trkpt>
      <trkpt lat="45.87202" lon="3.03304">
        <ele>559.204</ele>
        <time>2016-12-04T16:25:45Z</time>
      </trkpt>
      <trkpt lat="45.87206" lon="3.0323">
        <ele>557.314</ele>
        <time>2016-12-04T16:26:05Z</time>
      </trkpt>
      <trkpt lat="45.87181" lon="3.0316">
        <ele>558.008</ele>
        <time>2016-12-04T16:26:25Z</time>
      </trkpt>
      <trkpt lat="45.87144" lon="3.03124">
        <ele>563.568</ele>
        <time>2016-12-04T16:26:45Z</time>
      </trkpt>
      <trkpt lat="45.87066" lon="3.03117">
        <ele>563.28</ele>
        <time>2016-12-04T16:27:05Z</time>
      </trkpt>
      <trkpt lat="45.87019" lon="3.0309">
        <ele>562.131</ele>
        <time>2016-12-04T16:27:25Z</time>
      </trkpt>
      <trkpt lat="45.87064" lon="3.02967">
        <ele>567.159</ele>
        <time>2016-12-04T16:27:45Z</time>
      </trkpt>
      <trkpt lat="45.8713" lon="3.02709">
        <ele>584.298</ele>
        <time>2016-12-04T16:28:05Z</time>
      </trkpt>
      <trkpt lat="45.87126" lon="3.02678">
        <ele>588.517</ele>
        <time>2016-12-04T16:28:25Z</time>
      </trkpt>
      <trkpt lat="45.87144" lon="3.02629">
        <ele>592.747</ele>
        <time>2016-12-04T16:28:45Z</time>
      </trkpt>
      <trkpt lat="45.8715" lon="3.02553">
        <ele>599.916</ele>
        <time>2016-12-04T16:29:05Z</time>
      </trkpt>
      <trkpt lat="45.87149" lon="3.02503">
        <ele>606.272</ele>
        <time>2016-12-04T16:29:25Z</time>
      </trkpt>
      <trkpt lat="45.87158" lon="3.02434">
        <ele>611.513</ele>
        <time>2016-12-04T16:29:45Z</time>
      </trkpt>
      <trkpt lat="45.87202" lon="3.02389">
        <ele>612.414</ele>
        <time>2016-12-04T16:30:05Z</time>
      </trkpt>
      <trkpt lat="45.87246" lon="3.02298">
        <ele>616.908</ele>
        <time>2016-12-04T16:30:25Z</time>
      </trkpt>
      <trkpt lat="45.87212" lon="3.02003">
        <ele>621.673</ele>
        <time>2016-12-04T16:30:45Z</time>
      </trkpt>
      <trkpt lat="45.87174" lon="3.01998">
        <ele>624.655</ele>
        <time>2016-12-04T16:31:05Z</time>
      </trkpt>
      <trkpt lat="45.87144" lon="3.01934">
        <ele>629.646</ele>
        <time>2016-12-04T16:31:25Z</time>
      </trkpt>
      <trkpt lat="45.87114" lon="3.01882">
        <ele>634.734</ele>
        <time>2016-12-04T16:31:45Z</time>
      </trkpt>
      <trkpt lat="45.87124" lon="3.01752">
        <ele>641.873</ele>
        <time>2016-12-04T16:32:05Z</time>
      </trkpt>
      <trkpt lat="45.87152" lon="3.01704">
        <ele>648.452</ele>
        <time>2016-12-04T16:32:25Z</time>
      </trkpt>
      <trkpt lat="45.87165" lon="3.01649">
        <ele>653.312</ele>
        <time>2016-12-04T16:32:45Z</time>
      </trkpt>
      <trkpt lat="45.87218" lon="3.01597">
        <ele>655.961</ele>
        <time>2016-12-04T16:33:05Z</time>
      </trkpt>
      <trkpt lat="45.8724" lon="3.01522">
        <ele>660.346</ele>
        <time>2016-12-04T16:33:25Z</time>
      </trkpt>
      <trkpt lat="45.8724" lon="3.01409">
        <ele>661.188</ele>
        <time>2016-12-04T16:33:45Z</time>
      </trkpt>
      <trkpt lat="45.87213" lon="3.01331">
        <ele>662.416</ele>
        <time>2016-12-04T16:34:05Z</time>
      </trkpt>
      <trkpt lat="45.87209" lon="3.01245">
        <ele>665.208</ele>
        <time>2016-12-04T16:34:25Z</time>
      </trkpt>
      <trkpt lat="45.87197" lon="3.01184">
        <ele>666.08</ele>
        <time>2016-12-04T16:34:45Z</time>
      </trkpt>
      <trkpt lat="45.87166" lon="3.01115">
        <ele>671.882</ele>
        <time>2016-12-04T16:35:05Z</time>
      </trkpt>
      <trkpt lat="45.87157" lon="3.01064">
        <ele>673.963</ele>
        <time>2016-12-04T16:35:25Z</time>
      </trkpt>
      <trkpt lat="45.87146" lon="3.009">
        <ele>683.021</ele>
        <time>2016-12-04T16:35:45Z</time>
      </trkpt>
      <trkpt lat="45.87115" lon="3.0077">
        <ele>686.29</ele>
        <time>2016-12-04T16:36:05Z</time>
      </trkpt>
      <trkpt lat="45.87051" lon="3.00759">
        <ele>694.049</ele>
        <time>2016-12-04T16:36:25Z</time>
      </trkpt>
      <trkpt lat="45.8704" lon="3.00647">
        <ele>702.139</ele>
        <time>2016-12-04T16:36:45Z</time>
      </trkpt>
      <trkpt lat="45.87049" lon="3.00612">
        <ele>705.468</ele>
        <time>2016-12-04T16:37:05Z</time>
      </trkpt>
      <trkpt lat="45.87092" lon="3.00568">
        <ele>709.232</ele>
        <time>2016-12-04T16:37:25Z</time>
      </trkpt>
      <trkpt lat="45.8708" lon="2.99865">
        <ele>741.892</ele>
        <time>2016-12-04T16:37:45Z</time>
      </trkpt>
      <trkpt lat="45.87076" lon="2.99818">
        <ele>744.511</ele>
        <time>2016-12-04T16:38:05Z</time>
      </trkpt>
      <trkpt lat="45.8709" lon="2.99459">
        <ele>767.008</ele>
        <time>2016-12-04T16:38:25Z</time>
      </trkpt>
      <trkpt lat="45.87084" lon="2.99422">
        <ele>770.599</ele>
        <time>2016-12-04T16:38:45Z</time>
      </trkpt>
      <trkpt lat="45.87141" lon="2.99383">
        <ele>775.241</ele>
        <time>2021-03-28T13:35:23Z</time>
      </trkpt>
      <trkpt lat="45.87167" lon="2.99333">
        <ele>777.052</ele>
        <time>2016-12-04T16:39:25Z</time>
      </trkpt>
      <trkpt lat="45.87153" lon="2.99256">
        <ele>780.88</ele>
        <time>2016-12-04T16:39:45Z</time>
      </trkpt>
      <trkpt lat="45.87131" lon="2.99226">
        <ele>782.919</ele>
        <time>2016-12-04T16:40:05Z</time>
      </trkpt>
      <trkpt lat="45.87114" lon="2.99172">
        <ele>784.928</ele>
        <time>2016-12-04T16:40:25Z</time>
      </trkpt>
      <trkpt lat="45.87126" lon="2.99115">
        <ele>788.328</ele>
        <time>2016-12-04T16:40:45Z</time>
      </trkpt>
      <trkpt lat="45.87166" lon="2.99051">
        <ele>792.297</ele>
        <time>2016-12-04T16:41:05Z</time>
      </trkpt>
      <trkpt lat="45.87232" lon="2.99003">
        <ele>785.322</ele>
        <time>2016-12-04T16:41:25Z</time>
      </trkpt>
      <trkpt lat="45.87264" lon="2.9903">
        <ele>781.162</ele>
        <time>2016-12-04T16:41:45Z</time>
      </trkpt>
      <trkpt lat="45.87271" lon="2.99015">
        <ele>781.208</ele>
        <time>2016-12-04T16:42:05Z</time>
      </trkpt>
      <trkpt lat="45.87262" lon="2.98952">
        <ele>785.208</ele>
        <time>2016-12-04T16:42:25Z</time>
      </trkpt>
      <trkpt lat="45.8726" lon="2.98886">
        <ele>787.358</ele>
        <time>2016-12-04T16:42:45Z</time>
      </trkpt>
      <trkpt lat="45.87273" lon="2.98813">
        <ele>786.41</ele>
        <time>2016-12-04T16:43:05Z</time>
      </trkpt>
      <trkpt lat="45.87262" lon="2.98654">
        <ele>792.211</ele>
        <time>2016-12-04T16:43:25Z</time>
      </trkpt>
      <trkpt lat="45.87289" lon="2.98562">
        <ele>793.399</ele>
        <time>2016-12-04T16:43:45Z</time>
      </trkpt>
      <trkpt lat="45.87245" lon="2.98497">
        <ele>795.578</ele>
        <time>2016-12-04T16:44:05Z</time>
      </trkpt>
      <trkpt lat="45.87253" lon="2.98449">
        <ele>798.667</ele>
        <time>2016-12-04T16:44:25Z</time>
      </trkpt>
      <trkpt lat="45.87232" lon="2.9841">
        <ele>800.447</ele>
        <time>2016-12-04T16:44:45Z</time>
      </trkpt>
      <trkpt lat="45.87223" lon="2.98374">
        <ele>802.046</ele>
        <time>2016-12-04T16:45:05Z</time>
      </trkpt>
      <trkpt lat="45.87223" lon="2.98278">
        <ele>802.093</ele>
        <time>2016-12-04T16:45:25Z</time>
      </trkpt>
      <trkpt lat="45.87171" lon="2.98127">
        <ele>808.365</ele>
        <time>2016-12-04T16:45:45Z</time>
      </trkpt>
      <trkpt lat="45.87138" lon="2.98091">
        <ele>812.421</ele>
        <time>2016-12-04T16:46:05Z</time>
      </trkpt>
      <trkpt lat="45.87126" lon="2.98157">
        <ele>814.508</ele>
        <time>2016-12-04T16:46:25Z</time>
      </trkpt>
      <trkpt lat="45.87101" lon="2.98187">
        <ele>815.825</ele>
        <time>2016-12-04T16:46:45Z</time>
      </trkpt>
      <trkpt lat="45.86943" lon="2.98243">
        <ele>814.287</ele>
        <time>2016-12-04T16:47:05Z</time>
      </trkpt>
      <trkpt lat="45.86883" lon="2.98294">
        <ele>814.488</ele>
        <time>2016-12-04T16:47:25Z</time>
      </trkpt>
      <trkpt lat="45.86857" lon="2.98312">
        <ele>816.346</ele>
        <time>2016-12-04T16:47:45Z</time>
      </trkpt>
      <trkpt lat="45.86808" lon="2.98345">
        <ele>817.995</ele>
        <time>2016-12-04T16:48:05Z</time>
      </trkpt>
      <trkpt lat="45.86767" lon="2.98393">
        <ele>823.414</ele>
        <time>2016-12-04T16:48:25Z</time>
      </trkpt>
      <trkpt lat="45.86745" lon="2.9849">
        <ele>824.314</ele>
        <time>2016-12-04T16:48:45Z</time>
      </trkpt>
      <trkpt lat="45.86686" lon="2.98572">
        <ele>833.193</ele>
        <time>2016-12-04T16:49:05Z</time>
      </trkpt>
      <trkpt lat="45.86658" lon="2.98586">
        <ele>841.511</ele>
        <time>2016-12-04T16:49:25Z</time>
      </trkpt>
      <trkpt lat="45.86643" lon="2.98631">
        <ele>845.321</ele>
        <time>2016-12-04T16:49:45Z</time>
      </trkpt>
      <trkpt lat="45.866" lon="2.98676">
        <ele>853.803</ele>
        <time>2016-12-04T16:50:05Z</time>
      </trkpt>
      <trkpt lat="45.86512" lon="2.98643">
        <ele>870.008</ele>
        <time>2016-12-04T16:50:25Z</time>
      </trkpt>
      <trkpt lat="45.86433" lon="2.98623">
        <ele>880.247</ele>
        <time>2016-12-04T16:50:45Z</time>
      </trkpt>
      <trkpt lat="45.86409" lon="2.98632">
        <ele>882.059</ele>
        <time>2016-12-04T16:51:05Z</time>
      </trkpt>
      <trkpt lat="45.86375" lon="2.9863">
        <ele>888.61</ele>
        <time>2016-12-04T16:51:25Z</time>
      </trkpt>
      <trkpt lat="45.86328" lon="2.98675">
        <ele>897.898</ele>
        <time>2016-12-04T16:51:45Z</time>
      </trkpt>
      <trkpt lat="45.86305" lon="2.98676">
        <ele>908.357</ele>
        <time>2016-12-04T16:52:05Z</time>
      </trkpt>
      <trkpt lat="45.86218" lon="2.98638">
        <ele>935.396</ele>
        <time>2016-12-04T16:52:25Z</time>
      </trkpt>
      <trkpt lat="45.86142" lon="2.98564">
        <ele>930.816</ele>
        <time>2016-12-04T16:52:45Z</time>
      </trkpt>
      <trkpt lat="45.86083" lon="2.98543">
        <ele>925.485</ele>
        <time>2016-12-04T16:53:05Z</time>
      </trkpt>
      <trkpt lat="45.86029" lon="2.98549">
        <ele>925.887</ele>
        <time>2016-12-04T16:53:25Z</time>
      </trkpt>
      <trkpt lat="45.85989" lon="2.98632">
        <ele>939.342</ele>
        <time>2016-12-04T16:53:45Z</time>
      </trkpt>
      <trkpt lat="45.85953" lon="2.98698">
        <ele>953.826</ele>
        <time>2016-12-04T16:54:05Z</time>
      </trkpt>
      <trkpt lat="45.85936" lon="2.98696">
        <ele>957.308</ele>
        <time>2016-12-04T16:54:25Z</time>
      </trkpt>
      <trkpt lat="45.8591" lon="2.98586">
        <ele>959.094</ele>
        <time>2016-12-04T16:54:45Z</time>
      </trkpt>
      <trkpt lat="45.85879" lon="2.98431">
        <ele>966.026</ele>
        <time>2016-12-04T16:55:05Z</time>
      </trkpt>
      <trkpt lat="45.85845" lon="2.98396">
        <ele>954.567</ele>
        <time>2016-12-04T16:55:25Z</time>
      </trkpt>
      <trkpt lat="45.85803" lon="2.98319">
        <ele>941.635</ele>
        <time>2016-12-04T16:55:45Z</time>
      </trkpt>
      <trkpt lat="45.85797" lon="2.98238">
        <ele>933.714</ele>
        <time>2016-12-04T16:56:05Z</time>
      </trkpt>
      <trkpt lat="45.85815" lon="2.98201">
        <ele>933.583</ele>
        <time>2016-12-04T16:56:25Z</time>
      </trkpt>
      <trkpt lat="45.8587" lon="2.98134">
        <ele>930.843</ele>
        <time>2016-12-04T16:56:45Z</time>
      </trkpt>
      <trkpt lat="45.85868" lon="2.98097">
        <ele>921.482</ele>
        <time>2016-12-04T16:57:05Z</time>
      </trkpt>
      <trkpt lat="45.85836" lon="2.98048">
        <ele>905.275</ele>
        <time>2016-12-04T16:57:25Z</time>
      </trkpt>
      <trkpt lat="45.85777" lon="2.98021">
        <ele>896.428</ele>
        <time>2016-12-04T16:57:45Z</time>
      </trkpt>
      <trkpt lat="45.85737" lon="2.98031">
        <ele>892.32</ele>
        <time>2016-12-04T16:58:05Z</time>
      </trkpt>
      <trkpt lat="45.8566" lon="2.98109">
        <ele>886.608</ele>
        <time>2016-12-04T16:58:25Z</time>
      </trkpt>
      <trkpt lat="45.8566" lon="2.98061">
        <ele>887.233</ele>
        <time>2016-12-04T16:58:45Z</time>
      </trkpt>
      <trkpt lat="45.85625" lon="2.97955">
        <ele>892.385</ele>
        <time>2016-12-04T16:59:05Z</time>
      </trkpt>
      <trkpt lat="45.85554" lon="2.97885">
        <ele>904.076</ele>
        <time>2016-12-04T16:59:25Z</time>
      </trkpt>
      <trkpt lat="45.85461" lon="2.97818">
        <ele>914.114</ele>
        <time>2016-12-04T16:59:45Z</time>
      </trkpt>
      <trkpt lat="45.85371" lon="2.97792">
        <ele>919.043</ele>
        <time>2016-12-04T17:00:05Z</time>
      </trkpt>
      <trkpt lat="45.85324" lon="2.97696">
        <ele>932.832</ele>
        <time>2016-12-04T17:00:25Z</time>
      </trkpt>
      <trkpt lat="45.85257" lon="2.9761">
        <ele>938.232</ele>
        <time>2016-12-04T17:00:45Z</time>
      </trkpt>
      <trkpt lat="45.85135" lon="2.97388">
        <ele>980.991</ele>
        <time>2016-12-04T17:01:05Z</time>
      </trkpt>
      <trkpt lat="45.85085" lon="2.97349">
        <ele>987.768</ele>
        <time>2016-12-04T17:01:25Z</time>
      </trkpt>
      <trkpt lat="45.85157" lon="2.97242">
        <ele>1003.542</ele>
        <time>2016-12-04T17:01:45Z</time>
      </trkpt>
      <trkpt lat="45.85167" lon="2.97211">
        <ele>1004.026</ele>
        <time>2016-12-04T17:02:05Z</time>
      </trkpt>
      <trkpt lat="45.85211" lon="2.97134">
        <ele>1003.308</ele>
        <time>2016-12-04T17:02:25Z</time>
      </trkpt>
      <trkpt lat="45.85221" lon="2.97081">
        <ele>1004.242</ele>
        <time>2016-12-04T17:02:45Z</time>
      </trkpt>
      <trkpt lat="45.85246" lon="2.97016">
        <ele>1008.664</ele>
        <time>2016-12-04T17:03:05Z</time>
      </trkpt>
      <trkpt lat="45.85249" lon="2.96904">
        <ele>1015.525</ele>
        <time>2016-12-04T17:03:25Z</time>
      </trkpt>
      <trkpt lat="45.85233" lon="2.9684">
        <ele>1018.923</ele>
        <time>2016-12-04T17:03:45Z</time>
      </trkpt>
      <trkpt lat="45.85245" lon="2.96778">
        <ele>1019.032</ele>
        <time>2016-12-04T17:04:05Z</time>
      </trkpt>
      <trkpt lat="45.85283" lon="2.96717">
        <ele>1017.951</ele>
        <time>2016-12-04T17:04:25Z</time>
      </trkpt>
      <trkpt lat="45.85294" lon="2.96667">
        <ele>1016.191</ele>
        <time>2016-12-04T17:04:45Z</time>
      </trkpt>
      <trkpt lat="45.85254" lon="2.96575">
        <ele>1023.81</ele>
        <time>2016-12-04T17:05:05Z</time>
      </trkpt>
      <trkpt lat="45.85218" lon="2.96467">
        <ele>1031.868</ele>
        <time>2016-12-04T17:05:25Z</time>
      </trkpt>
      <trkpt lat="45.85162" lon="2.96399">
        <ele>1035.042</ele>
        <time>2016-12-04T17:05:45Z</time>
      </trkpt>
      <trkpt lat="45.85109" lon="2.96582">
        <ele>1064.526</ele>
        <time>2016-12-04T17:06:05Z</time>
      </trkpt>
      <trkpt lat="45.85054" lon="2.96654">
        <ele>1082.008</ele>
        <time>2016-12-04T17:06:25Z</time>
      </trkpt>
      <trkpt lat="45.84917" lon="2.96751">
        <ele>1116.072</ele>
        <time>2016-12-04T17:06:45Z</time>
      </trkpt>
      <trkpt lat="45.84888" lon="2.96821">
        <ele>1123.844</ele>
        <time>2016-12-04T17:07:05Z</time>
      </trkpt>
      <trkpt lat="45.84845" lon="2.96875">
        <ele>1136.165</ele>
        <time>2016-12-04T17:07:25Z</time>
      </trkpt>
      <trkpt lat="45.84788" lon="2.96879">
        <ele>1141.673</ele>
        <time>2016-12-04T17:07:45Z</time>
      </trkpt>
      <trkpt lat="45.84742" lon="2.9685">
        <ele>1143.132</ele>
        <time>2016-12-04T17:08:05Z</time>
      </trkpt>
      <trkpt lat="45.84696" lon="2.96787">
        <ele>1144.611</ele>
        <time>2016-12-04T17:08:25Z</time>
      </trkpt>
      <trkpt lat="45.84663" lon="2.96672">
        <ele>1151.791</ele>
        <time>2016-12-04T17:08:45Z</time>
      </trkpt>
      <trkpt lat="45.84605" lon="2.96641">
        <ele>1141.83</ele>
        <time>2016-12-04T17:09:05Z</time>
      </trkpt>
      <trkpt lat="45.8459" lon="2.96589">
        <ele>1135.825</ele>
        <time>2016-12-04T17:09:25Z</time>
      </trkpt>
      <trkpt lat="45.84571" lon="2.96583">
        <ele>1131.326</ele>
        <time>2016-12-04T17:09:45Z</time>
      </trkpt>
      <trkpt lat="45.84536" lon="2.96548">
        <ele>1122.408</ele>
        <time>2016-12-04T17:10:05Z</time>
      </trkpt>
      <trkpt lat="45.84521" lon="2.96552">
        <ele>1123.308</ele>
        <time>2016-12-04T17:10:25Z</time>
      </trkpt>
      <trkpt lat="45.84479" lon="2.9653">
        <ele>1132.018</ele>
        <time>2016-12-04T17:10:45Z</time>
      </trkpt>
      <trkpt lat="45.84464" lon="2.96471">
        <ele>1132.38</ele>
        <time>2016-12-04T17:11:05Z</time>
      </trkpt>
      <trkpt lat="45.84432" lon="2.96439">
        <ele>1133.231</ele>
        <time>2016-12-04T17:11:25Z</time>
      </trkpt>
      <trkpt lat="45.8439" lon="2.96459">
        <ele>1137.569</ele>
        <time>2016-12-04T17:11:45Z</time>
      </trkpt>
      <trkpt lat="45.84392" lon="2.96492">
        <ele>1140.938</ele>
        <time>2016-12-04T17:12:05Z</time>
      </trkpt>
      <trkpt lat="45.84377" lon="2.96511">
        <ele>1142.267</ele>
        <time>2016-12-04T17:12:25Z</time>
      </trkpt>
      <trkpt lat="45.84342" lon="2.96517">
        <ele>1139.967</ele>
        <time>2016-12-04T17:12:45Z</time>
      </trkpt>
      <trkpt lat="45.84295" lon="2.96491">
        <ele>1134.756</ele>
        <time>2016-12-04T17:13:05Z</time>
      </trkpt>
      <trkpt lat="45.8425" lon="2.96444">
        <ele>1137.048</ele>
        <time>2016-12-04T17:13:25Z</time>
      </trkpt>
      <trkpt lat="45.84193" lon="2.96362">
        <ele>1143.661</ele>
        <time>2016-12-04T17:13:45Z</time>
      </trkpt>
      <trkpt lat="45.84118" lon="2.96301">
        <ele>1126.017</ele>
        <time>2016-12-04T17:14:05Z</time>
      </trkpt>
      <trkpt lat="45.84067" lon="2.96244">
        <ele>1108.708</ele>
        <time>2016-12-04T17:14:25Z</time>
      </trkpt>
      <trkpt lat="45.83974" lon="2.96217">
        <ele>1095.93</ele>
        <time>2016-12-04T17:14:45Z</time>
      </trkpt>
      <trkpt lat="45.83952" lon="2.96203">
        <ele>1093.222</ele>
        <time>2016-12-04T17:15:05Z</time>
      </trkpt>
      <trkpt lat="45.83897" lon="2.96225">
        <ele>1088.023</ele>
        <time>2016-12-04T17:15:25Z</time>
      </trkpt>
      <trkpt lat="45.83814" lon="2.96229">
        <ele>1073.211</ele>
        <time>2016-12-04T17:15:45Z</time>
      </trkpt>
      <trkpt lat="45.83744" lon="2.96208">
        <ele>1056.17</ele>
        <time>2016-12-04T17:16:05Z</time>
      </trkpt>
      <trkpt lat="45.83725" lon="2.96023">
        <ele>1040.549</ele>
        <time>2016-12-04T17:16:25Z</time>
      </trkpt>
      <trkpt lat="45.83669" lon="2.95962">
        <ele>1030.739</ele>
        <time>2016-12-04T17:16:45Z</time>
      </trkpt>
      <trkpt lat="45.83686" lon="2.95923">
        <ele>1027.998</ele>
        <time>2016-12-04T17:17:05Z</time>
      </trkpt>
      <trkpt lat="45.83664" lon="2.95936">
        <ele>1029.017</ele>
        <time>2021-03-28T14:13:43Z</time>
      </trkpt>
      <trkpt lat="45.83554" lon="2.95873">
        <ele>1041.387</ele>
        <time>2021-03-28T14:14:03Z</time>
      </trkpt>
      <trkpt lat="45.8361" lon="2.95766">
        <ele>1042.215</ele>
        <time>2016-12-04T17:18:25Z</time>
      </trkpt>
      <trkpt lat="45.83681" lon="2.95604">
        <ele>1034.608</ele>
        <time>2016-12-04T17:18:45Z</time>
      </trkpt>
      <trkpt lat="45.83656" lon="2.95543">
        <ele>1033.687</ele>
        <time>2016-12-04T17:19:05Z</time>
      </trkpt>
      <trkpt lat="45.83594" lon="2.95525">
        <ele>1042.019</ele>
        <time>2016-12-04T17:19:25Z</time>
      </trkpt>
      <trkpt lat="45.83508" lon="2.95464">
        <ele>1035.63</ele>
        <time>2016-12-04T17:19:45Z</time>
      </trkpt>
      <trkpt lat="45.83431" lon="2.9543">
        <ele>1035.458</ele>
        <time>2016-12-04T17:20:05Z</time>
      </trkpt>
      <trkpt lat="45.83406" lon="2.95395">
        <ele>1027.187</ele>
        <time>2016-12-04T17:20:25Z</time>
      </trkpt>
      <trkpt lat="45.83219" lon="2.95436">
        <ele>1026.696</ele>
        <time>2016-12-04T17:20:45Z</time>
      </trkpt>
      <trkpt lat="45.83164" lon="2.95435">
        <ele>1025.996</ele>
        <time>2016-12-04T17:21:05Z</time>
      </trkpt>
      <trkpt lat="45.83118" lon="2.95522">
        <ele>1030.255</ele>
        <time>2016-12-04T17:21:25Z</time>
      </trkpt>
      <trkpt lat="45.83106" lon="2.95428">
        <ele>1030.562</ele>
        <time>2016-12-04T17:21:45Z</time>
      </trkpt>
      <trkpt lat="45.8308" lon="2.95372">
        <ele>1030.283</ele>
        <time>2016-12-04T17:22:05Z</time>
      </trkpt>
      <trkpt lat="45.83044" lon="2.95258">
        <ele>1026.511</ele>
        <time>2016-12-04T17:22:25Z</time>
      </trkpt>
      <trkpt lat="45.83027" lon="2.95173">
        <ele>1029.008</ele>
        <time>2016-12-04T17:22:45Z</time>
      </trkpt>
      <trkpt lat="45.83" lon="2.95088">
        <ele>1024.882</ele>
        <time>2016-12-04T17:23:05Z</time>
      </trkpt>
      <trkpt lat="45.82984" lon="2.95064">
        <ele>1024.214</ele>
        <time>2016-12-04T17:23:25Z</time>
      </trkpt>
      <trkpt lat="45.82946" lon="2.95074">
        <ele>1032.845</ele>
        <time>2016-12-04T17:23:45Z</time>
      </trkpt>
      <trkpt lat="45.82879" lon="2.95125">
        <ele>1048.023</ele>
        <time>2016-12-04T17:24:05Z</time>
      </trkpt>
      <trkpt lat="45.82798" lon="2.95132">
        <ele>1061.542</ele>
        <time>2016-12-04T17:24:25Z</time>
      </trkpt>
      <trkpt lat="45.82715" lon="2.95188">
        <ele>1072.021</ele>
        <time>2016-12-04T17:24:45Z</time>
      </trkpt>
      <trkpt lat="45.82655" lon="2.95216">
        <ele>1075.061</ele>
        <time>2016-12-04T17:25:05Z</time>
      </trkpt>
      <trkpt lat="45.82606" lon="2.95194">
        <ele>1085.62</ele>
        <time>2016-12-04T17:25:25Z</time>
      </trkpt>
      <trkpt lat="45.82572" lon="2.9516">
        <ele>1087.175</ele>
        <time>2016-12-04T17:25:45Z</time>
      </trkpt>
      <trkpt lat="45.82528" lon="2.95139">
        <ele>1085.128</ele>
        <time>2016-12-04T17:26:05Z</time>
      </trkpt>
      <trkpt lat="45.82475" lon="2.95129">
        <ele>1090.92</ele>
        <time>2016-12-04T17:26:25Z</time>
      </trkpt>
      <trkpt lat="45.8246" lon="2.95093">
        <ele>1092.908</ele>
        <time>2016-12-04T17:26:45Z</time>
      </trkpt>
      <trkpt lat="45.82428" lon="2.95085">
        <ele>1097.083</ele>
        <time>2016-12-04T17:27:05Z</time>
      </trkpt>
      <trkpt lat="45.82404" lon="2.95022">
        <ele>1099.055</ele>
        <time>2016-12-04T17:27:25Z</time>
      </trkpt>
      <trkpt lat="45.82381" lon="2.95041">
        <ele>1099.516</ele>
        <time>2016-12-04T17:27:45Z</time>
      </trkpt>
      <trkpt lat="45.82372" lon="2.95098">
        <ele>1100.764</ele>
        <time>2016-12-04T17:28:05Z</time>
      </trkpt>
      <trkpt lat="45.82383" lon="2.95155">
        <ele>1106.213</ele>
        <time>2016-12-04T17:28:25Z</time>
      </trkpt>
      <trkpt lat="45.82386" lon="2.95215">
        <ele>1108.362</ele>
        <time>2016-12-04T17:28:45Z</time>
      </trkpt>
      <trkpt lat="45.82406" lon="2.95304">
        <ele>1112.012</ele>
        <time>2016-12-04T17:29:05Z</time>
      </trkpt>
      <trkpt lat="45.82469" lon="2.95404">
        <ele>1122.991</ele>
        <time>2016-12-04T17:29:25Z</time>
      </trkpt>
      <trkpt lat="45.82472" lon="2.95459">
        <ele>1120.879</ele>
        <time>2016-12-04T17:29:45Z</time>
      </trkpt>
      <trkpt lat="45.82488" lon="2.95554">
        <ele>1109.805</ele>
        <time>2016-12-04T17:30:05Z</time>
      </trkpt>
      <trkpt lat="45.82491" lon="2.95608">
        <ele>1101.125</ele>
        <time>2016-12-04T17:30:25Z</time>
      </trkpt>
      <trkpt lat="45.82515" lon="2.9569">
        <ele>1088.908</ele>
        <time>2016-12-04T17:30:45Z</time>
      </trkpt>
      <trkpt lat="45.82534" lon="2.95717">
        <ele>1085.613</ele>
        <time>2016-12-04T17:31:05Z</time>
      </trkpt>
      <trkpt lat="45.82504" lon="2.95749">
        <ele>1073.185</ele>
        <time>2021-03-28T14:27:23Z</time>
      </trkpt>
      <trkpt lat="45.8252" lon="2.95806">
        <ele>1061.186</ele>
        <time>2021-03-28T14:27:43Z</time>
      </trkpt>
      <trkpt lat="45.82481" lon="2.95937">
        <ele>1030.274</ele>
        <time>2016-12-04T17:32:25Z</time>
      </trkpt>
      <trkpt lat="45.82464" lon="2.95972">
        <ele>1021.493</ele>
        <time>2016-12-04T17:32:45Z</time>
      </trkpt>
      <trkpt lat="45.82441" lon="2.95991">
        <ele>1016.212</ele>
        <time>2016-12-04T17:33:05Z</time>
      </trkpt>
      <trkpt lat="45.82431" lon="2.96011">
        <ele>1012.722</ele>
        <time>2016-12-04T17:33:25Z</time>
      </trkpt>
      <trkpt lat="45.82388" lon="2.96028">
        <ele>1005.811</ele>
        <time>2016-12-04T17:33:45Z</time>
      </trkpt>
      <trkpt lat="45.82386" lon="2.96068">
        <ele>997.981</ele>
        <time>2016-12-04T17:34:05Z</time>
      </trkpt>
      <trkpt lat="45.82443" lon="2.96136">
        <ele>995.261</ele>
        <time>2016-12-04T17:34:25Z</time>
      </trkpt>
      <trkpt lat="45.82453" lon="2.9614">
        <ele>995.517</ele>
        <time>2016-12-04T17:34:45Z</time>
      </trkpt>
      <trkpt lat="45.8248" lon="2.96165">
        <ele>992.008</ele>
        <time>2016-12-04T17:35:05Z</time>
      </trkpt>
      <trkpt lat="45.82476" lon="2.96194">
        <ele>987.894</ele>
        <time>2016-12-04T17:35:25Z</time>
      </trkpt>
      <trkpt lat="45.82476" lon="2.96294">
        <ele>973.716</ele>
        <time>2016-12-04T17:35:45Z</time>
      </trkpt>
      <trkpt lat="45.82444" lon="2.96317">
        <ele>979.227</ele>
        <time>2016-12-04T17:36:05Z</time>
      </trkpt>
      <trkpt lat="45.82374" lon="2.96313">
        <ele>978.515</ele>
        <time>2016-12-04T17:36:25Z</time>
      </trkpt>
      <trkpt lat="45.82298" lon="2.9632">
        <ele>977.293</ele>
        <time>2016-12-04T17:37:05Z</time>
      </trkpt>
      <trkpt lat="45.82258" lon="2.96298">
        <ele>975.183</ele>
        <time>2016-12-04T17:37:25Z</time>
      </trkpt>
      <trkpt lat="45.82044" lon="2.96249">
        <ele>965.732</ele>
        <time>2016-12-04T17:37:45Z</time>
      </trkpt>
      <trkpt lat="45.81829" lon="2.96094">
        <ele>960.779</ele>
        <time>2016-12-04T17:38:05Z</time>
      </trkpt>
      <trkpt lat="45.81766" lon="2.96026">
        <ele>956.405</ele>
        <time>2016-12-04T17:38:25Z</time>
      </trkpt>
      <trkpt lat="45.81426" lon="2.95811">
        <ele>956.025</ele>
        <time>2016-12-04T17:38:45Z</time>
      </trkpt>
      <trkpt lat="45.81409" lon="2.95532">
        <ele>955.908</ele>
        <time>2016-12-04T17:39:05Z</time>
      </trkpt>
      <trkpt lat="45.81467" lon="2.95342">
        <ele>954.693</ele>
        <time>2021-03-28T14:35:03Z</time>
      </trkpt>
      <trkpt lat="45.81443" lon="2.95319">
        <ele>957.165</ele>
        <time>2021-03-28T14:35:23Z</time>
      </trkpt>
      <trkpt lat="45.81407" lon="2.95317">
        <ele>959.166</ele>
        <time>2021-03-28T14:35:43Z</time>
      </trkpt>
      <trkpt lat="45.81337" lon="2.95238">
        <ele>960.724</ele>
        <time>2016-12-04T17:40:25Z</time>
      </trkpt>
      <trkpt lat="45.81249" lon="2.95136">
        <ele>961.913</ele>
        <time>2021-03-28T14:36:23Z</time>
      </trkpt>
      <trkpt lat="45.81208" lon="2.95096">
        <ele>963.432</ele>
        <time>2021-03-28T14:36:43Z</time>
      </trkpt>
      <trkpt lat="45.81154" lon="2.9508">
        <ele>967.642</ele>
        <time>2016-12-04T17:41:45Z</time>
      </trkpt>
      <trkpt lat="45.81075" lon="2.9508">
        <ele>960.621</ele>
        <time>2016-12-04T17:42:05Z</time>
      </trkpt>
      <trkpt lat="45.80952" lon="2.9511">
        <ele>965.763</ele>
        <time>2016-12-04T17:42:25Z</time>
      </trkpt>
      <trkpt lat="45.80609" lon="2.95015">
        <ele>953.744</ele>
        <time>2016-12-04T17:42:45Z</time>
      </trkpt>
      <trkpt lat="45.80571" lon="2.95012">
        <ele>955.318</ele>
        <time>2016-12-04T17:43:05Z</time>
      </trkpt>
      <trkpt lat="45.80521" lon="2.94992">
        <ele>954.608</ele>
        <time>2016-12-04T17:43:25Z</time>
      </trkpt>
      <trkpt lat="45.80471" lon="2.95025">
        <ele>957.742</ele>
        <time>2016-12-04T17:43:45Z</time>
      </trkpt>
      <trkpt lat="45.80404" lon="2.95046">
        <ele>960.044</ele>
        <time>2016-12-04T17:44:05Z</time>
      </trkpt>
      <trkpt lat="45.80357" lon="2.95085">
        <ele>971.795</ele>
        <time>2016-12-04T17:44:25Z</time>
      </trkpt>
      <trkpt lat="45.80312" lon="2.95124">
        <ele>978.783</ele>
        <time>2016-12-04T17:44:45Z</time>
      </trkpt>
      <trkpt lat="45.80245" lon="2.95148">
        <ele>982.352</ele>
        <time>2016-12-04T17:45:05Z</time>
      </trkpt>
      <trkpt lat="45.80171" lon="2.95137">
        <ele>992.751</ele>
        <time>2016-12-04T17:45:25Z</time>
      </trkpt>
      <trkpt lat="45.80115" lon="2.95116">
        <ele>996.721</ele>
        <time>2016-12-04T17:45:45Z</time>
      </trkpt>
      <trkpt lat="45.80087" lon="2.95127">
        <ele>997.91</ele>
        <time>2016-12-04T17:46:05Z</time>
      </trkpt>
      <trkpt lat="45.80065" lon="2.95098">
        <ele>998.778</ele>
        <time>2016-12-04T17:46:25Z</time>
      </trkpt>
      <trkpt lat="45.79973" lon="2.95077">
        <ele>1008.133</ele>
        <time>2016-12-04T17:46:45Z</time>
      </trkpt>
      <trkpt lat="45.79907" lon="2.95011">
        <ele>1015.426</ele>
        <time>2016-12-04T17:47:05Z</time>
      </trkpt>
      <trkpt lat="45.79898" lon="2.94986">
        <ele>1019.608</ele>
        <time>2016-12-04T17:47:25Z</time>
      </trkpt>
      <trkpt lat="45.79843" lon="2.94999">
        <ele>1019.233</ele>
        <time>2016-12-04T17:47:45Z</time>
      </trkpt>
      <trkpt lat="45.79818" lon="2.95024">
        <ele>1014.835</ele>
        <time>2016-12-04T17:48:05Z</time>
      </trkpt>
      <trkpt lat="45.7979" lon="2.95015">
        <ele>1016.216</ele>
        <time>2016-12-04T17:48:25Z</time>
      </trkpt>
      <trkpt lat="45.79726" lon="2.95031">
        <ele>1013.554</ele>
        <time>2016-12-04T17:48:45Z</time>
      </trkpt>
      <trkpt lat="45.79656" lon="2.95039">
        <ele>1012.693</ele>
        <time>2016-12-04T17:49:05Z</time>
      </trkpt>
      <trkpt lat="45.79616" lon="2.95052">
        <ele>1012.192</ele>
        <time>2016-12-04T17:49:25Z</time>
      </trkpt>
      <trkpt lat="45.79583" lon="2.95054">
        <ele>1015.022</ele>
        <time>2016-12-04T17:49:45Z</time>
      </trkpt>
      <trkpt lat="45.79561" lon="2.95029">
        <ele>1017.531</ele>
        <time>2016-12-04T17:50:05Z</time>
      </trkpt>
      <trkpt lat="45.7954" lon="2.9496">
        <ele>1016.541</ele>
        <time>2016-12-04T17:50:25Z</time>
      </trkpt>
      <trkpt lat="45.79478" lon="2.94886">
        <ele>1024.081</ele>
        <time>2016-12-04T17:50:45Z</time>
      </trkpt>
      <trkpt lat="45.79316" lon="2.94668">
        <ele>1031.609</ele>
        <time>2016-12-04T17:51:05Z</time>
      </trkpt>
      <trkpt lat="45.79284" lon="2.94607">
        <ele>1031.608</ele>
        <time>2016-12-04T17:51:25Z</time>
      </trkpt>
      <trkpt lat="45.7921" lon="2.94501">
        <ele>1032.51</ele>
        <time>2016-12-04T17:51:45Z</time>
      </trkpt>
      <trkpt lat="45.79144" lon="2.94437">
        <ele>1038.372</ele>
        <time>2016-12-04T17:52:05Z</time>
      </trkpt>
      <trkpt lat="45.79111" lon="2.94427">
        <ele>1039.073</ele>
        <time>2016-12-04T17:52:25Z</time>
      </trkpt>
      <trkpt lat="45.79079" lon="2.94427">
        <ele>1041.341</ele>
        <time>2016-12-04T17:52:45Z</time>
      </trkpt>
      <trkpt lat="45.79021" lon="2.94406">
        <ele>1045.88</ele>
        <time>2016-12-04T17:53:05Z</time>
      </trkpt>
      <trkpt lat="45.78883" lon="2.94399">
        <ele>1048.829</ele>
        <time>2016-12-04T17:53:25Z</time>
      </trkpt>
      <trkpt lat="45.78791" lon="2.94453">
        <ele>1044.249</ele>
        <time>2016-12-04T17:53:45Z</time>
      </trkpt>
      <trkpt lat="45.78708" lon="2.94442">
        <ele>1036.668</ele>
        <time>2016-12-04T17:54:05Z</time>
      </trkpt>
      <trkpt lat="45.78646" lon="2.94522">
        <ele>1041.895</ele>
        <time>2016-12-04T17:54:25Z</time>
      </trkpt>
      <trkpt lat="45.78606" lon="2.94615">
        <ele>1046.149</ele>
        <time>2016-12-04T17:54:45Z</time>
      </trkpt>
      <trkpt lat="45.78606" lon="2.94668">
        <ele>1048.023</ele>
        <time>2016-12-04T17:55:05Z</time>
      </trkpt>
      <trkpt lat="45.78622" lon="2.94802">
        <ele>1051.208</ele>
        <time>2016-12-04T17:55:25Z</time>
      </trkpt>
      <trkpt lat="45.78648" lon="2.94941">
        <ele>1056.855</ele>
        <time>2016-12-04T17:55:45Z</time>
      </trkpt>
      <trkpt lat="45.78624" lon="2.95031">
        <ele>1062.187</ele>
        <time>2016-12-04T17:56:05Z</time>
      </trkpt>
      <trkpt lat="45.78631" lon="2.95133">
        <ele>1067.058</ele>
        <time>2016-12-04T17:56:25Z</time>
      </trkpt>
      <trkpt lat="45.78609" lon="2.95333">
        <ele>1067.856</ele>
        <time>2016-12-04T17:56:45Z</time>
      </trkpt>
      <trkpt lat="45.78609" lon="2.95417">
        <ele>1067.785</ele>
        <time>2016-12-04T17:57:05Z</time>
      </trkpt>
      <trkpt lat="45.78594" lon="2.955">
        <ele>1066.584</ele>
        <time>2016-12-04T17:57:25Z</time>
      </trkpt>
      <trkpt lat="45.7859" lon="2.95572">
        <ele>1066.184</ele>
        <time>2016-12-04T17:57:45Z</time>
      </trkpt>
      <trkpt lat="45.78582" lon="2.95643">
        <ele>1066.043</ele>
        <time>2016-12-04T17:58:05Z</time>
      </trkpt>
      <trkpt lat="45.78587" lon="2.95849">
        <ele>1072.935</ele>
        <time>2016-12-04T17:58:25Z</time>
      </trkpt>
      <trkpt lat="45.78616" lon="2.95985">
        <ele>1081.586</ele>
        <time>2016-12-04T17:58:45Z</time>
      </trkpt>
      <trkpt lat="45.78594" lon="2.96056">
        <ele>1087.014</ele>
        <time>2016-12-04T17:59:05Z</time>
      </trkpt>
      <trkpt lat="45.78508" lon="2.96153">
        <ele>1095.708</ele>
        <time>2016-12-04T17:59:25Z</time>
      </trkpt>
      <trkpt lat="45.78505" lon="2.9618">
        <ele>1099.269</ele>
        <time>2016-12-04T17:59:45Z</time>
      </trkpt>
      <trkpt lat="45.78479" lon="2.96205">
        <ele>1104.891</ele>
        <time>2016-12-04T18:00:05Z</time>
      </trkpt>
      <trkpt lat="45.78451" lon="2.96207">
        <ele>1105.352</ele>
        <time>2016-12-04T18:00:25Z</time>
      </trkpt>
      <trkpt lat="45.7841" lon="2.96241">
        <ele>1107.07</ele>
        <time>2016-12-04T18:00:45Z</time>
      </trkpt>
      <trkpt lat="45.78381" lon="2.96323">
        <ele>1116.069</ele>
        <time>2016-12-04T18:01:05Z</time>
      </trkpt>
      <trkpt lat="45.78371" lon="2.96421">
        <ele>1119.738</ele>
        <time>2016-12-04T18:01:25Z</time>
      </trkpt>
      <trkpt lat="45.7839" lon="2.96525">
        <ele>1122.938</ele>
        <time>2016-12-04T18:01:45Z</time>
      </trkpt>
      <trkpt lat="45.78394" lon="2.96596">
        <ele>1124.087</ele>
        <time>2016-12-04T18:02:05Z</time>
      </trkpt>
      <trkpt lat="45.78354" lon="2.96562">
        <ele>1123.717</ele>
        <time>2016-12-04T18:02:25Z</time>
      </trkpt>
      <trkpt lat="45.78297" lon="2.96555">
        <ele>1132.687</ele>
        <time>2016-12-04T18:02:45Z</time>
      </trkpt>
      <trkpt lat="45.78204" lon="2.96578">
        <ele>1148.815</ele>
        <time>2016-12-04T18:03:05Z</time>
      </trkpt>
      <trkpt lat="45.7814" lon="2.96512">
        <ele>1169.508</ele>
        <time>2016-12-04T18:03:25Z</time>
      </trkpt>
      <trkpt lat="45.78043" lon="2.96503">
        <ele>1186.977</ele>
        <time>2016-12-04T18:03:45Z</time>
      </trkpt>
      <trkpt lat="45.77992" lon="2.96465">
        <ele>1193.929</ele>
        <time>2016-12-04T18:04:05Z</time>
      </trkpt>
      <trkpt lat="45.77952" lon="2.96402">
        <ele>1208.85</ele>
        <time>2016-12-04T18:04:25Z</time>
      </trkpt>
      <trkpt lat="45.77911" lon="2.9641">
        <ele>1211.618</ele>
        <time>2016-12-04T18:04:45Z</time>
      </trkpt>
      <trkpt lat="45.77886" lon="2.96418">
        <ele>1213.977</ele>
        <time>2016-12-04T18:05:05Z</time>
      </trkpt>
      <trkpt lat="45.77766" lon="2.9643">
        <ele>1219.446</ele>
        <time>2016-12-04T18:05:25Z</time>
      </trkpt>
      <trkpt lat="45.77641" lon="2.96481">
        <ele>1244.116</ele>
        <time>2021-03-28T15:01:03Z</time>
      </trkpt>
      <trkpt lat="45.77622" lon="2.96438">
        <ele>1249.965</ele>
        <time>2021-03-28T15:01:23Z</time>
      </trkpt>
      <trkpt lat="45.77565" lon="2.96502">
        <ele>1266.452</ele>
        <time>2021-03-28T15:01:43Z</time>
      </trkpt>
      <trkpt lat="45.77541" lon="2.9645">
        <ele>1278.853</ele>
        <time>2021-03-28T15:02:03Z</time>
      </trkpt>
      <trkpt lat="45.77454" lon="2.96592">
        <ele>1304.608</ele>
        <time>2021-03-28T15:02:23Z</time>
      </trkpt>
      <trkpt lat="45.77359" lon="2.96651">
        <ele>1333.208</ele>
        <time>2016-12-04T18:06:25Z</time>
      </trkpt>
      <trkpt lat="45.77359" lon="2.96639">
        <ele>1337.411</ele>
        <time>2016-12-04T18:06:45Z</time>
      </trkpt>
      <trkpt lat="45.77314" lon="2.96633">
        <ele>1355.333</ele>
        <time>2016-12-04T18:07:05Z</time>
      </trkpt>
      <trkpt lat="45.77259" lon="2.96694">
        <ele>1347.844</ele>
        <time>2016-12-04T18:07:25Z</time>
      </trkpt>
      <trkpt lat="45.77201" lon="2.96689">
        <ele>1360.292</ele>
        <time>2016-12-04T18:07:45Z</time>
      </trkpt>
      <trkpt lat="45.77124" lon="2.9665">
        <ele>1375.341</ele>
        <time>2016-12-04T18:08:05Z</time>
      </trkpt>
      <trkpt lat="45.77078" lon="2.96596">
        <ele>1377.07</ele>
        <time>2016-12-04T18:08:25Z</time>
      </trkpt>
      <trkpt lat="45.77057" lon="2.96497">
        <ele>1389.09</ele>
        <time>2016-12-04T18:08:45Z</time>
      </trkpt>
      <trkpt lat="45.77089" lon="2.96326">
        <ele>1414.199</ele>
        <time>2016-12-04T18:09:05Z</time>
      </trkpt>
      <trkpt lat="45.77077" lon="2.96302">
        <ele>1414.927</ele>
        <time>2016-12-04T18:09:25Z</time>
      </trkpt>
      <trkpt lat="45.77076" lon="2.96285">
        <ele>1414.968</ele>
        <time>2016-12-04T18:09:45Z</time>
      </trkpt>
      <trkpt lat="45.77082" lon="2.96254">
        <ele>1415.014</ele>
        <time>2016-12-04T18:10:05Z</time>
      </trkpt>
      <trkpt lat="45.77089" lon="2.96232">
        <ele>1412.708</ele>
        <time>2016-12-04T18:10:25Z</time>
      </trkpt>
      <trkpt lat="45.77086" lon="2.96212">
        <ele>1410.898</ele>
        <time>2016-12-04T18:10:45Z</time>
      </trkpt>
      <trkpt lat="45.77025" lon="2.9613">
        <ele>1399.97</ele>
        <time>2016-12-04T18:11:05Z</time>
      </trkpt>
      <trkpt lat="45.77007" lon="2.96086">
        <ele>1388.861</ele>
        <time>2016-12-04T18:11:25Z</time>
      </trkpt>
      <trkpt lat="45.76992" lon="2.96087">
        <ele>1382.719</ele>
        <time>2016-12-04T18:11:45Z</time>
      </trkpt>
      <trkpt lat="45.76933" lon="2.96128">
        <ele>1361.928</ele>
        <time>2016-12-04T18:12:05Z</time>
      </trkpt>
      <trkpt lat="45.76923" lon="2.96106">
        <ele>1353.357</ele>
        <time>2016-12-04T18:12:25Z</time>
      </trkpt>
      <trkpt lat="45.76972" lon="2.96043">
        <ele>1360.697</ele>
        <time>2016-12-04T18:12:45Z</time>
      </trkpt>
      <trkpt lat="45.76981" lon="2.95999">
        <ele>1345.716</ele>
        <time>2016-12-04T18:13:05Z</time>
      </trkpt>
      <trkpt lat="45.76939" lon="2.96029">
        <ele>1339.833</ele>
        <time>2016-12-04T18:13:25Z</time>
      </trkpt>
      <trkpt lat="45.76955" lon="2.95987">
        <ele>1325.123</ele>
        <time>2016-12-04T18:13:45Z</time>
      </trkpt>
      <trkpt lat="45.7692" lon="2.96005">
        <ele>1317.515</ele>
        <time>2016-12-04T18:14:05Z</time>
      </trkpt>
      <trkpt lat="45.76957" lon="2.95932">
        <ele>1302.608</ele>
        <time>2016-12-04T18:14:25Z</time>
      </trkpt>
      <trkpt lat="45.76892" lon="2.9598">
        <ele>1293.369</ele>
        <time>2016-12-04T18:14:45Z</time>
      </trkpt>
      <trkpt lat="45.76866" lon="2.95984">
        <ele>1281.451</ele>
        <time>2016-12-04T18:15:05Z</time>
      </trkpt>
      <trkpt lat="45.76887" lon="2.95961">
        <ele>1284.892</ele>
        <time>2016-12-04T18:15:25Z</time>
      </trkpt>
      <trkpt lat="45.76893" lon="2.95938">
        <ele>1277.35</ele>
        <time>2016-12-04T18:15:45Z</time>
      </trkpt>
      <trkpt lat="45.76852" lon="2.95947">
        <ele>1262.329</ele>
        <time>2016-12-04T18:16:05Z</time>
      </trkpt>
      <trkpt lat="45.76801" lon="2.96004">
        <ele>1253.098</ele>
        <time>2016-12-04T18:16:25Z</time>
      </trkpt>
      <trkpt lat="45.76777" lon="2.96057">
        <ele>1257.118</ele>
        <time>2016-12-04T18:16:45Z</time>
      </trkpt>
      <trkpt lat="45.76764" lon="2.96062">
        <ele>1245.987</ele>
        <time>2016-12-04T18:17:05Z</time>
      </trkpt>
      <trkpt lat="45.76778" lon="2.95991">
        <ele>1233.465</ele>
        <time>2016-12-04T18:17:25Z</time>
      </trkpt>
      <trkpt lat="45.76791" lon="2.95943">
        <ele>1223.868</ele>
        <time>2016-12-04T18:17:45Z</time>
      </trkpt>
      <trkpt lat="45.76753" lon="2.96003">
        <ele>1217.014</ele>
        <time>2016-12-04T18:18:05Z</time>
      </trkpt>
      <trkpt lat="45.76722" lon="2.96043">
        <ele>1203.408</ele>
        <time>2016-12-04T18:18:25Z</time>
      </trkpt>
      <trkpt lat="45.76734" lon="2.95975">
        <ele>1193.722</ele>
        <time>2016-12-04T18:18:45Z</time>
      </trkpt>
      <trkpt lat="45.76733" lon="2.95932">
        <ele>1185.194</ele>
        <time>2016-12-04T18:19:05Z</time>
      </trkpt>
      <trkpt lat="45.76779" lon="2.95795">
        <ele>1177.035</ele>
        <time>2016-12-04T18:19:25Z</time>
      </trkpt>
      <trkpt lat="45.76773" lon="2.95783">
        <ele>1172.843</ele>
        <time>2016-12-04T18:19:45Z</time>
      </trkpt>
      <trkpt lat="45.7674" lon="2.95811">
        <ele>1167.072</ele>
        <time>2016-12-04T18:20:05Z</time>
      </trkpt>
      <trkpt lat="45.76715" lon="2.95796">
        <ele>1157.481</ele>
        <time>2016-12-04T18:20:25Z</time>
      </trkpt>
      <trkpt lat="45.76703" lon="2.95752">
        <ele>1150.171</ele>
        <time>2016-12-04T18:20:45Z</time>
      </trkpt>
      <trkpt lat="45.76648" lon="2.95744">
        <ele>1141.85</ele>
        <time>2016-12-04T18:21:05Z</time>
      </trkpt>
      <trkpt lat="45.76646" lon="2.95796">
        <ele>1141.587</ele>
        <time>2016-12-04T18:21:25Z</time>
      </trkpt>
      <trkpt lat="45.76622" lon="2.95856">
        <ele>1134.442</ele>
        <time>2016-12-04T18:21:45Z</time>
      </trkpt>
      <trkpt lat="45.76604" lon="2.9582">
        <ele>1130.226</ele>
        <time>2016-12-04T18:22:05Z</time>
      </trkpt>
      <trkpt lat="45.76579" lon="2.95792">
        <ele>1127.308</ele>
        <time>2016-12-04T18:22:25Z</time>
      </trkpt>
      <trkpt lat="45.76516" lon="2.95769">
        <ele>1116.384</ele>
        <time>2016-12-04T18:22:45Z</time>
      </trkpt>
      <trkpt lat="45.765" lon="2.95728">
        <ele>1109.326</ele>
        <time>2016-12-04T18:23:05Z</time>
      </trkpt>
      <trkpt lat="45.76496" lon="2.95614">
        <ele>1096.357</ele>
        <time>2016-12-04T18:23:25Z</time>
      </trkpt>
      <trkpt lat="45.76483" lon="2.95586">
        <ele>1089.895</ele>
        <time>2016-12-04T18:23:45Z</time>
      </trkpt>
      <trkpt lat="45.76443" lon="2.95549">
        <ele>1081.514</ele>
        <time>2016-12-04T18:24:05Z</time>
      </trkpt>
      <trkpt lat="45.76391" lon="2.95554">
        <ele>1081.073</ele>
        <time>2016-12-04T18:25:05Z</time>
      </trkpt>
      <trkpt lat="45.76384" lon="2.9562">
        <ele>1076.353</ele>
        <time>2016-12-04T18:25:25Z</time>
      </trkpt>
      <trkpt lat="45.7635" lon="2.9564">
        <ele>1074.572</ele>
        <time>2021-03-28T15:21:23Z</time>
      </trkpt>
      <trkpt lat="45.76326" lon="2.95672">
        <ele>1069.348</ele>
        <time>2016-12-04T18:25:45Z</time>
      </trkpt>
      <trkpt lat="45.76317" lon="2.95669">
        <ele>1069.261</ele>
        <time>2016-12-04T18:26:05Z</time>
      </trkpt>
      <trkpt lat="45.76288" lon="2.95715">
        <ele>1063.917</ele>
        <time>2016-12-04T18:26:25Z</time>
      </trkpt>
      <trkpt lat="45.76247" lon="2.95738">
        <ele>1064.408</ele>
        <time>2016-12-04T18:26:45Z</time>
      </trkpt>
      <trkpt lat="45.76228" lon="2.95756">
        <ele>1062.58</ele>
        <time>2016-12-04T18:27:05Z</time>
      </trkpt>
      <trkpt lat="45.76203" lon="2.9576">
        <ele>1062.922</ele>
        <time>2021-01-03T17:12:10Z</time>
      </trkpt>
      <trkpt lat="45.7618" lon="2.9574">
        <ele>1066.823</ele>
        <time>2021-01-03T17:12:30Z</time>
      </trkpt>
      <trkpt lat="45.76124" lon="2.95762">
        <ele>1067.051</ele>
        <time>2021-01-03T17:12:50Z</time>
      </trkpt>
      <trkpt lat="45.76104" lon="2.9578">
        <ele>1066.01</ele>
        <time>2021-01-03T17:13:10Z</time>
      </trkpt>
      <trkpt lat="45.76036" lon="2.95766">
        <ele>1071.619</ele>
        <time>2021-01-03T17:13:30Z</time>
      </trkpt>
      <trkpt lat="45.75995" lon="2.95774">
        <ele>1072.489</ele>
        <time>2021-01-03T17:13:50Z</time>
      </trkpt>
      <trkpt lat="45.76004" lon="2.95835">
        <ele>1062.678</ele>
        <time>2021-01-03T17:14:10Z</time>
      </trkpt>
      <trkpt lat="45.75989" lon="2.95878">
        <ele>1053.563</ele>
        <time>2021-01-03T17:14:30Z</time>
      </trkpt>
      <trkpt lat="45.75915" lon="2.95888">
        <ele>1048.044</ele>
        <time>2021-01-03T17:14:50Z</time>
      </trkpt>
      <trkpt lat="45.75845" lon="2.95822">
        <ele>1056.318</ele>
        <time>2021-01-03T17:15:10Z</time>
      </trkpt>
      <trkpt lat="45.75694" lon="2.9571">
        <ele>1050.208</ele>
        <time>2021-01-03T17:15:30Z</time>
      </trkpt>
      <trkpt lat="45.75662" lon="2.95702">
        <ele>1043.152</ele>
        <time>2021-01-03T17:15:50Z</time>
      </trkpt>
      <trkpt lat="45.7567" lon="2.95775">
        <ele>1032.244</ele>
        <time>2021-01-03T17:16:10Z</time>
      </trkpt>
      <trkpt lat="45.75625" lon="2.95863">
        <ele>1013.245</ele>
        <time>2021-01-03T17:16:30Z</time>
      </trkpt>
      <trkpt lat="45.75556" lon="2.95925">
        <ele>1000.843</ele>
        <time>2021-01-03T17:16:50Z</time>
      </trkpt>
      <trkpt lat="45.75514" lon="2.95944">
        <ele>996.192</ele>
        <time>2021-01-03T17:17:10Z</time>
      </trkpt>
      <trkpt lat="45.75438" lon="2.96022">
        <ele>988.411</ele>
        <time>2021-01-03T17:17:30Z</time>
      </trkpt>
      <trkpt lat="45.75411" lon="2.96144">
        <ele>981.121</ele>
        <time>2021-01-03T17:17:50Z</time>
      </trkpt>
      <trkpt lat="45.75374" lon="2.96191">
        <ele>976.85</ele>
        <time>2021-01-03T17:18:10Z</time>
      </trkpt>
      <trkpt lat="45.75293" lon="2.9623">
        <ele>974.216</ele>
        <time>2021-01-03T17:18:30Z</time>
      </trkpt>
      <trkpt lat="45.75261" lon="2.96421">
        <ele>968.876</ele>
        <time>2021-01-03T17:18:50Z</time>
      </trkpt>
      <trkpt lat="45.75289" lon="2.9657">
        <ele>964.713</ele>
        <time>2021-03-28T15:30:23Z</time>
      </trkpt>
      <trkpt lat="45.75285" lon="2.96794">
        <ele>961.108</ele>
        <time>2021-01-03T17:19:30Z</time>
      </trkpt>
      <trkpt lat="45.75248" lon="2.96785">
        <ele>958.517</ele>
        <time>2016-12-04T18:34:45Z</time>
      </trkpt>
      <trkpt lat="45.75159" lon="2.96801">
        <ele>958.559</ele>
        <time>2016-12-04T18:35:05Z</time>
      </trkpt>
      <trkpt lat="45.74945" lon="2.96861">
        <ele>949.04</ele>
        <time>2016-12-04T18:35:25Z</time>
      </trkpt>
      <trkpt lat="45.74846" lon="2.9689">
        <ele>946.498</ele>
        <time>2016-12-04T18:35:45Z</time>
      </trkpt>
      <trkpt lat="45.74774" lon="2.96924">
        <ele>946.587</ele>
        <time>2016-12-04T18:36:05Z</time>
      </trkpt>
      <trkpt lat="45.7459" lon="2.97018">
        <ele>951.766</ele>
        <time>2016-12-04T18:36:25Z</time>
      </trkpt>
      <trkpt lat="45.74484" lon="2.96977">
        <ele>959.496</ele>
        <time>2016-12-04T18:36:45Z</time>
      </trkpt>
      <trkpt lat="45.74378" lon="2.96927">
        <ele>964.525</ele>
        <time>2016-12-04T18:37:05Z</time>
      </trkpt>
      <trkpt lat="45.7432" lon="2.9691">
        <ele>962.281</ele>
        <time>2016-12-04T18:37:25Z</time>
      </trkpt>
      <trkpt lat="45.74287" lon="2.96885">
        <ele>962.561</ele>
        <time>2016-12-04T18:37:45Z</time>
      </trkpt>
      <trkpt lat="45.74182" lon="2.9679">
        <ele>967.117</ele>
        <time>2016-12-04T18:38:05Z</time>
      </trkpt>
      <trkpt lat="45.74142" lon="2.96773">
        <ele>967.408</ele>
        <time>2016-12-04T18:38:25Z</time>
      </trkpt>
      <trkpt lat="45.74108" lon="2.96692">
        <ele>971.344</ele>
        <time>2016-12-04T18:38:45Z</time>
      </trkpt>
      <trkpt lat="45.74075" lon="2.96624">
        <ele>976.096</ele>
        <time>2016-12-04T18:39:05Z</time>
      </trkpt>
      <trkpt lat="45.74022" lon="2.96628">
        <ele>978.077</ele>
        <time>2016-12-04T18:39:25Z</time>
      </trkpt>
      <trkpt lat="45.73986" lon="2.96611">
        <ele>983.145</ele>
        <time>2016-12-04T18:39:45Z</time>
      </trkpt>
      <trkpt lat="45.73976" lon="2.96621">
        <ele>985.084</ele>
        <time>2016-12-04T18:40:05Z</time>
      </trkpt>
      <trkpt lat="45.73959" lon="2.96608">
        <ele>988.083</ele>
        <time>2016-12-04T18:40:25Z</time>
      </trkpt>
      <trkpt lat="45.73868" lon="2.96591">
        <ele>991.523</ele>
        <time>2016-12-04T18:40:45Z</time>
      </trkpt>
      <trkpt lat="45.73817" lon="2.96566">
        <ele>992.012</ele>
        <time>2016-12-04T18:41:05Z</time>
      </trkpt>
      <trkpt lat="45.73721" lon="2.96499">
        <ele>996.939</ele>
        <time>2016-12-04T18:41:25Z</time>
      </trkpt>
      <trkpt lat="45.73602" lon="2.96421">
        <ele>998.101</ele>
        <time>2016-12-04T18:41:45Z</time>
      </trkpt>
      <trkpt lat="45.73498" lon="2.96361">
        <ele>999.121</ele>
        <time>2016-12-04T18:42:05Z</time>
      </trkpt>
      <trkpt lat="45.73434" lon="2.96336">
        <ele>1000.108</ele>
        <time>2016-12-04T18:42:25Z</time>
      </trkpt>
      <trkpt lat="45.73355" lon="2.96305">
        <ele>1005.959</ele>
        <time>2016-12-04T18:42:45Z</time>
      </trkpt>
      <trkpt lat="45.73272" lon="2.96259">
        <ele>1004.771</ele>
        <time>2016-12-04T18:43:05Z</time>
      </trkpt>
      <trkpt lat="45.73133" lon="2.96164">
        <ele>1018.592</ele>
        <time>2016-12-04T18:43:25Z</time>
      </trkpt>
      <trkpt lat="45.73095" lon="2.96158">
        <ele>1020.03</ele>
        <time>2016-12-04T18:43:45Z</time>
      </trkpt>
      <trkpt lat="45.73069" lon="2.9614">
        <ele>1023.959</ele>
        <time>2016-12-04T18:44:05Z</time>
      </trkpt>
      <trkpt lat="45.73005" lon="2.96075">
        <ele>1032.648</ele>
        <time>2016-12-04T18:44:25Z</time>
      </trkpt>
      <trkpt lat="45.72992" lon="2.96029">
        <ele>1036.988</ele>
        <time>2016-12-04T18:44:45Z</time>
      </trkpt>
      <trkpt lat="45.72961" lon="2.95979">
        <ele>1041.447</ele>
        <time>2016-12-04T18:45:05Z</time>
      </trkpt>
      <trkpt lat="45.72888" lon="2.95912">
        <ele>1050.475</ele>
        <time>2016-12-04T18:45:25Z</time>
      </trkpt>
      <trkpt lat="45.7285" lon="2.95863">
        <ele>1053.928</ele>
        <time>2016-12-04T18:45:45Z</time>
      </trkpt>
      <trkpt lat="45.72834" lon="2.95806">
        <ele>1056.92</ele>
        <time>2016-12-04T18:46:05Z</time>
      </trkpt>
      <trkpt lat="45.72723" lon="2.95651">
        <ele>1065.008</ele>
        <time>2016-12-04T18:46:25Z</time>
      </trkpt>
      <trkpt lat="45.72589" lon="2.95642">
        <ele>1069.893</ele>
        <time>2016-12-04T18:46:45Z</time>
      </trkpt>
      <trkpt lat="45.72539" lon="2.95596">
        <ele>1074.985</ele>
        <time>2016-12-04T18:47:05Z</time>
      </trkpt>
      <trkpt lat="45.72479" lon="2.95529">
        <ele>1079.996</ele>
        <time>2016-12-04T18:47:25Z</time>
      </trkpt>
      <trkpt lat="45.7243" lon="2.95487">
        <ele>1078.964</ele>
        <time>2016-12-04T18:47:45Z</time>
      </trkpt>
      <trkpt lat="45.72339" lon="2.95356">
        <ele>1090.093</ele>
        <time>2016-12-04T18:48:05Z</time>
      </trkpt>
      <trkpt lat="45.723" lon="2.95319">
        <ele>1093.482</ele>
        <time>2016-12-04T18:48:25Z</time>
      </trkpt>
      <trkpt lat="45.72245" lon="2.95255">
        <ele>1096.722</ele>
        <time>2016-12-04T18:48:45Z</time>
      </trkpt>
      <trkpt lat="45.72223" lon="2.95236">
        <ele>1096.131</ele>
        <time>2016-12-04T18:49:05Z</time>
      </trkpt>
      <trkpt lat="45.72217" lon="2.95213">
        <ele>1096.615</ele>
        <time>2016-12-04T18:49:25Z</time>
      </trkpt>
      <trkpt lat="45.72205" lon="2.95211">
        <ele>1096.365</ele>
        <time>2016-12-04T18:49:45Z</time>
      </trkpt>
      <trkpt lat="45.72186" lon="2.95215">
        <ele>1096.411</ele>
        <time>2016-12-04T18:50:05Z</time>
      </trkpt>
      <trkpt lat="45.721" lon="2.95164">
        <ele>1093.808</ele>
        <time>2016-12-04T18:50:25Z</time>
      </trkpt>
      <trkpt lat="45.72051" lon="2.95138">
        <ele>1087.837</ele>
        <time>2016-12-04T18:50:45Z</time>
      </trkpt>
      <trkpt lat="45.71971" lon="2.95085">
        <ele>1083.079</ele>
        <time>2016-12-04T18:51:05Z</time>
      </trkpt>
      <trkpt lat="45.71886" lon="2.95041">
        <ele>1079.91</ele>
        <time>2016-12-04T18:51:25Z</time>
      </trkpt>
      <trkpt lat="45.71834" lon="2.94996">
        <ele>1079.938</ele>
        <time>2016-12-04T18:51:45Z</time>
      </trkpt>
      <trkpt lat="45.71778" lon="2.94942">
        <ele>1079.927</ele>
        <time>2016-12-04T18:52:05Z</time>
      </trkpt>
      <trkpt lat="45.71713" lon="2.94906">
        <ele>1078.136</ele>
        <time>2016-12-04T18:52:25Z</time>
      </trkpt>
      <trkpt lat="45.71609" lon="2.94864">
        <ele>1071.426</ele>
        <time>2016-12-04T18:52:45Z</time>
      </trkpt>
      <trkpt lat="45.71444" lon="2.94805">
        <ele>1062.085</ele>
        <time>2016-12-04T18:53:05Z</time>
      </trkpt>
      <trkpt lat="45.71399" lon="2.94762">
        <ele>1057.634</ele>
        <time>2016-12-04T18:53:25Z</time>
      </trkpt>
      <trkpt lat="45.71366" lon="2.94723">
        <ele>1054.255</ele>
        <time>2016-12-04T18:53:45Z</time>
      </trkpt>
      <trkpt lat="45.71322" lon="2.94706">
        <ele>1054.81</ele>
        <time>2016-12-04T18:54:05Z</time>
      </trkpt>
      <trkpt lat="45.71246" lon="2.94661">
        <ele>1053.208</ele>
        <time>2016-12-04T18:54:25Z</time>
      </trkpt>
      <trkpt lat="45.71216" lon="2.94627">
        <ele>1052.439</ele>
        <time>2016-12-04T18:54:45Z</time>
      </trkpt>
      <trkpt lat="45.71132" lon="2.94493">
        <ele>1048.531</ele>
        <time>2016-12-04T18:55:05Z</time>
      </trkpt>
      <trkpt lat="45.71088" lon="2.94404">
        <ele>1049.232</ele>
        <time>2016-12-04T18:55:25Z</time>
      </trkpt>
      <trkpt lat="45.7108" lon="2.94375">
        <ele>1048.16</ele>
        <time>2016-12-04T18:55:45Z</time>
      </trkpt>
      <trkpt lat="45.71046" lon="2.94298">
        <ele>1043.719</ele>
        <time>2016-12-04T18:56:05Z</time>
      </trkpt>
      <trkpt lat="45.71035" lon="2.94337">
        <ele>1043.678</ele>
        <time>2016-12-04T18:56:25Z</time>
      </trkpt>
      <trkpt lat="45.71008" lon="2.94366">
        <ele>1046.358</ele>
        <time>2016-12-04T18:56:45Z</time>
      </trkpt>
      <trkpt lat="45.70993" lon="2.94443">
        <ele>1048.597</ele>
        <time>2016-12-04T18:57:05Z</time>
      </trkpt>
      <trkpt lat="45.70951" lon="2.94526">
        <ele>1050.071</ele>
        <time>2016-12-04T18:57:25Z</time>
      </trkpt>
      <trkpt lat="45.70902" lon="2.94598">
        <ele>1050.541</ele>
        <time>2016-12-04T18:57:45Z</time>
      </trkpt>
      <trkpt lat="45.7086" lon="2.94681">
        <ele>1050.015</ele>
        <time>2016-12-04T18:58:05Z</time>
      </trkpt>
      <trkpt lat="45.70794" lon="2.9478">
        <ele>1048.008</ele>
        <time>2016-12-04T18:58:25Z</time>
      </trkpt>
      <trkpt lat="45.70741" lon="2.94853">
        <ele>1048.433</ele>
        <time>2016-12-04T18:58:45Z</time>
      </trkpt>
      <trkpt lat="45.7071" lon="2.94935">
        <ele>1045.635</ele>
        <time>2016-12-04T18:59:05Z</time>
      </trkpt>
      <trkpt lat="45.7068" lon="2.94999">
        <ele>1042.046</ele>
        <time>2016-12-04T18:59:25Z</time>
      </trkpt>
      <trkpt lat="45.70676" lon="2.95042">
        <ele>1041.074</ele>
        <time>2016-12-04T18:59:45Z</time>
      </trkpt>
      <trkpt lat="45.70673" lon="2.95145">
        <ele>1042.243</ele>
        <time>2016-12-04T19:00:05Z</time>
      </trkpt>
      <trkpt lat="45.70641" lon="2.95227">
        <ele>1036.682</ele>
        <time>2016-12-04T19:00:25Z</time>
      </trkpt>
      <trkpt lat="45.70596" lon="2.95306">
        <ele>1028.822</ele>
        <time>2016-12-04T19:00:45Z</time>
      </trkpt>
      <trkpt lat="45.70536" lon="2.95358">
        <ele>1018.921</ele>
        <time>2016-12-04T19:01:05Z</time>
      </trkpt>
      <trkpt lat="45.70488" lon="2.95421">
        <ele>1010.721</ele>
        <time>2016-12-04T19:01:25Z</time>
      </trkpt>
      <trkpt lat="45.70469" lon="2.95485">
        <ele>1006.341</ele>
        <time>2016-12-04T19:01:45Z</time>
      </trkpt>
      <trkpt lat="45.70452" lon="2.95576">
        <ele>1000.005</ele>
        <time>2016-12-04T19:02:05Z</time>
      </trkpt>
      <trkpt lat="45.70427" lon="2.95625">
        <ele>996.108</ele>
        <time>2016-12-04T19:02:25Z</time>
      </trkpt>
      <trkpt lat="45.70389" lon="2.95659">
        <ele>994.668</ele>
        <time>2016-12-04T19:02:45Z</time>
      </trkpt>
      <trkpt lat="45.7037" lon="2.95704">
        <ele>992.66</ele>
        <time>2016-12-04T19:03:05Z</time>
      </trkpt>
      <trkpt lat="45.70361" lon="2.95747">
        <ele>993.861</ele>
        <time>2016-12-04T19:03:25Z</time>
      </trkpt>
      <trkpt lat="45.70319" lon="2.95829">
        <ele>994.569</ele>
        <time>2016-12-04T19:03:45Z</time>
      </trkpt>
      <trkpt lat="45.7025" lon="2.95964">
        <ele>996.478</ele>
        <time>2016-12-04T19:04:05Z</time>
      </trkpt>
      <trkpt lat="45.70233" lon="2.95968">
        <ele>995.597</ele>
        <time>2016-12-04T19:04:25Z</time>
      </trkpt>
      <trkpt lat="45.70172" lon="2.96083">
        <ele>996.767</ele>
        <time>2016-12-04T19:04:45Z</time>
      </trkpt>
      <trkpt lat="45.70097" lon="2.96205">
        <ele>999.516</ele>
        <time>2016-12-04T19:05:05Z</time>
      </trkpt>
      <trkpt lat="45.70067" lon="2.96314">
        <ele>1005.744</ele>
        <time>2016-12-04T19:05:25Z</time>
      </trkpt>
      <trkpt lat="45.7007" lon="2.96394">
        <ele>1003.605</ele>
        <time>2016-12-04T19:05:45Z</time>
      </trkpt>
      <trkpt lat="45.7007" lon="2.96495">
        <ele>996.015</ele>
        <time>2016-12-04T19:06:05Z</time>
      </trkpt>
      <trkpt lat="45.70114" lon="2.96602">
        <ele>987.408</ele>
        <time>2016-12-04T19:06:25Z</time>
      </trkpt>
      <trkpt lat="45.70132" lon="2.96695">
        <ele>983.84</ele>
        <time>2016-12-04T19:06:45Z</time>
      </trkpt>
      <trkpt lat="45.70137" lon="2.96759">
        <ele>983.872</ele>
        <time>2016-12-04T19:07:05Z</time>
      </trkpt>
      <trkpt lat="45.70114" lon="2.96841">
        <ele>981.523</ele>
        <time>2016-12-04T19:07:25Z</time>
      </trkpt>
      <trkpt lat="45.70089" lon="2.96894">
        <ele>982.171</ele>
        <time>2016-12-04T19:07:45Z</time>
      </trkpt>
      <trkpt lat="45.69961" lon="2.97214">
        <ele>985.41</ele>
        <time>2021-01-03T17:53:10Z</time>
      </trkpt>
      <trkpt lat="45.69924" lon="2.97406">
        <ele>979.539</ele>
        <time>2021-01-03T17:53:30Z</time>
      </trkpt>
      <trkpt lat="45.69837" lon="2.9764">
        <ele>967.299</ele>
        <time>2021-01-03T17:53:50Z</time>
      </trkpt>
      <trkpt lat="45.69807" lon="2.97782">
        <ele>959.368</ele>
        <time>2021-01-03T17:54:10Z</time>
      </trkpt>
      <trkpt lat="45.69722" lon="2.97957">
        <ele>951.183</ele>
        <time>2021-01-03T17:54:30Z</time>
      </trkpt>
      <trkpt lat="45.69703" lon="2.98082">
        <ele>948.625</ele>
        <time>2021-01-03T17:54:50Z</time>
      </trkpt>
      <trkpt lat="45.69708" lon="2.98166">
        <ele>949.617</ele>
        <time>2021-01-03T17:55:10Z</time>
      </trkpt>
      <trkpt lat="45.69632" lon="2.98567">
        <ele>937.908</ele>
        <time>2021-01-03T17:55:30Z</time>
      </trkpt>
      <trkpt lat="45.69571" lon="2.9879">
        <ele>932.844</ele>
        <time>2021-01-03T17:55:50Z</time>
      </trkpt>
      <trkpt lat="45.69561" lon="2.9887">
        <ele>931.256</ele>
        <time>2021-01-03T17:56:10Z</time>
      </trkpt>
      <trkpt lat="45.69518" lon="2.98957">
        <ele>931.627</ele>
        <time>2021-01-03T17:56:30Z</time>
      </trkpt>
      <trkpt lat="45.69567" lon="2.99114">
        <ele>925.365</ele>
        <time>2021-01-03T17:56:50Z</time>
      </trkpt>
      <trkpt lat="45.69557" lon="2.99157">
        <ele>925.954</ele>
        <time>2021-01-03T17:57:10Z</time>
      </trkpt>
      <trkpt lat="45.69529" lon="2.99228">
        <ele>926.923</ele>
        <time>2021-01-03T17:57:30Z</time>
      </trkpt>
      <trkpt lat="45.69513" lon="2.99305">
        <ele>923.643</ele>
        <time>2021-01-03T17:57:50Z</time>
      </trkpt>
      <trkpt lat="45.69454" lon="2.99407">
        <ele>921.972</ele>
        <time>2021-01-03T17:58:10Z</time>
      </trkpt>
      <trkpt lat="45.69423" lon="2.99454">
        <ele>920.078</ele>
        <time>2021-01-03T17:58:30Z</time>
      </trkpt>
      <trkpt lat="45.69409" lon="2.99533">
        <ele>912.933</ele>
        <time>2021-01-03T17:58:50Z</time>
      </trkpt>
      <trkpt lat="45.69409" lon="2.99562">
        <ele>912.126</ele>
        <time>2021-01-03T17:59:10Z</time>
      </trkpt>
      <trkpt lat="45.6939" lon="2.99549">
        <ele>911.608</ele>
        <time>2021-01-03T17:59:30Z</time>
      </trkpt>
      <trkpt lat="45.6935" lon="2.99478">
        <ele>915.073</ele>
        <time>2021-01-03T17:59:50Z</time>
      </trkpt>
      <trkpt lat="45.69304" lon="2.99445">
        <ele>914.445</ele>
        <time>2021-01-03T18:00:10Z</time>
      </trkpt>
      <trkpt lat="45.69254" lon="2.99362">
        <ele>918.236</ele>
        <time>2021-01-03T18:00:30Z</time>
      </trkpt>
      <trkpt lat="45.69203" lon="2.99232">
        <ele>917.324</ele>
        <time>2021-01-03T18:00:50Z</time>
      </trkpt>
      <trkpt lat="45.69195" lon="2.99117">
        <ele>918.513</ele>
        <time>2021-01-03T18:01:10Z</time>
      </trkpt>
      <trkpt lat="45.69171" lon="2.99055">
        <ele>915.852</ele>
        <time>2021-01-03T18:01:30Z</time>
      </trkpt>
      <trkpt lat="45.69101" lon="2.98943">
        <ele>915.492</ele>
        <time>2021-01-03T18:01:50Z</time>
      </trkpt>
      <trkpt lat="45.69103" lon="2.98832">
        <ele>916.861</ele>
        <time>2021-01-03T18:02:10Z</time>
      </trkpt>
      <trkpt lat="45.69129" lon="2.98769">
        <ele>916.356</ele>
        <time>2021-01-03T18:02:30Z</time>
      </trkpt>
      <trkpt lat="45.69065" lon="2.98751">
        <ele>918.859</ele>
        <time>2021-01-03T18:02:50Z</time>
      </trkpt>
      <trkpt lat="45.69042" lon="2.98767">
        <ele>917.914</ele>
        <time>2021-01-03T18:03:10Z</time>
      </trkpt>
      <trkpt lat="45.69037" lon="2.98804">
        <ele>916.408</ele>
        <time>2021-01-03T18:03:30Z</time>
      </trkpt>
      <trkpt lat="45.69028" lon="2.98804">
        <ele>916.231</ele>
        <time>2021-01-03T18:03:50Z</time>
      </trkpt>
      <trkpt lat="45.69013" lon="2.98754">
        <ele>918.083</ele>
        <time>2021-01-03T18:04:10Z</time>
      </trkpt>
      <trkpt lat="45.68953" lon="2.987">
        <ele>919.344</ele>
        <time>2021-01-03T18:04:30Z</time>
      </trkpt>
      <trkpt lat="45.68936" lon="2.98665">
        <ele>920.882</ele>
        <time>2021-01-03T18:04:50Z</time>
      </trkpt>
      <trkpt lat="45.68897" lon="2.98692">
        <ele>917.661</ele>
        <time>2021-01-03T18:05:10Z</time>
      </trkpt>
      <trkpt lat="45.68835" lon="2.9867">
        <ele>916.04</ele>
        <time>2021-01-03T18:05:30Z</time>
      </trkpt>
      <trkpt lat="45.68761" lon="2.98538">
        <ele>911.48</ele>
        <time>2021-01-03T18:05:50Z</time>
      </trkpt>
      <trkpt lat="45.68752" lon="2.98478">
        <ele>912.389</ele>
        <time>2021-01-03T18:06:10Z</time>
      </trkpt>
      <trkpt lat="45.68681" lon="2.98416">
        <ele>912.221</ele>
        <time>2021-01-03T18:06:30Z</time>
      </trkpt>
      <trkpt lat="45.6869" lon="2.98269">
        <ele>914.841</ele>
        <time>2021-01-03T18:06:50Z</time>
      </trkpt>
      <trkpt lat="45.68622" lon="2.9818">
        <ele>917.705</ele>
        <time>2021-01-03T18:07:10Z</time>
      </trkpt>
      <trkpt lat="45.68613" lon="2.98099">
        <ele>920.308</ele>
        <time>2021-01-03T18:07:30Z</time>
      </trkpt>
      <trkpt lat="45.68582" lon="2.98063">
        <ele>921.518</ele>
        <time>2021-01-03T18:07:50Z</time>
      </trkpt>
      <trkpt lat="45.68522" lon="2.98055">
        <ele>922.99</ele>
        <time>2021-01-03T18:08:10Z</time>
      </trkpt>
      <trkpt lat="45.68477" lon="2.9799">
        <ele>923.131</ele>
        <time>2021-01-03T18:08:30Z</time>
      </trkpt>
      <trkpt lat="45.68439" lon="2.97974">
        <ele>921.699</ele>
        <time>2021-01-03T18:08:50Z</time>
      </trkpt>
      <trkpt lat="45.68385" lon="2.97987">
        <ele>918.348</ele>
        <time>2021-01-03T18:09:10Z</time>
      </trkpt>
      <trkpt lat="45.68341" lon="2.97951">
        <ele>915.247</ele>
        <time>2021-01-03T18:09:30Z</time>
      </trkpt>
      <trkpt lat="45.68214" lon="2.97947">
        <ele>909.777</ele>
        <time>2021-01-03T18:09:50Z</time>
      </trkpt>
      <trkpt lat="45.68155" lon="2.97915">
        <ele>907.786</ele>
        <time>2021-01-03T18:10:10Z</time>
      </trkpt>
      <trkpt lat="45.68109" lon="2.97837">
        <ele>904.757</ele>
        <time>2021-01-03T18:10:30Z</time>
      </trkpt>
      <trkpt lat="45.68073" lon="2.97713">
        <ele>904.8</ele>
        <time>2021-01-03T18:10:50Z</time>
      </trkpt>
      <trkpt lat="45.68042" lon="2.97655">
        <ele>906.32</ele>
        <time>2021-01-03T18:11:10Z</time>
      </trkpt>
      <trkpt lat="45.67914" lon="2.97552">
        <ele>911.908</ele>
        <time>2021-01-03T18:11:30Z</time>
      </trkpt>
      <trkpt lat="45.67827" lon="2.9739">
        <ele>912.681</ele>
        <time>2021-01-03T18:11:50Z</time>
      </trkpt>
      <trkpt lat="45.67775" lon="2.97273">
        <ele>914.313</ele>
        <time>2021-01-03T18:12:10Z</time>
      </trkpt>
      <trkpt lat="45.67697" lon="2.97177">
        <ele>919.154</ele>
        <time>2021-01-03T18:12:30Z</time>
      </trkpt>
      <trkpt lat="45.67596" lon="2.97107">
        <ele>927.162</ele>
        <time>2021-01-03T18:12:50Z</time>
      </trkpt>
      <trkpt lat="45.67519" lon="2.96952">
        <ele>937.081</ele>
        <time>2021-01-03T18:13:10Z</time>
      </trkpt>
      <trkpt lat="45.67452" lon="2.96796">
        <ele>946.23</ele>
        <time>2021-01-03T18:13:30Z</time>
      </trkpt>
      <trkpt lat="45.67426" lon="2.96752">
        <ele>946.93</ele>
        <time>2021-01-03T18:13:50Z</time>
      </trkpt>
      <trkpt lat="45.6736" lon="2.96739">
        <ele>945.079</ele>
        <time>2021-01-03T18:14:10Z</time>
      </trkpt>
      <trkpt lat="45.67127" lon="2.96791">
        <ele>942.547</ele>
        <time>2021-01-03T18:14:30Z</time>
      </trkpt>
      <trkpt lat="45.67075" lon="2.96793">
        <ele>943.029</ele>
        <time>2021-01-03T18:14:50Z</time>
      </trkpt>
      <trkpt lat="45.67056" lon="2.96785">
        <ele>942.221</ele>
        <time>2021-01-03T18:15:10Z</time>
      </trkpt>
      <trkpt lat="45.67075" lon="2.96713">
        <ele>945.008</ele>
        <time>2021-01-03T18:15:30Z</time>
      </trkpt>
      <trkpt lat="45.67059" lon="2.9657">
        <ele>952.84</ele>
        <time>2021-01-03T18:15:50Z</time>
      </trkpt>
      <trkpt lat="45.6701" lon="2.96411">
        <ele>967.962</ele>
        <time>2021-01-03T18:16:10Z</time>
      </trkpt>
      <trkpt lat="45.67013" lon="2.96351">
        <ele>969.773</ele>
        <time>2021-01-03T18:16:30Z</time>
      </trkpt>
      <trkpt lat="45.67031" lon="2.96251">
        <ele>967.711</ele>
        <time>2021-01-03T18:16:50Z</time>
      </trkpt>
      <trkpt lat="45.66894" lon="2.96194">
        <ele>958.39</ele>
        <time>2021-01-03T18:17:10Z</time>
      </trkpt>
      <trkpt lat="45.66981" lon="2.96033">
        <ele>962.239</ele>
        <time>2021-01-03T18:17:30Z</time>
      </trkpt>
      <trkpt lat="45.67094" lon="2.95799">
        <ele>969.479</ele>
        <time>2021-01-03T18:17:50Z</time>
      </trkpt>
      <trkpt lat="45.67118" lon="2.95708">
        <ele>972.638</ele>
        <time>2021-01-03T18:18:10Z</time>
      </trkpt>
      <trkpt lat="45.67153" lon="2.95654">
        <ele>975.391</ele>
        <time>2016-12-04T19:25:05Z</time>
      </trkpt>
      <trkpt lat="45.67231" lon="2.95507">
        <ele>978.081</ele>
        <time>2016-12-04T19:25:25Z</time>
      </trkpt>
      <trkpt lat="45.67312" lon="2.95322">
        <ele>978.019</ele>
        <time>2016-12-04T19:25:45Z</time>
      </trkpt>
      <trkpt lat="45.67225" lon="2.95259">
        <ele>981.908</ele>
        <time>2016-12-04T19:26:05Z</time>
      </trkpt>
      <trkpt lat="45.6708" lon="2.95144">
        <ele>995.835</ele>
        <time>2016-12-04T19:26:25Z</time>
      </trkpt>
      <trkpt lat="45.67041" lon="2.9511">
        <ele>1003.217</ele>
        <time>2016-12-04T19:26:45Z</time>
      </trkpt>
      <trkpt lat="45.66906" lon="2.95248">
        <ele>1010.628</ele>
        <time>2016-12-04T19:27:05Z</time>
      </trkpt>
      <trkpt lat="45.66841" lon="2.95293">
        <ele>1016.436</ele>
        <time>2016-12-04T19:27:25Z</time>
      </trkpt>
      <trkpt lat="45.66753" lon="2.9534">
        <ele>1027.185</ele>
        <time>2016-12-04T19:27:45Z</time>
      </trkpt>
      <trkpt lat="45.66675" lon="2.95327">
        <ele>1034.934</ele>
        <time>2016-12-04T19:28:05Z</time>
      </trkpt>
      <trkpt lat="45.66586" lon="2.95279">
        <ele>1037.014</ele>
        <time>2016-12-04T19:28:25Z</time>
      </trkpt>
      <trkpt lat="45.66478" lon="2.95164">
        <ele>1036.393</ele>
        <time>2016-12-04T19:28:45Z</time>
      </trkpt>
      <trkpt lat="45.66433" lon="2.95095">
        <ele>1033.458</ele>
        <time>2016-12-04T19:29:05Z</time>
      </trkpt>
      <trkpt lat="45.66317" lon="2.94972">
        <ele>1028.452</ele>
        <time>2016-12-04T19:29:25Z</time>
      </trkpt>
      <trkpt lat="45.6629" lon="2.94951">
        <ele>1028.217</ele>
        <time>2016-12-04T19:29:45Z</time>
      </trkpt>
      <trkpt lat="45.66378" lon="2.94818">
        <ele>1031.708</ele>
        <time>2016-12-04T19:30:05Z</time>
      </trkpt>
      <trkpt lat="45.66161" lon="2.94356">
        <ele>1030.631</ele>
        <time>2016-12-04T19:30:25Z</time>
      </trkpt>
      <trkpt lat="45.6613" lon="2.94235">
        <ele>1029.383</ele>
        <time>2016-12-04T19:30:45Z</time>
      </trkpt>
      <trkpt lat="45.66026" lon="2.93983">
        <ele>1024.444</ele>
        <time>2016-12-04T19:31:05Z</time>
      </trkpt>
      <trkpt lat="45.6599" lon="2.9393">
        <ele>1022.712</ele>
        <time>2016-12-04T19:31:25Z</time>
      </trkpt>
      <trkpt lat="45.65991" lon="2.93889">
        <ele>1022.061</ele>
        <time>2016-12-04T19:31:45Z</time>
      </trkpt>
      <trkpt lat="45.65947" lon="2.93888">
        <ele>1022.98</ele>
        <time>2016-12-04T19:32:05Z</time>
      </trkpt>
      <trkpt lat="45.65876" lon="2.93851">
        <ele>1025.44</ele>
        <time>2016-12-04T19:32:25Z</time>
      </trkpt>
      <trkpt lat="45.6583" lon="2.93841">
        <ele>1023.949</ele>
        <time>2016-12-04T19:32:45Z</time>
      </trkpt>
      <trkpt lat="45.65795" lon="2.93807">
        <ele>1025.788</ele>
        <time>2016-12-04T19:33:05Z</time>
      </trkpt>
      <trkpt lat="45.65699" lon="2.93744">
        <ele>1022.924</ele>
        <time>2016-12-04T19:33:25Z</time>
      </trkpt>
      <trkpt lat="45.65533" lon="2.93532">
        <ele>1021.326</ele>
        <time>2016-12-04T19:33:45Z</time>
      </trkpt>
      <trkpt lat="45.65433" lon="2.93457">
        <ele>1016.808</ele>
        <time>2016-12-04T19:34:05Z</time>
      </trkpt>
      <trkpt lat="45.65395" lon="2.93406">
        <ele>1013.594</ele>
        <time>2016-12-04T19:34:25Z</time>
      </trkpt>
      <trkpt lat="45.65264" lon="2.93177">
        <ele>997.716</ele>
        <time>2016-12-04T19:34:45Z</time>
      </trkpt>
      <trkpt lat="45.65187" lon="2.92892">
        <ele>988.177</ele>
        <time>2016-12-04T19:35:05Z</time>
      </trkpt>
      <trkpt lat="45.65138" lon="2.92877">
        <ele>989.795</ele>
        <time>2016-12-04T19:35:25Z</time>
      </trkpt>
      <trkpt lat="45.65093" lon="2.92924">
        <ele>994.834</ele>
        <time>2016-12-04T19:35:45Z</time>
      </trkpt>
      <trkpt lat="45.65034" lon="2.92947">
        <ele>1000.273</ele>
        <time>2016-12-04T19:36:05Z</time>
      </trkpt>
      <trkpt lat="45.6495" lon="2.92957">
        <ele>1011.743</ele>
        <time>2016-12-04T19:36:25Z</time>
      </trkpt>
      <trkpt lat="45.64897" lon="2.92979">
        <ele>1011.472</ele>
        <time>2016-12-04T19:36:45Z</time>
      </trkpt>
      <trkpt lat="45.64874" lon="2.9296">
        <ele>1011.261</ele>
        <time>2016-12-04T19:37:05Z</time>
      </trkpt>
      <trkpt lat="45.64813" lon="2.92874">
        <ele>1014.321</ele>
        <time>2016-12-04T19:37:25Z</time>
      </trkpt>
      <trkpt lat="45.64732" lon="2.92771">
        <ele>1013.413</ele>
        <time>2016-12-04T19:37:45Z</time>
      </trkpt>
      <trkpt lat="45.64695" lon="2.92685">
        <ele>1017.408</ele>
        <time>2016-12-04T19:38:05Z</time>
      </trkpt>
      <trkpt lat="45.6461" lon="2.92601">
        <ele>1025.952</ele>
        <time>2016-12-04T19:38:25Z</time>
      </trkpt>
      <trkpt lat="45.64577" lon="2.92575">
        <ele>1024.974</ele>
        <time>2016-12-04T19:38:45Z</time>
      </trkpt>
      <trkpt lat="45.64542" lon="2.92464">
        <ele>1029.835</ele>
        <time>2016-12-04T19:39:05Z</time>
      </trkpt>
      <trkpt lat="45.64463" lon="2.92306">
        <ele>1030.143</ele>
        <time>2016-12-04T19:39:25Z</time>
      </trkpt>
      <trkpt lat="45.64444" lon="2.92206">
        <ele>1029.522</ele>
        <time>2016-12-04T19:39:45Z</time>
      </trkpt>
      <trkpt lat="45.64407" lon="2.92119">
        <ele>1025.741</ele>
        <time>2016-12-04T19:40:05Z</time>
      </trkpt>
      <trkpt lat="45.64346" lon="2.92027">
        <ele>1026.411</ele>
        <time>2016-12-04T19:40:25Z</time>
      </trkpt>
      <trkpt lat="45.64321" lon="2.91904">
        <ele>1033.78</ele>
        <time>2021-03-28T16:45:23Z</time>
      </trkpt>
      <trkpt lat="45.64257" lon="2.91875">
        <ele>1031.392</ele>
        <time>2016-12-04T19:41:05Z</time>
      </trkpt>
      <trkpt lat="45.64198" lon="2.9183">
        <ele>1035.573</ele>
        <time>2016-12-04T19:41:45Z</time>
      </trkpt>
      <trkpt lat="45.64134" lon="2.91856">
        <ele>1032.02</ele>
        <time>2016-12-04T19:42:05Z</time>
      </trkpt>
      <trkpt lat="45.64107" lon="2.91843">
        <ele>1031.808</ele>
        <time>2021-03-28T16:46:43Z</time>
      </trkpt>
      <trkpt lat="45.64027" lon="2.91928">
        <ele>1036.135</ele>
        <time>2016-12-04T19:42:45Z</time>
      </trkpt>
      <trkpt lat="45.6401" lon="2.91995">
        <ele>1038.067</ele>
        <time>2016-12-04T19:43:05Z</time>
      </trkpt>
      <trkpt lat="45.63967" lon="2.92036">
        <ele>1040.188</ele>
        <time>2021-01-03T18:36:50Z</time>
      </trkpt>
      <trkpt lat="45.63903" lon="2.92058">
        <ele>1037.446</ele>
        <time>2021-01-03T18:37:10Z</time>
      </trkpt>
      <trkpt lat="45.63829" lon="2.91986">
        <ele>1039.055</ele>
        <time>2021-01-03T18:37:30Z</time>
      </trkpt>
      <trkpt lat="45.63721" lon="2.91999">
        <ele>1033.334</ele>
        <time>2021-01-03T18:37:50Z</time>
      </trkpt>
      <trkpt lat="45.636" lon="2.91879">
        <ele>1026.354</ele>
        <time>2021-01-03T18:38:10Z</time>
      </trkpt>
      <trkpt lat="45.63549" lon="2.91853">
        <ele>1023.763</ele>
        <time>2021-01-03T18:38:30Z</time>
      </trkpt>
      <trkpt lat="45.63518" lon="2.9183">
        <ele>1022.986</ele>
        <time>2021-01-03T18:38:50Z</time>
      </trkpt>
      <trkpt lat="45.63493" lon="2.91661">
        <ele>1024.26</ele>
        <time>2021-01-03T18:39:10Z</time>
      </trkpt>
      <trkpt lat="45.63455" lon="2.9164">
        <ele>1024.826</ele>
        <time>2021-01-03T18:39:30Z</time>
      </trkpt>
      <trkpt lat="45.63396" lon="2.91444">
        <ele>1028.608</ele>
        <time>2021-01-03T18:39:50Z</time>
      </trkpt>
      <trkpt lat="45.63386" lon="2.91344">
        <ele>1030.154</ele>
        <time>2021-01-03T18:40:10Z</time>
      </trkpt>
      <trkpt lat="45.63342" lon="2.9115">
        <ele>1033.096</ele>
        <time>2021-01-03T18:40:30Z</time>
      </trkpt>
      <trkpt lat="45.63327" lon="2.90966">
        <ele>1036.587</ele>
        <time>2021-01-03T18:40:50Z</time>
      </trkpt>
      <trkpt lat="45.63286" lon="2.90924">
        <ele>1037.555</ele>
        <time>2021-01-03T18:41:10Z</time>
      </trkpt>
      <trkpt lat="45.63268" lon="2.90883">
        <ele>1038.734</ele>
        <time>2021-01-03T18:41:30Z</time>
      </trkpt>
      <trkpt lat="45.63254" lon="2.908">
        <ele>1039.793</ele>
        <time>2021-01-03T18:41:50Z</time>
      </trkpt>
      <trkpt lat="45.63214" lon="2.90742">
        <ele>1042.463</ele>
        <time>2021-01-03T18:42:10Z</time>
      </trkpt>
      <trkpt lat="45.63106" lon="2.90638">
        <ele>1054.242</ele>
        <time>2021-01-03T18:42:30Z</time>
      </trkpt>
      <trkpt lat="45.6303" lon="2.90352">
        <ele>1059.118</ele>
        <time>2021-01-03T18:42:50Z</time>
      </trkpt>
      <trkpt lat="45.63014" lon="2.90236">
        <ele>1060.198</ele>
        <time>2021-01-03T18:43:10Z</time>
      </trkpt>
      <trkpt lat="45.63104" lon="2.90135">
        <ele>1063.817</ele>
        <time>2021-01-03T18:43:30Z</time>
      </trkpt>
      <trkpt lat="45.63132" lon="2.90098">
        <ele>1071.808</ele>
        <time>2021-01-03T18:43:50Z</time>
      </trkpt>
      <trkpt lat="45.63139" lon="2.90051">
        <ele>1076.057</ele>
        <time>2021-01-03T18:44:10Z</time>
      </trkpt>
      <trkpt lat="45.63135" lon="2.89979">
        <ele>1077.149</ele>
        <time>2021-01-03T18:44:30Z</time>
      </trkpt>
      <trkpt lat="45.63182" lon="2.89888">
        <ele>1083.87</ele>
        <time>2021-01-03T18:44:50Z</time>
      </trkpt>
      <trkpt lat="45.63228" lon="2.89771">
        <ele>1091.798</ele>
        <time>2021-01-03T18:45:10Z</time>
      </trkpt>
      <trkpt lat="45.63265" lon="2.89729">
        <ele>1098.797</ele>
        <time>2021-01-03T18:45:30Z</time>
      </trkpt>
      <trkpt lat="45.63302" lon="2.89703">
        <ele>1104.256</ele>
        <time>2021-01-03T18:45:50Z</time>
      </trkpt>
      <trkpt lat="45.63392" lon="2.89542">
        <ele>1120.566</ele>
        <time>2021-01-03T18:46:10Z</time>
      </trkpt>
      <trkpt lat="45.63468" lon="2.89517">
        <ele>1129.155</ele>
        <time>2016-12-04T19:44:45Z</time>
      </trkpt>
      <trkpt lat="45.63621" lon="2.89388">
        <ele>1144.413</ele>
        <time>2016-12-04T19:45:05Z</time>
      </trkpt>
      <trkpt lat="45.6344" lon="2.89145">
        <ele>1157.943</ele>
        <time>2021-03-28T16:58:03Z</time>
      </trkpt>
      <trkpt lat="45.63464" lon="2.89019">
        <ele>1172.107</ele>
        <time>2016-12-04T19:46:05Z</time>
      </trkpt>
      <trkpt lat="45.63518" lon="2.88979">
        <ele>1174.708</ele>
        <time>2016-12-04T19:46:25Z</time>
      </trkpt>
      <trkpt lat="45.63626" lon="2.88967">
        <ele>1168.277</ele>
        <time>2021-03-28T16:59:03Z</time>
      </trkpt>
      <trkpt lat="45.63628" lon="2.88906">
        <ele>1171.279</ele>
        <time>2016-12-04T19:48:25Z</time>
      </trkpt>
      <trkpt lat="45.63697" lon="2.88913">
        <ele>1167.82</ele>
        <time>2016-12-04T19:48:45Z</time>
      </trkpt>
      <trkpt lat="45.63818" lon="2.88783">
        <ele>1164.448</ele>
        <time>2016-12-04T19:49:05Z</time>
      </trkpt>
      <trkpt lat="45.63892" lon="2.88642">
        <ele>1167.657</ele>
        <time>2016-12-04T19:49:25Z</time>
      </trkpt>
      <trkpt lat="45.63973" lon="2.88435">
        <ele>1161.186</ele>
        <time>2016-12-04T19:49:45Z</time>
      </trkpt>
      <trkpt lat="45.64034" lon="2.8826">
        <ele>1157.666</ele>
        <time>2016-12-04T19:50:05Z</time>
      </trkpt>
      <trkpt lat="45.64085" lon="2.8822">
        <ele>1152.375</ele>
        <time>2016-12-04T19:50:25Z</time>
      </trkpt>
      <trkpt lat="45.64274" lon="2.88178">
        <ele>1139.977</ele>
        <time>2016-12-04T19:50:45Z</time>
      </trkpt>
      <trkpt lat="45.64346" lon="2.882">
        <ele>1135.061</ele>
        <time>2016-12-04T19:51:05Z</time>
      </trkpt>
      <trkpt lat="45.64412" lon="2.8818">
        <ele>1131.827</ele>
        <time>2016-12-04T19:51:25Z</time>
      </trkpt>
      <trkpt lat="45.6447" lon="2.88121">
        <ele>1130.908</ele>
        <time>2016-12-04T19:51:45Z</time>
      </trkpt>
      <trkpt lat="45.64505" lon="2.88118">
        <ele>1130.063</ele>
        <time>2016-12-04T19:52:05Z</time>
      </trkpt>
      <trkpt lat="45.64565" lon="2.88083">
        <ele>1129.095</ele>
        <time>2016-12-04T19:52:25Z</time>
      </trkpt>
      <trkpt lat="45.64618" lon="2.88066">
        <ele>1122.516</ele>
        <time>2016-12-04T19:52:45Z</time>
      </trkpt>
      <trkpt lat="45.64686" lon="2.88093">
        <ele>1117.944</ele>
        <time>2016-12-04T19:53:05Z</time>
      </trkpt>
      <trkpt lat="45.64741" lon="2.8807">
        <ele>1117.693</ele>
        <time>2016-12-04T19:53:25Z</time>
      </trkpt>
      <trkpt lat="45.64769" lon="2.88084">
        <ele>1116.612</ele>
        <time>2016-12-04T19:54:05Z</time>
      </trkpt>
      <trkpt lat="45.64793" lon="2.88074">
        <ele>1120.311</ele>
        <time>2016-12-04T19:54:25Z</time>
      </trkpt>
      <trkpt lat="45.64759" lon="2.88039">
        <ele>1122.972</ele>
        <time>2016-12-04T19:54:45Z</time>
      </trkpt>
      <trkpt lat="45.64742" lon="2.88018">
        <ele>1125.013</ele>
        <time>2016-12-04T19:55:05Z</time>
      </trkpt>
      <trkpt lat="45.64673" lon="2.87923">
        <ele>1128.214</ele>
        <time>2016-12-04T19:55:25Z</time>
      </trkpt>
      <trkpt lat="45.64594" lon="2.87868">
        <ele>1130.608</ele>
        <time>2016-12-04T19:55:45Z</time>
      </trkpt>
      <trkpt lat="45.64553" lon="2.87827">
        <ele>1130.613</ele>
        <time>2016-12-04T19:56:05Z</time>
      </trkpt>
      <trkpt lat="45.64535" lon="2.87786">
        <ele>1134.615</ele>
        <time>2016-12-04T19:56:25Z</time>
      </trkpt>
      <trkpt lat="45.6451" lon="2.87745">
        <ele>1137.396</ele>
        <time>2016-12-04T19:56:45Z</time>
      </trkpt>
      <trkpt lat="45.64502" lon="2.8767">
        <ele>1144.724</ele>
        <time>2016-12-04T19:57:05Z</time>
      </trkpt>
      <trkpt lat="45.6451" lon="2.8761">
        <ele>1147.863</ele>
        <time>2016-12-04T19:57:25Z</time>
      </trkpt>
      <trkpt lat="45.64504" lon="2.87524">
        <ele>1152.422</ele>
        <time>2016-12-04T19:57:45Z</time>
      </trkpt>
      <trkpt lat="45.64514" lon="2.87453">
        <ele>1156.292</ele>
        <time>2016-12-04T19:58:05Z</time>
      </trkpt>
      <trkpt lat="45.64493" lon="2.87213">
        <ele>1176.451</ele>
        <time>2016-12-04T19:58:25Z</time>
      </trkpt>
      <trkpt lat="45.6452" lon="2.87185">
        <ele>1179.135</ele>
        <time>2016-12-04T19:58:45Z</time>
      </trkpt>
      <trkpt lat="45.64522" lon="2.87127">
        <ele>1181.486</ele>
        <time>2016-12-04T19:59:05Z</time>
      </trkpt>
      <trkpt lat="45.6455" lon="2.87093">
        <ele>1182.514</ele>
        <time>2016-12-04T19:59:25Z</time>
      </trkpt>
      <trkpt lat="45.64556" lon="2.87029">
        <ele>1185.908</ele>
        <time>2016-12-04T19:59:45Z</time>
      </trkpt>
      <trkpt lat="45.64666" lon="2.86889">
        <ele>1180.219</ele>
        <time>2016-12-04T20:00:05Z</time>
      </trkpt>
      <trkpt lat="45.64709" lon="2.86685">
        <ele>1181.761</ele>
        <time>2016-12-04T20:00:25Z</time>
      </trkpt>
      <trkpt lat="45.64733" lon="2.86629">
        <ele>1180.972</ele>
        <time>2016-12-04T20:00:45Z</time>
      </trkpt>
      <trkpt lat="45.64724" lon="2.86565">
        <ele>1187.94</ele>
        <time>2016-12-04T20:01:05Z</time>
      </trkpt>
      <trkpt lat="45.64724" lon="2.86499">
        <ele>1194.199</ele>
        <time>2016-12-04T20:01:25Z</time>
      </trkpt>
      <trkpt lat="45.64734" lon="2.86258">
        <ele>1210.228</ele>
        <time>2021-03-28T17:12:43Z</time>
      </trkpt>
      <trkpt lat="45.64719" lon="2.86232">
        <ele>1211.288</ele>
        <time>2021-03-28T17:13:03Z</time>
      </trkpt>
      <trkpt lat="45.6472" lon="2.86162">
        <ele>1211.437</ele>
        <time>2021-03-28T17:13:23Z</time>
      </trkpt>
      <trkpt lat="45.64737" lon="2.86078">
        <ele>1211.813</ele>
        <time>2021-03-28T17:13:43Z</time>
      </trkpt>
      <trkpt lat="45.64772" lon="2.86019">
        <ele>1211.743</ele>
        <time>2021-03-28T17:14:03Z</time>
      </trkpt>
      <trkpt lat="45.64795" lon="2.85853">
        <ele>1213.707</ele>
        <time>2016-12-04T20:03:05Z</time>
      </trkpt>
      <trkpt lat="45.6478" lon="2.85722">
        <ele>1212.308</ele>
        <time>2016-12-04T20:03:25Z</time>
      </trkpt>
      <trkpt lat="45.64919" lon="2.85847">
        <ele>1224.957</ele>
        <time>2016-12-04T20:03:45Z</time>
      </trkpt>
      <trkpt lat="45.65133" lon="2.85442">
        <ele>1195.349</ele>
        <time>2016-12-04T20:04:05Z</time>
      </trkpt>
      <trkpt lat="45.6522" lon="2.85461">
        <ele>1190.18</ele>
        <time>2016-12-04T20:04:25Z</time>
      </trkpt>
      <trkpt lat="45.65332" lon="2.85429">
        <ele>1175.628</ele>
        <time>2016-12-04T20:04:45Z</time>
      </trkpt>
      <trkpt lat="45.65325" lon="2.8539">
        <ele>1178.497</ele>
        <time>2016-12-04T20:05:05Z</time>
      </trkpt>
      <trkpt lat="45.65484" lon="2.85405">
        <ele>1167.656</ele>
        <time>2016-12-04T20:06:05Z</time>
      </trkpt>
      <trkpt lat="45.65555" lon="2.85339">
        <ele>1156.996</ele>
        <time>2016-12-04T20:06:25Z</time>
      </trkpt>
      <trkpt lat="45.65659" lon="2.852">
        <ele>1149.765</ele>
        <time>2016-12-04T20:06:45Z</time>
      </trkpt>
      <trkpt lat="45.65699" lon="2.8514">
        <ele>1144.397</ele>
        <time>2016-12-04T20:07:05Z</time>
      </trkpt>
      <trkpt lat="45.65759" lon="2.85083">
        <ele>1140.023</ele>
        <time>2016-12-04T20:07:25Z</time>
      </trkpt>
      <trkpt lat="45.65889" lon="2.85058">
        <ele>1127.825</ele>
        <time>2016-12-04T20:07:45Z</time>
      </trkpt>
      <trkpt lat="45.66136" lon="2.84913">
        <ele>1106.408</ele>
        <time>2016-12-04T20:08:05Z</time>
      </trkpt>
      <trkpt lat="45.66199" lon="2.84883">
        <ele>1094.285</ele>
        <time>2016-12-04T20:08:25Z</time>
      </trkpt>
      <trkpt lat="45.66205" lon="2.84779">
        <ele>1093.177</ele>
        <time>2016-12-04T20:08:45Z</time>
      </trkpt>
      <trkpt lat="45.66267" lon="2.84756">
        <ele>1087.488</ele>
        <time>2016-12-04T20:09:05Z</time>
      </trkpt>
      <trkpt lat="45.66315" lon="2.84715">
        <ele>1086.836</ele>
        <time>2016-12-04T20:09:25Z</time>
      </trkpt>
      <trkpt lat="45.66353" lon="2.84753">
        <ele>1089.445</ele>
        <time>2016-12-04T20:09:45Z</time>
      </trkpt>
      <trkpt lat="45.66534" lon="2.84869">
        <ele>1079.744</ele>
        <time>2016-12-04T20:10:05Z</time>
      </trkpt>
      <trkpt lat="45.66623" lon="2.84912">
        <ele>1073.434</ele>
        <time>2016-12-04T20:10:25Z</time>
      </trkpt>
      <trkpt lat="45.66737" lon="2.84945">
        <ele>1063.893</ele>
        <time>2016-12-04T20:10:45Z</time>
      </trkpt>
      <trkpt lat="45.6702" lon="2.8507">
        <ele>1038.942</ele>
        <time>2016-12-04T20:11:05Z</time>
      </trkpt>
      <trkpt lat="45.67197" lon="2.8512">
        <ele>1032.422</ele>
        <time>2016-12-04T20:11:25Z</time>
      </trkpt>
      <trkpt lat="45.67167" lon="2.85057">
        <ele>1030.014</ele>
        <time>2016-12-04T20:11:45Z</time>
      </trkpt>
      <trkpt lat="45.6712" lon="2.84992">
        <ele>1026.508</ele>
        <time>2016-12-04T20:12:05Z</time>
      </trkpt>
      <trkpt lat="45.67204" lon="2.84991">
        <ele>1025.05</ele>
        <time>2016-12-04T20:12:25Z</time>
      </trkpt>
      <trkpt lat="45.67241" lon="2.8494">
        <ele>1021.832</ele>
        <time>2016-12-04T20:12:45Z</time>
      </trkpt>
      <trkpt lat="45.67316" lon="2.84675">
        <ele>1005.213</ele>
        <time>2016-12-04T20:13:05Z</time>
      </trkpt>
      <trkpt lat="45.67304" lon="2.8461">
        <ele>994.391</ele>
        <time>2016-12-04T20:13:25Z</time>
      </trkpt>
      <trkpt lat="45.67326" lon="2.84599">
        <ele>991.91</ele>
        <time>2016-12-04T20:13:45Z</time>
      </trkpt>
      <trkpt lat="45.67368" lon="2.84648">
        <ele>995.119</ele>
        <time>2016-12-04T20:14:05Z</time>
      </trkpt>
      <trkpt lat="45.6742" lon="2.84666">
        <ele>992.159</ele>
        <time>2016-12-04T20:14:25Z</time>
      </trkpt>
      <trkpt lat="45.67458" lon="2.84636">
        <ele>984.338</ele>
        <time>2016-12-04T20:14:45Z</time>
      </trkpt>
      <trkpt lat="45.67501" lon="2.84562">
        <ele>961.696</ele>
        <time>2016-12-04T20:15:05Z</time>
      </trkpt>
      <trkpt lat="45.67551" lon="2.84435">
        <ele>942.631</ele>
        <time>2016-12-04T20:15:25Z</time>
      </trkpt>
      <trkpt lat="45.67628" lon="2.84297">
        <ele>927.524</ele>
        <time>2016-12-04T20:15:45Z</time>
      </trkpt>
      <trkpt lat="45.67713" lon="2.84217">
        <ele>911.608</ele>
        <time>2016-12-04T20:16:05Z</time>
      </trkpt>
      <trkpt lat="45.67802" lon="2.84199">
        <ele>904.025</ele>
        <time>2021-03-28T17:27:03Z</time>
      </trkpt>
      <trkpt lat="45.6791" lon="2.84196">
        <ele>893.727</ele>
        <time>2016-12-04T20:16:25Z</time>
      </trkpt>
      <trkpt lat="45.67976" lon="2.84219">
        <ele>893.698</ele>
        <time>2016-12-04T20:16:45Z</time>
      </trkpt>
      <trkpt lat="45.68031" lon="2.84256">
        <ele>893.616</ele>
        <time>2016-12-04T20:17:05Z</time>
      </trkpt>
      <trkpt lat="45.68111" lon="2.84284">
        <ele>886.615</ele>
        <time>2016-12-04T20:17:25Z</time>
      </trkpt>
      <trkpt lat="45.68467" lon="2.84393">
        <ele>884.864</ele>
        <time>2016-12-04T20:17:45Z</time>
      </trkpt>
      <trkpt lat="45.685" lon="2.84426">
        <ele>892.644</ele>
        <time>2016-12-04T20:18:05Z</time>
      </trkpt>
      <trkpt lat="45.6847" lon="2.8447">
        <ele>902.673</ele>
        <time>2016-12-04T20:18:25Z</time>
      </trkpt>
      <trkpt lat="45.68472" lon="2.84523">
        <ele>914.987</ele>
        <time>2016-12-04T20:18:45Z</time>
      </trkpt>
      <trkpt lat="45.6858" lon="2.84522">
        <ele>922.042</ele>
        <time>2016-12-04T20:19:05Z</time>
      </trkpt>
      <trkpt lat="45.68809" lon="2.84471">
        <ele>925.026</ele>
        <time>2016-12-04T20:19:25Z</time>
      </trkpt>
      <trkpt lat="45.68875" lon="2.84483">
        <ele>930.108</ele>
        <time>2016-12-04T20:19:45Z</time>
      </trkpt>
      <trkpt lat="45.68961" lon="2.84453">
        <ele>927.754</ele>
        <time>2016-12-04T20:20:05Z</time>
      </trkpt>
      <trkpt lat="45.69007" lon="2.84396">
        <ele>920.356</ele>
        <time>2016-12-04T20:20:25Z</time>
      </trkpt>
      <trkpt lat="45.69089" lon="2.84359">
        <ele>916.567</ele>
        <time>2016-12-04T20:20:45Z</time>
      </trkpt>
      <trkpt lat="45.69166" lon="2.8439">
        <ele>910.595</ele>
        <time>2016-12-04T20:21:05Z</time>
      </trkpt>
      <trkpt lat="45.6931" lon="2.84458">
        <ele>901.964</ele>
        <time>2016-12-04T20:21:25Z</time>
      </trkpt>
      <trkpt lat="45.69341" lon="2.84446">
        <ele>901.133</ele>
        <time>2016-12-04T20:21:45Z</time>
      </trkpt>
      <trkpt lat="45.69399" lon="2.84424">
        <ele>899.763</ele>
        <time>2016-12-04T20:22:05Z</time>
      </trkpt>
      <trkpt lat="45.69497" lon="2.84412">
        <ele>894.512</ele>
        <time>2016-12-04T20:22:25Z</time>
      </trkpt>
      <trkpt lat="45.69585" lon="2.84486">
        <ele>894.535</ele>
        <time>2016-12-04T20:22:45Z</time>
      </trkpt>
      <trkpt lat="45.6961" lon="2.84524">
        <ele>896.886</ele>
        <time>2016-12-04T20:23:05Z</time>
      </trkpt>
      <trkpt lat="45.69625" lon="2.84498">
        <ele>893.314</ele>
        <time>2016-12-04T20:23:25Z</time>
      </trkpt>
      <trkpt lat="45.69618" lon="2.84403">
        <ele>887.808</ele>
        <time>2016-12-04T20:23:45Z</time>
      </trkpt>
      <trkpt lat="45.69633" lon="2.84365">
        <ele>883.919</ele>
        <time>2016-12-04T20:24:05Z</time>
      </trkpt>
      <trkpt lat="45.69682" lon="2.84334">
        <ele>881.581</ele>
        <time>2016-12-04T20:24:25Z</time>
      </trkpt>
      <trkpt lat="45.6969" lon="2.84305">
        <ele>880.142</ele>
        <time>2016-12-04T20:24:45Z</time>
      </trkpt>
      <trkpt lat="45.69668" lon="2.84205">
        <ele>877.01</ele>
        <time>2016-12-04T20:25:05Z</time>
      </trkpt>
      <trkpt lat="45.69678" lon="2.84158">
        <ele>872.819</ele>
        <time>2016-12-04T20:25:25Z</time>
      </trkpt>
      <trkpt lat="45.7006" lon="2.83843">
        <ele>857.138</ele>
        <time>2021-03-28T17:36:43Z</time>
      </trkpt>
      <trkpt lat="45.70107" lon="2.83784">
        <ele>852.288</ele>
        <time>2021-03-28T17:37:03Z</time>
      </trkpt>
      <trkpt lat="45.70231" lon="2.83733">
        <ele>849.477</ele>
        <time>2016-12-04T20:26:05Z</time>
      </trkpt>
      <trkpt lat="45.70241" lon="2.83704">
        <ele>846.845</ele>
        <time>2016-12-04T20:26:25Z</time>
      </trkpt>
      <trkpt lat="45.70279" lon="2.83685">
        <ele>843.547</ele>
        <time>2016-12-04T20:26:45Z</time>
      </trkpt>
      <trkpt lat="45.70317" lon="2.8371">
        <ele>840.911</ele>
        <time>2016-12-04T20:27:05Z</time>
      </trkpt>
      <trkpt lat="45.70401" lon="2.83723">
        <ele>826.708</ele>
        <time>2016-12-04T20:27:25Z</time>
      </trkpt>
      <trkpt lat="45.70466" lon="2.83741">
        <ele>813.94</ele>
        <time>2016-12-04T20:27:45Z</time>
      </trkpt>
      <trkpt lat="45.70499" lon="2.83781">
        <ele>811.892</ele>
        <time>2016-12-04T20:28:05Z</time>
      </trkpt>
      <trkpt lat="45.70544" lon="2.83721">
        <ele>814.563</ele>
        <time>2016-12-04T20:28:25Z</time>
      </trkpt>
      <trkpt lat="45.7059" lon="2.83713">
        <ele>821.081</ele>
        <time>2016-12-04T20:28:45Z</time>
      </trkpt>
      <trkpt lat="45.7061" lon="2.83732">
        <ele>823.65</ele>
        <time>2016-12-04T20:29:05Z</time>
      </trkpt>
      <trkpt lat="45.70619" lon="2.83821">
        <ele>821.729</ele>
        <time>2016-12-04T20:29:25Z</time>
      </trkpt>
      <trkpt lat="45.70637" lon="2.83857">
        <ele>821.839</ele>
        <time>2016-12-04T20:29:45Z</time>
      </trkpt>
      <trkpt lat="45.70641" lon="2.8391">
        <ele>823.738</ele>
        <time>2016-12-04T20:30:05Z</time>
      </trkpt>
      <trkpt lat="45.70664" lon="2.83962">
        <ele>823.742</ele>
        <time>2016-12-04T20:30:25Z</time>
      </trkpt>
      <trkpt lat="45.708" lon="2.83999">
        <ele>813.322</ele>
        <time>2016-12-04T20:30:45Z</time>
      </trkpt>
      <trkpt lat="45.70898" lon="2.84066">
        <ele>812.514</ele>
        <time>2021-03-28T17:42:23Z</time>
      </trkpt>
      <trkpt lat="45.71032" lon="2.84104">
        <ele>810.708</ele>
        <time>2016-12-04T20:31:25Z</time>
      </trkpt>
      <trkpt lat="45.71124" lon="2.84106">
        <ele>803.26</ele>
        <time>2016-12-04T20:31:45Z</time>
      </trkpt>
      <trkpt lat="45.71238" lon="2.84136">
        <ele>794.412</ele>
        <time>2016-12-04T20:32:05Z</time>
      </trkpt>
      <trkpt lat="45.71312" lon="2.84218">
        <ele>788.743</ele>
        <time>2016-12-04T20:32:25Z</time>
      </trkpt>
      <trkpt lat="45.71411" lon="2.84256">
        <ele>788.881</ele>
        <time>2016-12-04T20:32:45Z</time>
      </trkpt>
      <trkpt lat="45.71454" lon="2.84146">
        <ele>782.65</ele>
        <time>2016-12-04T20:33:05Z</time>
      </trkpt>
      <trkpt lat="45.71491" lon="2.84111">
        <ele>776.419</ele>
        <time>2016-12-04T20:33:25Z</time>
      </trkpt>
      <trkpt lat="45.71525" lon="2.84125">
        <ele>773.939</ele>
        <time>2016-12-04T20:33:45Z</time>
      </trkpt>
      <trkpt lat="45.7157" lon="2.84178">
        <ele>770.618</ele>
        <time>2016-12-04T20:34:05Z</time>
      </trkpt>
      <trkpt lat="45.71594" lon="2.84175">
        <ele>765.344</ele>
        <time>2016-12-04T20:34:25Z</time>
      </trkpt>
      <trkpt lat="45.71617" lon="2.84198">
        <ele>762.305</ele>
        <time>2016-12-04T20:34:45Z</time>
      </trkpt>
      <trkpt lat="45.7165" lon="2.84305">
        <ele>764.015</ele>
        <time>2016-12-04T20:35:05Z</time>
      </trkpt>
      <trkpt lat="45.71724" lon="2.84445">
        <ele>756.008</ele>
        <time>2016-12-04T20:35:25Z</time>
      </trkpt>
      <trkpt lat="45.71811" lon="2.84547">
        <ele>753.85</ele>
        <time>2016-12-04T20:35:45Z</time>
      </trkpt>
      <trkpt lat="45.71913" lon="2.84576">
        <ele>752.222</ele>
        <time>2016-12-04T20:36:05Z</time>
      </trkpt>
      <trkpt lat="45.7194" lon="2.84659">
        <ele>754.483</ele>
        <time>2016-12-04T20:36:25Z</time>
      </trkpt>
      <trkpt lat="45.71987" lon="2.84748">
        <ele>758.381</ele>
        <time>2016-12-04T20:36:45Z</time>
      </trkpt>
      <trkpt lat="45.72004" lon="2.8484">
        <ele>765.58</ele>
        <time>2016-12-04T20:37:05Z</time>
      </trkpt>
      <trkpt lat="45.72054" lon="2.84817">
        <ele>760.819</ele>
        <time>2016-12-04T20:37:25Z</time>
      </trkpt>
      <trkpt lat="45.72161" lon="2.84839">
        <ele>764.649</ele>
        <time>2021-03-28T17:49:03Z</time>
      </trkpt>
      <trkpt lat="45.72232" lon="2.84839">
        <ele>770.738</ele>
        <time>2016-12-04T20:38:05Z</time>
      </trkpt>
      <trkpt lat="45.72374" lon="2.84896">
        <ele>782.881</ele>
        <time>2016-12-04T20:38:25Z</time>
      </trkpt>
      <trkpt lat="45.72488" lon="2.84935">
        <ele>790.561</ele>
        <time>2016-12-04T20:38:45Z</time>
      </trkpt>
      <trkpt lat="45.72483" lon="2.85092">
        <ele>812.017</ele>
        <time>2016-12-04T20:39:05Z</time>
      </trkpt>
      <trkpt lat="45.7254" lon="2.85124">
        <ele>812.308</ele>
        <time>2016-12-04T20:39:25Z</time>
      </trkpt>
      <trkpt lat="45.72639" lon="2.85233">
        <ele>818.294</ele>
        <time>2016-12-04T20:39:45Z</time>
      </trkpt>
      <trkpt lat="45.72689" lon="2.8524">
        <ele>807.326</ele>
        <time>2016-12-04T20:40:05Z</time>
      </trkpt>
      <trkpt lat="45.7275" lon="2.85238">
        <ele>806.117</ele>
        <time>2016-12-04T20:40:25Z</time>
      </trkpt>
      <trkpt lat="45.72863" lon="2.85283">
        <ele>792.945</ele>
        <time>2016-12-04T20:40:45Z</time>
      </trkpt>
      <trkpt lat="45.72908" lon="2.85377">
        <ele>789.944</ele>
        <time>2016-12-04T20:41:05Z</time>
      </trkpt>
      <trkpt lat="45.72956" lon="2.85402">
        <ele>789.683</ele>
        <time>2016-12-04T20:41:25Z</time>
      </trkpt>
      <trkpt lat="45.72987" lon="2.85428">
        <ele>790.863</ele>
        <time>2016-12-04T20:41:45Z</time>
      </trkpt>
      <trkpt lat="45.73098" lon="2.85475">
        <ele>789.782</ele>
        <time>2016-12-04T20:42:05Z</time>
      </trkpt>
      <trkpt lat="45.73173" lon="2.85547">
        <ele>790.734</ele>
        <time>2016-12-04T20:42:25Z</time>
      </trkpt>
      <trkpt lat="45.73296" lon="2.85626">
        <ele>786.255</ele>
        <time>2016-12-04T20:42:45Z</time>
      </trkpt>
      <trkpt lat="45.73392" lon="2.85713">
        <ele>784.91</ele>
        <time>2016-12-04T20:43:05Z</time>
      </trkpt>
      <trkpt lat="45.73509" lon="2.85548">
        <ele>781.908</ele>
        <time>2016-12-04T20:43:25Z</time>
      </trkpt>
      <trkpt lat="45.73573" lon="2.85739">
        <ele>779.599</ele>
        <time>2016-12-04T20:43:45Z</time>
      </trkpt>
      <trkpt lat="45.73682" lon="2.85771">
        <ele>773.631</ele>
        <time>2016-12-04T20:44:05Z</time>
      </trkpt>
      <trkpt lat="45.73731" lon="2.85961">
        <ele>765.292</ele>
        <time>2021-03-28T17:55:43Z</time>
      </trkpt>
      <trkpt lat="45.73786" lon="2.86002">
        <ele>763.22</ele>
        <time>2016-12-04T20:44:45Z</time>
      </trkpt>
      <trkpt lat="45.73878" lon="2.86096">
        <ele>751.419</ele>
        <time>2016-12-04T20:45:05Z</time>
      </trkpt>
      <trkpt lat="45.73881" lon="2.86244">
        <ele>746.758</ele>
        <time>2016-12-04T20:45:25Z</time>
      </trkpt>
      <trkpt lat="45.73924" lon="2.86256">
        <ele>741.188</ele>
        <time>2016-12-04T20:45:45Z</time>
      </trkpt>
      <trkpt lat="45.73953" lon="2.8636">
        <ele>739.067</ele>
        <time>2016-12-04T20:46:05Z</time>
      </trkpt>
      <trkpt lat="45.74011" lon="2.86391">
        <ele>741.939</ele>
        <time>2016-12-04T20:46:25Z</time>
      </trkpt>
      <trkpt lat="45.74067" lon="2.86478">
        <ele>746.101</ele>
        <time>2016-12-04T20:46:45Z</time>
      </trkpt>
      <trkpt lat="45.74155" lon="2.86551">
        <ele>745.421</ele>
        <time>2016-12-04T20:47:05Z</time>
      </trkpt>
      <trkpt lat="45.74266" lon="2.86609">
        <ele>746.608</ele>
        <time>2016-12-04T20:47:25Z</time>
      </trkpt>
      <trkpt lat="45.7434" lon="2.86657">
        <ele>755.939</ele>
        <time>2016-12-04T20:47:45Z</time>
      </trkpt>
      <trkpt lat="45.74396" lon="2.86631">
        <ele>758.991</ele>
        <time>2016-12-04T20:48:05Z</time>
      </trkpt>
      <trkpt lat="45.74408" lon="2.86632">
        <ele>759.912</ele>
        <time>2016-12-04T20:48:25Z</time>
      </trkpt>
      <trkpt lat="45.74458" lon="2.86598">
        <ele>757.14</ele>
        <time>2016-12-04T20:48:45Z</time>
      </trkpt>
      <trkpt lat="45.74529" lon="2.86637">
        <ele>758.889</ele>
        <time>2016-12-04T20:49:05Z</time>
      </trkpt>
      <trkpt lat="45.74571" lon="2.86618">
        <ele>758.068</ele>
        <time>2016-12-04T20:49:25Z</time>
      </trkpt>
      <trkpt lat="45.7473" lon="2.8664">
        <ele>758.078</ele>
        <time>2016-12-04T20:49:45Z</time>
      </trkpt>
      <trkpt lat="45.74802" lon="2.86729">
        <ele>756.187</ele>
        <time>2016-12-04T20:50:05Z</time>
      </trkpt>
      <trkpt lat="45.74861" lon="2.86825">
        <ele>754.349</ele>
        <time>2016-12-04T20:50:25Z</time>
      </trkpt>
      <trkpt lat="45.75005" lon="2.86881">
        <ele>748.802</ele>
        <time>2016-12-04T20:50:45Z</time>
      </trkpt>
      <trkpt lat="45.75148" lon="2.86908">
        <ele>743.822</ele>
        <time>2016-12-04T20:51:05Z</time>
      </trkpt>
      <trkpt lat="45.75211" lon="2.86934">
        <ele>741.208</ele>
        <time>2016-12-04T20:51:25Z</time>
      </trkpt>
      <trkpt lat="45.75288" lon="2.8695">
        <ele>741.45</ele>
        <time>2016-12-04T20:51:45Z</time>
      </trkpt>
      <trkpt lat="45.75398" lon="2.87001">
        <ele>743.082</ele>
        <time>2021-03-28T18:03:23Z</time>
      </trkpt>
      <trkpt lat="45.75436" lon="2.87039">
        <ele>743.853</ele>
        <time>2021-03-28T18:03:43Z</time>
      </trkpt>
      <trkpt lat="45.75572" lon="2.87109">
        <ele>750.791</ele>
        <time>2016-12-04T20:52:45Z</time>
      </trkpt>
      <trkpt lat="45.7564" lon="2.87114">
        <ele>755.49</ele>
        <time>2016-12-04T20:53:05Z</time>
      </trkpt>
      <trkpt lat="45.75669" lon="2.87122">
        <ele>757.669</ele>
        <time>2016-12-04T20:53:25Z</time>
      </trkpt>
      <trkpt lat="45.75746" lon="2.87094">
        <ele>756.339</ele>
        <time>2016-12-04T20:53:45Z</time>
      </trkpt>
      <trkpt lat="45.75836" lon="2.87076">
        <ele>759.778</ele>
        <time>2016-12-04T20:54:05Z</time>
      </trkpt>
      <trkpt lat="45.75898" lon="2.87024">
        <ele>754.814</ele>
        <time>2016-12-04T20:54:25Z</time>
      </trkpt>
      <trkpt lat="45.75954" lon="2.86941">
        <ele>751.354</ele>
        <time>2016-12-04T20:54:45Z</time>
      </trkpt>
      <trkpt lat="45.76011" lon="2.86917">
        <ele>748.909</ele>
        <time>2016-12-04T20:55:05Z</time>
      </trkpt>
      <trkpt lat="45.7606" lon="2.86941">
        <ele>753.408</ele>
        <time>2016-12-04T20:55:25Z</time>
      </trkpt>
      <trkpt lat="45.76153" lon="2.8703">
        <ele>759.537</ele>
        <time>2016-12-04T20:55:45Z</time>
      </trkpt>
      <trkpt lat="45.76222" lon="2.87075">
        <ele>754.589</ele>
        <time>2016-12-04T20:56:05Z</time>
      </trkpt>
      <trkpt lat="45.76278" lon="2.87098">
        <ele>752.76</ele>
        <time>2016-12-04T20:56:25Z</time>
      </trkpt>
      <trkpt lat="45.76294" lon="2.87123">
        <ele>753.988</ele>
        <time>2016-12-04T20:56:45Z</time>
      </trkpt>
      <trkpt lat="45.7636" lon="2.87094">
        <ele>750.297</ele>
        <time>2016-12-04T20:57:05Z</time>
      </trkpt>
      <trkpt lat="45.76392" lon="2.87104">
        <ele>756.746</ele>
        <time>2016-12-04T20:57:25Z</time>
      </trkpt>
      <trkpt lat="45.76475" lon="2.87068">
        <ele>765.736</ele>
        <time>2016-12-04T20:57:45Z</time>
      </trkpt>
      <trkpt lat="45.76505" lon="2.87026">
        <ele>767.785</ele>
        <time>2016-12-04T20:58:05Z</time>
      </trkpt>
      <trkpt lat="45.76608" lon="2.87033">
        <ele>775.349</ele>
        <time>2016-12-04T20:58:25Z</time>
      </trkpt>
      <trkpt lat="45.76636" lon="2.87064">
        <ele>772.402</ele>
        <time>2016-12-04T20:58:45Z</time>
      </trkpt>
      <trkpt lat="45.7671" lon="2.871">
        <ele>779.522</ele>
        <time>2016-12-04T20:59:05Z</time>
      </trkpt>
      <trkpt lat="45.76725" lon="2.872">
        <ele>782.108</ele>
        <time>2016-12-04T20:59:25Z</time>
      </trkpt>
      <trkpt lat="45.7676" lon="2.87229">
        <ele>784.09</ele>
        <time>2016-12-04T20:59:45Z</time>
      </trkpt>
      <trkpt lat="45.76782" lon="2.87269">
        <ele>786.932</ele>
        <time>2016-12-04T21:00:05Z</time>
      </trkpt>
      <trkpt lat="45.76785" lon="2.87284">
        <ele>787.393</ele>
        <time>2016-12-04T21:00:25Z</time>
      </trkpt>
      <trkpt lat="45.76805" lon="2.87291">
        <ele>788.081</ele>
        <time>2016-12-04T21:00:45Z</time>
      </trkpt>
      <trkpt lat="45.76831" lon="2.87291">
        <ele>789.46</ele>
        <time>2016-12-04T21:01:05Z</time>
      </trkpt>
      <trkpt lat="45.76889" lon="2.87314">
        <ele>791.029</ele>
        <time>2016-12-04T21:01:25Z</time>
      </trkpt>
      <trkpt lat="45.76933" lon="2.8731">
        <ele>791.529</ele>
        <time>2016-12-04T21:01:45Z</time>
      </trkpt>
      <trkpt lat="45.77002" lon="2.87375">
        <ele>790.468</ele>
        <time>2016-12-04T21:02:05Z</time>
      </trkpt>
      <trkpt lat="45.7704" lon="2.87247">
        <ele>783.833</ele>
        <time>2021-03-28T18:13:43Z</time>
      </trkpt>
      <trkpt lat="45.77127" lon="2.87126">
        <ele>775.823</ele>
        <time>2016-12-04T21:02:45Z</time>
      </trkpt>
      <trkpt lat="45.77164" lon="2.87004">
        <ele>765.215</ele>
        <time>2016-12-04T21:03:05Z</time>
      </trkpt>
      <trkpt lat="45.77198" lon="2.86978">
        <ele>763.608</ele>
        <time>2016-12-04T21:03:25Z</time>
      </trkpt>
      <trkpt lat="45.77213" lon="2.86935">
        <ele>758.799</ele>
        <time>2016-12-04T21:03:45Z</time>
      </trkpt>
      <trkpt lat="45.77235" lon="2.86893">
        <ele>754.421</ele>
        <time>2016-12-04T21:04:05Z</time>
      </trkpt>
      <trkpt lat="45.77238" lon="2.86827">
        <ele>749.132</ele>
        <time>2016-12-04T21:04:25Z</time>
      </trkpt>
      <trkpt lat="45.77276" lon="2.86708">
        <ele>749.35</ele>
        <time>2016-12-04T21:04:45Z</time>
      </trkpt>
      <trkpt lat="45.77282" lon="2.86581">
        <ele>747.579</ele>
        <time>2016-12-04T21:05:05Z</time>
      </trkpt>
      <trkpt lat="45.77272" lon="2.86502">
        <ele>746.848</ele>
        <time>2016-12-04T21:05:25Z</time>
      </trkpt>
      <trkpt lat="45.77306" lon="2.86455">
        <ele>749.748</ele>
        <time>2016-12-04T21:05:45Z</time>
      </trkpt>
      <trkpt lat="45.77335" lon="2.86377">
        <ele>752.357</ele>
        <time>2016-12-04T21:06:05Z</time>
      </trkpt>
      <trkpt lat="45.77354" lon="2.86367">
        <ele>753.575</ele>
        <time>2016-12-04T21:06:25Z</time>
      </trkpt>
      <trkpt lat="45.77405" lon="2.86371">
        <ele>758.128</ele>
        <time>2016-12-04T21:06:45Z</time>
      </trkpt>
      <trkpt lat="45.77457" lon="2.86358">
        <ele>762.22</ele>
        <time>2016-12-04T21:07:05Z</time>
      </trkpt>
      <trkpt lat="45.77506" lon="2.86317">
        <ele>762.508</ele>
        <time>2016-12-04T21:07:25Z</time>
      </trkpt>
      <trkpt lat="45.77584" lon="2.8629">
        <ele>766.683</ele>
        <time>2016-12-04T21:07:45Z</time>
      </trkpt>
      <trkpt lat="45.77623" lon="2.86246">
        <ele>768.685</ele>
        <time>2016-12-04T21:08:05Z</time>
      </trkpt>
      <trkpt lat="45.77686" lon="2.86177">
        <ele>766.816</ele>
        <time>2016-12-04T21:08:25Z</time>
      </trkpt>
      <trkpt lat="45.77747" lon="2.86158">
        <ele>763.134</ele>
        <time>2016-12-04T21:08:45Z</time>
      </trkpt>
      <trkpt lat="45.778" lon="2.86107">
        <ele>764.963</ele>
        <time>2016-12-04T21:09:05Z</time>
      </trkpt>
      <trkpt lat="45.77838" lon="2.86064">
        <ele>761.732</ele>
        <time>2016-12-04T21:09:25Z</time>
      </trkpt>
      <trkpt lat="45.77942" lon="2.86044">
        <ele>755.672</ele>
        <time>2016-12-04T21:09:45Z</time>
      </trkpt>
      <trkpt lat="45.78066" lon="2.85986">
        <ele>751.531</ele>
        <time>2016-12-04T21:10:05Z</time>
      </trkpt>
      <trkpt lat="45.78122" lon="2.85917">
        <ele>752.048</ele>
        <time>2016-12-04T21:10:25Z</time>
      </trkpt>
      <trkpt lat="45.78231" lon="2.85889">
        <ele>750.461</ele>
        <time>2016-12-04T21:10:45Z</time>
      </trkpt>
      <trkpt lat="45.78305" lon="2.85931">
        <ele>746.017</ele>
        <time>2016-12-04T21:11:05Z</time>
      </trkpt>
      <trkpt lat="45.78342" lon="2.85935">
        <ele>748.008</ele>
        <time>2016-12-04T21:11:25Z</time>
      </trkpt>
      <trkpt lat="45.7841" lon="2.85918">
        <ele>746.95</ele>
        <time>2016-12-04T21:11:45Z</time>
      </trkpt>
      <trkpt lat="45.78452" lon="2.85935">
        <ele>748.462</ele>
        <time>2016-12-04T21:12:05Z</time>
      </trkpt>
      <trkpt lat="45.78489" lon="2.8594">
        <ele>746.443</ele>
        <time>2016-12-04T21:12:25Z</time>
      </trkpt>
      <trkpt lat="45.78511" lon="2.85965">
        <ele>746.851</ele>
        <time>2016-12-04T21:12:45Z</time>
      </trkpt>
      <trkpt lat="45.78549" lon="2.86059">
        <ele>748.32</ele>
        <time>2016-12-04T21:13:05Z</time>
      </trkpt>
      <trkpt lat="45.78574" lon="2.86059">
        <ele>748.049</ele>
        <time>2016-12-04T21:13:25Z</time>
      </trkpt>
      <trkpt lat="45.78609" lon="2.86088">
        <ele>748.969</ele>
        <time>2016-12-04T21:13:45Z</time>
      </trkpt>
      <trkpt lat="45.78634" lon="2.86092">
        <ele>749.058</ele>
        <time>2016-12-04T21:14:05Z</time>
      </trkpt>
      <trkpt lat="45.78702" lon="2.86155">
        <ele>744.745</ele>
        <time>2016-12-04T21:14:25Z</time>
      </trkpt>
      <trkpt lat="45.78773" lon="2.86138">
        <ele>741.347</ele>
        <time>2016-12-04T21:14:45Z</time>
      </trkpt>
      <trkpt lat="45.78832" lon="2.86131">
        <ele>732.911</ele>
        <time>2016-12-04T21:15:05Z</time>
      </trkpt>
      <trkpt lat="45.78839" lon="2.86107">
        <ele>730.408</ele>
        <time>2016-12-04T21:15:25Z</time>
      </trkpt>
      <trkpt lat="45.78809" lon="2.86082">
        <ele>735.44</ele>
        <time>2016-12-04T21:15:45Z</time>
      </trkpt>
      <trkpt lat="45.78817" lon="2.8605">
        <ele>732.272</ele>
        <time>2016-12-04T21:16:05Z</time>
      </trkpt>
      <trkpt lat="45.78852" lon="2.86049">
        <ele>724.423</ele>
        <time>2016-12-04T21:16:25Z</time>
      </trkpt>
      <trkpt lat="45.78996" lon="2.85995">
        <ele>707.671</ele>
        <time>2016-12-04T21:16:45Z</time>
      </trkpt>
      <trkpt lat="45.79081" lon="2.86034">
        <ele>709.15</ele>
        <time>2016-12-04T21:17:05Z</time>
      </trkpt>
      <trkpt lat="45.79111" lon="2.85983">
        <ele>707.549</ele>
        <time>2021-03-28T18:28:43Z</time>
      </trkpt>
      <trkpt lat="45.79136" lon="2.85901">
        <ele>710.649</ele>
        <time>2021-03-28T18:29:03Z</time>
      </trkpt>
      <trkpt lat="45.79181" lon="2.85902">
        <ele>712.158</ele>
        <time>2016-12-04T21:18:05Z</time>
      </trkpt>
      <trkpt lat="45.79181" lon="2.85869">
        <ele>713.715</ele>
        <time>2016-12-04T21:18:25Z</time>
      </trkpt>
      <trkpt lat="45.79146" lon="2.85712">
        <ele>727.265</ele>
        <time>2016-12-04T21:18:45Z</time>
      </trkpt>
      <trkpt lat="45.79145" lon="2.85605">
        <ele>732.811</ele>
        <time>2016-12-04T21:19:05Z</time>
      </trkpt>
      <trkpt lat="45.79165" lon="2.85513">
        <ele>737.608</ele>
        <time>2016-12-04T21:19:25Z</time>
      </trkpt>
      <trkpt lat="45.79194" lon="2.85441">
        <ele>738.097</ele>
        <time>2016-12-04T21:19:45Z</time>
      </trkpt>
      <trkpt lat="45.79187" lon="2.85389">
        <ele>737.879</ele>
        <time>2016-12-04T21:20:05Z</time>
      </trkpt>
      <trkpt lat="45.791" lon="2.85175">
        <ele>736.91</ele>
        <time>2016-12-04T21:20:25Z</time>
      </trkpt>
      <trkpt lat="45.79047" lon="2.85134">
        <ele>740.928</ele>
        <time>2016-12-04T21:20:45Z</time>
      </trkpt>
      <trkpt lat="45.79025" lon="2.85101">
        <ele>742.867</ele>
        <time>2016-12-04T21:21:05Z</time>
      </trkpt>
      <trkpt lat="45.7901" lon="2.85058">
        <ele>742.756</ele>
        <time>2016-12-04T21:21:25Z</time>
      </trkpt>
      <trkpt lat="45.78936" lon="2.84921">
        <ele>742.356</ele>
        <time>2016-12-04T21:21:45Z</time>
      </trkpt>
      <trkpt lat="45.78913" lon="2.84879">
        <ele>743.045</ele>
        <time>2016-12-04T21:22:05Z</time>
      </trkpt>
      <trkpt lat="45.78883" lon="2.84844">
        <ele>741.221</ele>
        <time>2016-12-04T21:22:25Z</time>
      </trkpt>
      <trkpt lat="45.78852" lon="2.84773">
        <ele>737.641</ele>
        <time>2021-03-28T18:34:03Z</time>
      </trkpt>
      <trkpt lat="45.78817" lon="2.84723">
        <ele>731.205</ele>
        <time>2016-12-04T21:23:05Z</time>
      </trkpt>
      <trkpt lat="45.78819" lon="2.84676">
        <ele>731.768</ele>
        <time>2021-03-28T18:35:03Z</time>
      </trkpt>
      <trkpt lat="45.78857" lon="2.84533">
        <ele>723.35</ele>
        <time>2016-12-04T21:24:05Z</time>
      </trkpt>
      <trkpt lat="45.78918" lon="2.84416">
        <ele>721.081</ele>
        <time>2016-12-04T21:24:25Z</time>
      </trkpt>
      <trkpt lat="45.78981" lon="2.84371">
        <ele>721.739</ele>
        <time>2016-12-04T21:24:45Z</time>
      </trkpt>
      <trkpt lat="45.79021" lon="2.84311">
        <ele>726.598</ele>
        <time>2016-12-04T21:25:05Z</time>
      </trkpt>
      <trkpt lat="45.79011" lon="2.843">
        <ele>729.597</ele>
        <time>2021-03-28T18:36:43Z</time>
      </trkpt>
      <trkpt lat="45.79018" lon="2.84262">
        <ele>734.417</ele>
        <time>2021-03-28T18:37:03Z</time>
      </trkpt>
      <trkpt lat="45.79012" lon="2.84224">
        <ele>736.626</ele>
        <time>2021-03-28T18:37:23Z</time>
      </trkpt>
      <trkpt lat="45.7898" lon="2.84203">
        <ele>740.265</ele>
        <time>2016-12-04T21:26:05Z</time>
      </trkpt>
      <trkpt lat="45.7892" lon="2.84192">
        <ele>742.668</ele>
        <time>2016-12-04T21:26:25Z</time>
      </trkpt>
      <trkpt lat="45.78897" lon="2.84154">
        <ele>738.914</ele>
        <time>2016-12-04T21:26:45Z</time>
      </trkpt>
      <trkpt lat="45.78968" lon="2.84105">
        <ele>733.208</ele>
        <time>2016-12-04T21:27:05Z</time>
      </trkpt>
      <trkpt lat="45.79022" lon="2.84053">
        <ele>728.942</ele>
        <time>2016-12-04T21:27:25Z</time>
      </trkpt>
      <trkpt lat="45.79101" lon="2.84056">
        <ele>727.084</ele>
        <time>2016-12-04T21:27:45Z</time>
      </trkpt>
      <trkpt lat="45.79138" lon="2.84067">
        <ele>727.675</ele>
        <time>2021-03-28T18:39:43Z</time>
      </trkpt>
      <trkpt lat="45.79179" lon="2.84056">
        <ele>730.913</ele>
        <time>2016-12-04T21:28:25Z</time>
      </trkpt>
      <trkpt lat="45.79202" lon="2.84012">
        <ele>726.122</ele>
        <time>2016-12-04T21:28:45Z</time>
      </trkpt>
      <trkpt lat="45.7926" lon="2.84006">
        <ele>727.441</ele>
        <time>2016-12-04T21:29:05Z</time>
      </trkpt>
      <trkpt lat="45.79321" lon="2.83982">
        <ele>721.551</ele>
        <time>2016-12-04T21:29:25Z</time>
      </trkpt>
      <trkpt lat="45.79409" lon="2.8396">
        <ele>724.82</ele>
        <time>2016-12-04T21:29:45Z</time>
      </trkpt>
      <trkpt lat="45.79466" lon="2.83918">
        <ele>716.458</ele>
        <time>2016-12-04T21:30:05Z</time>
      </trkpt>
      <trkpt lat="45.79578" lon="2.83939">
        <ele>706.652</ele>
        <time>2016-12-04T21:30:25Z</time>
      </trkpt>
      <trkpt lat="45.79637" lon="2.83962">
        <ele>704.417</ele>
        <time>2016-12-04T21:30:45Z</time>
      </trkpt>
      <trkpt lat="45.79675" lon="2.83989">
        <ele>695.208</ele>
        <time>2016-12-04T21:31:05Z</time>
      </trkpt>
      <trkpt lat="45.79681" lon="2.83952">
        <ele>692.171</ele>
        <time>2016-12-04T21:31:25Z</time>
      </trkpt>
      <trkpt lat="45.79641" lon="2.83911">
        <ele>693.033</ele>
        <time>2016-12-04T21:31:45Z</time>
      </trkpt>
      <trkpt lat="45.79562" lon="2.83864">
        <ele>691.944</ele>
        <time>2016-12-04T21:32:05Z</time>
      </trkpt>
      <trkpt lat="45.79607" lon="2.83865">
        <ele>685.962</ele>
        <time>2016-12-04T21:32:25Z</time>
      </trkpt>
      <trkpt lat="45.79705" lon="2.8391">
        <ele>681.221</ele>
        <time>2016-12-04T21:32:45Z</time>
      </trkpt>
      <trkpt lat="45.79733" lon="2.83946">
        <ele>679.06</ele>
        <time>2016-12-04T21:33:05Z</time>
      </trkpt>
      <trkpt lat="45.79775" lon="2.83977">
        <ele>675.48</ele>
        <time>2016-12-04T21:33:25Z</time>
      </trkpt>
      <trkpt lat="45.79822" lon="2.83989">
        <ele>683.779</ele>
        <time>2016-12-04T21:33:45Z</time>
      </trkpt>
      <trkpt lat="45.79881" lon="2.83981">
        <ele>695.769</ele>
        <time>2016-12-04T21:34:05Z</time>
      </trkpt>
      <trkpt lat="45.79899" lon="2.84036">
        <ele>710.704</ele>
        <time>2021-03-28T18:46:03Z</time>
      </trkpt>
      <trkpt lat="45.79895" lon="2.84119">
        <ele>725.224</ele>
        <time>2016-12-04T21:34:45Z</time>
      </trkpt>
      <trkpt lat="45.79932" lon="2.84166">
        <ele>733.108</ele>
        <time>2021-03-28T18:46:43Z</time>
      </trkpt>
      <trkpt lat="45.79942" lon="2.84084">
        <ele>732.582</ele>
        <time>2016-12-04T21:35:25Z</time>
      </trkpt>
      <trkpt lat="45.8002" lon="2.84064">
        <ele>734.114</ele>
        <time>2016-12-04T21:35:45Z</time>
      </trkpt>
      <trkpt lat="45.80107" lon="2.84078">
        <ele>729.625</ele>
        <time>2021-03-28T18:47:43Z</time>
      </trkpt>
      <trkpt lat="45.80108" lon="2.84142">
        <ele>725.333</ele>
        <time>2021-03-28T18:48:03Z</time>
      </trkpt>
      <trkpt lat="45.80057" lon="2.84145">
        <ele>732.782</ele>
        <time>2021-03-28T18:48:23Z</time>
      </trkpt>
      <trkpt lat="45.8003" lon="2.84158">
        <ele>738.341</ele>
        <time>2016-12-04T21:37:05Z</time>
      </trkpt>
      <trkpt lat="45.79999" lon="2.84213">
        <ele>731.591</ele>
        <time>2016-12-04T21:37:25Z</time>
      </trkpt>
      <trkpt lat="45.7989" lon="2.84281">
        <ele>721.91</ele>
        <time>2016-12-04T21:37:45Z</time>
      </trkpt>
      <trkpt lat="45.79906" lon="2.8431">
        <ele>720.012</ele>
        <time>2016-12-04T21:38:05Z</time>
      </trkpt>
      <trkpt lat="45.79976" lon="2.84273">
        <ele>715.632</ele>
        <time>2016-12-04T21:38:25Z</time>
      </trkpt>
      <trkpt lat="45.80064" lon="2.84256">
        <ele>704.905</ele>
        <time>2016-12-04T21:38:45Z</time>
      </trkpt>
      <trkpt lat="45.80145" lon="2.84254">
        <ele>693.808</ele>
        <time>2016-12-04T21:39:05Z</time>
      </trkpt>
      <trkpt lat="45.80199" lon="2.84224">
        <ele>689.277</ele>
        <time>2016-12-04T21:39:25Z</time>
      </trkpt>
      <trkpt lat="45.80222" lon="2.84236">
        <ele>684.669</ele>
        <time>2016-12-04T21:39:45Z</time>
      </trkpt>
      <trkpt lat="45.80256" lon="2.84297">
        <ele>673.25</ele>
        <time>2016-12-04T21:40:05Z</time>
      </trkpt>
      <trkpt lat="45.80279" lon="2.84293">
        <ele>672.978</ele>
        <time>2016-12-04T21:40:25Z</time>
      </trkpt>
      <trkpt lat="45.80362" lon="2.84573">
        <ele>674.917</ele>
        <time>2016-12-04T21:40:45Z</time>
      </trkpt>
      <trkpt lat="45.80475" lon="2.84532">
        <ele>676.286</ele>
        <time>2016-12-04T21:41:05Z</time>
      </trkpt>
      <trkpt lat="45.80539" lon="2.84499">
        <ele>679.656</ele>
        <time>2016-12-04T21:41:25Z</time>
      </trkpt>
      <trkpt lat="45.80532" lon="2.84544">
        <ele>685.575</ele>
        <time>2016-12-04T21:41:45Z</time>
      </trkpt>
      <trkpt lat="45.80429" lon="2.84629">
        <ele>699.481</ele>
        <time>2016-12-04T21:42:05Z</time>
      </trkpt>
      <trkpt lat="45.80376" lon="2.84694">
        <ele>704.261</ele>
        <time>2016-12-04T21:42:25Z</time>
      </trkpt>
      <trkpt lat="45.80376" lon="2.84733">
        <ele>708.417</ele>
        <time>2016-12-04T21:42:45Z</time>
      </trkpt>
      <trkpt lat="45.80394" lon="2.84746">
        <ele>712.008</ele>
        <time>2016-12-04T21:43:05Z</time>
      </trkpt>
      <trkpt lat="45.80455" lon="2.84737">
        <ele>719.034</ele>
        <time>2016-12-04T21:43:25Z</time>
      </trkpt>
      <trkpt lat="45.80492" lon="2.84768">
        <ele>725.556</ele>
        <time>2016-12-04T21:43:45Z</time>
      </trkpt>
      <trkpt lat="45.8051" lon="2.84971">
        <ele>746.897</ele>
        <time>2016-12-04T21:44:05Z</time>
      </trkpt>
      <trkpt lat="45.80513" lon="2.85119">
        <ele>756.285</ele>
        <time>2016-12-04T21:44:25Z</time>
      </trkpt>
      <trkpt lat="45.80532" lon="2.85179">
        <ele>759.494</ele>
        <time>2016-12-04T21:44:45Z</time>
      </trkpt>
      <trkpt lat="45.80524" lon="2.85433">
        <ele>760.813</ele>
        <time>2016-12-04T21:45:05Z</time>
      </trkpt>
      <trkpt lat="45.80564" lon="2.85457">
        <ele>763.343</ele>
        <time>2016-12-04T21:45:25Z</time>
      </trkpt>
      <trkpt lat="45.80585" lon="2.85513">
        <ele>764.792</ele>
        <time>2016-12-04T21:45:45Z</time>
      </trkpt>
      <trkpt lat="45.80592" lon="2.85678">
        <ele>770.763</ele>
        <time>2016-12-04T21:46:05Z</time>
      </trkpt>
      <trkpt lat="45.80607" lon="2.8576">
        <ele>772.244</ele>
        <time>2016-12-04T21:46:25Z</time>
      </trkpt>
      <trkpt lat="45.80646" lon="2.8577">
        <ele>774.218</ele>
        <time>2016-12-04T21:46:45Z</time>
      </trkpt>
      <trkpt lat="45.80681" lon="2.85829">
        <ele>777.408</ele>
        <time>2016-12-04T21:47:05Z</time>
      </trkpt>
      <trkpt lat="45.80682" lon="2.85907">
        <ele>776.222</ele>
        <time>2016-12-04T21:47:25Z</time>
      </trkpt>
      <trkpt lat="45.80712" lon="2.85977">
        <ele>775.284</ele>
        <time>2016-12-04T21:47:45Z</time>
      </trkpt>
      <trkpt lat="45.80744" lon="2.86013">
        <ele>776.575</ele>
        <time>2016-12-04T21:48:05Z</time>
      </trkpt>
      <trkpt lat="45.80767" lon="2.8609">
        <ele>777.393</ele>
        <time>2016-12-04T21:48:25Z</time>
      </trkpt>
      <trkpt lat="45.80793" lon="2.86135">
        <ele>777.092</ele>
        <time>2016-12-04T21:48:45Z</time>
      </trkpt>
      <trkpt lat="45.80801" lon="2.86204">
        <ele>778.371</ele>
        <time>2016-12-04T21:49:05Z</time>
      </trkpt>
      <trkpt lat="45.80821" lon="2.86225">
        <ele>778.541</ele>
        <time>2016-12-04T21:49:25Z</time>
      </trkpt>
      <trkpt lat="45.80836" lon="2.86287">
        <ele>780.38</ele>
        <time>2016-12-04T21:49:45Z</time>
      </trkpt>
      <trkpt lat="45.80851" lon="2.86309">
        <ele>780.342</ele>
        <time>2016-12-04T21:50:05Z</time>
      </trkpt>
      <trkpt lat="45.80941" lon="2.86301">
        <ele>777.122</ele>
        <time>2016-12-04T21:50:25Z</time>
      </trkpt>
      <trkpt lat="45.80993" lon="2.86336">
        <ele>778.214</ele>
        <time>2016-12-04T21:50:45Z</time>
      </trkpt>
      <trkpt lat="45.81009" lon="2.86401">
        <ele>780.208</ele>
        <time>2016-12-04T21:51:05Z</time>
      </trkpt>
      <trkpt lat="45.81109" lon="2.86508">
        <ele>781.14</ele>
        <time>2016-12-04T21:51:25Z</time>
      </trkpt>
      <trkpt lat="45.81113" lon="2.86582">
        <ele>780.942</ele>
        <time>2016-12-04T21:51:45Z</time>
      </trkpt>
      <trkpt lat="45.81139" lon="2.86636">
        <ele>780.973</ele>
        <time>2016-12-04T21:52:05Z</time>
      </trkpt>
      <trkpt lat="45.81148" lon="2.86673">
        <ele>782.261</ele>
        <time>2016-12-04T21:52:25Z</time>
      </trkpt>
      <trkpt lat="45.81197" lon="2.86765">
        <ele>783.59</ele>
        <time>2021-01-03T20:53:50Z</time>
      </trkpt>
      <trkpt lat="45.81217" lon="2.86757">
        <ele>782.939</ele>
        <time>2021-01-03T20:54:10Z</time>
      </trkpt>
      <trkpt lat="45.81339" lon="2.86837">
        <ele>783.419</ele>
        <time>2021-01-03T20:54:30Z</time>
      </trkpt>
      <trkpt lat="45.81383" lon="2.86842">
        <ele>784.678</ele>
        <time>2016-12-04T21:55:45Z</time>
      </trkpt>
      <trkpt lat="45.81412" lon="2.86831">
        <ele>785.828</ele>
        <time>2021-01-03T20:55:10Z</time>
      </trkpt>
      <trkpt lat="45.81441" lon="2.86839">
        <ele>786.489</ele>
        <time>2021-01-03T20:55:30Z</time>
      </trkpt>
      <trkpt lat="45.81508" lon="2.86793">
        <ele>785.217</ele>
        <time>2021-01-03T20:55:50Z</time>
      </trkpt>
      <trkpt lat="45.81516" lon="2.86703">
        <ele>781.808</ele>
        <time>2021-01-03T20:56:10Z</time>
      </trkpt>
      <trkpt lat="45.81516" lon="2.86635">
        <ele>781.068</ele>
        <time>2021-01-03T20:56:30Z</time>
      </trkpt>
      <trkpt lat="45.81524" lon="2.86576">
        <ele>781.24</ele>
        <time>2016-12-04T21:57:45Z</time>
      </trkpt>
      <trkpt lat="45.81509" lon="2.86502">
        <ele>782.081</ele>
        <time>2016-12-04T21:58:05Z</time>
      </trkpt>
      <trkpt lat="45.81552" lon="2.86548">
        <ele>780.859</ele>
        <time>2016-12-04T21:58:25Z</time>
      </trkpt>
      <trkpt lat="45.81657" lon="2.86565">
        <ele>780.778</ele>
        <time>2016-12-04T21:58:45Z</time>
      </trkpt>
      <trkpt lat="45.81746" lon="2.86548">
        <ele>779.397</ele>
        <time>2016-12-04T21:59:05Z</time>
      </trkpt>
      <trkpt lat="45.81785" lon="2.86483">
        <ele>778.397</ele>
        <time>2016-12-04T21:59:25Z</time>
      </trkpt>
      <trkpt lat="45.81845" lon="2.86427">
        <ele>775.676</ele>
        <time>2016-12-04T21:59:45Z</time>
      </trkpt>
      <trkpt lat="45.81889" lon="2.86441">
        <ele>776.345</ele>
        <time>2016-12-04T22:00:05Z</time>
      </trkpt>
      <trkpt lat="45.81963" lon="2.86572">
        <ele>772.847</ele>
        <time>2016-12-04T22:00:25Z</time>
      </trkpt>
      <trkpt lat="45.8196" lon="2.86611">
        <ele>772.511</ele>
        <time>2016-12-04T22:00:45Z</time>
      </trkpt>
      <trkpt lat="45.82014" lon="2.86631">
        <ele>770.808</ele>
        <time>2016-12-04T22:01:05Z</time>
      </trkpt>
      <trkpt lat="45.82093" lon="2.86691">
        <ele>772.34</ele>
        <time>2016-12-04T22:01:25Z</time>
      </trkpt>
      <trkpt lat="45.82139" lon="2.86656">
        <ele>772.492</ele>
        <time>2016-12-04T22:01:45Z</time>
      </trkpt>
      <trkpt lat="45.82179" lon="2.86594">
        <ele>770.283</ele>
        <time>2016-12-04T22:02:05Z</time>
      </trkpt>
      <trkpt lat="45.8225" lon="2.86568">
        <ele>766.661</ele>
        <time>2016-12-04T22:02:25Z</time>
      </trkpt>
      <trkpt lat="45.82331" lon="2.86587">
        <ele>753.33</ele>
        <time>2016-12-04T22:02:45Z</time>
      </trkpt>
      <trkpt lat="45.82375" lon="2.86557">
        <ele>750.589</ele>
        <time>2016-12-04T22:03:05Z</time>
      </trkpt>
      <trkpt lat="45.82449" lon="2.86565">
        <ele>751.789</ele>
        <time>2016-12-04T22:03:25Z</time>
      </trkpt>
      <trkpt lat="45.82514" lon="2.86683">
        <ele>750.288</ele>
        <time>2016-12-04T22:03:45Z</time>
      </trkpt>
      <trkpt lat="45.82543" lon="2.86694">
        <ele>750.061</ele>
        <time>2016-12-04T22:04:05Z</time>
      </trkpt>
      <trkpt lat="45.82586" lon="2.86668">
        <ele>750.921</ele>
        <time>2016-12-04T22:04:25Z</time>
      </trkpt>
      <trkpt lat="45.82618" lon="2.86672">
        <ele>750.013</ele>
        <time>2016-12-04T22:04:45Z</time>
      </trkpt>
      <trkpt lat="45.82678" lon="2.86631">
        <ele>748.108</ele>
        <time>2016-12-04T22:05:05Z</time>
      </trkpt>
      <trkpt lat="45.82767" lon="2.8648">
        <ele>752.642</ele>
        <time>2016-12-04T22:05:25Z</time>
      </trkpt>
      <trkpt lat="45.8284" lon="2.86485">
        <ele>753.474</ele>
        <time>2016-12-04T22:05:45Z</time>
      </trkpt>
      <trkpt lat="45.82865" lon="2.86437">
        <ele>750.595</ele>
        <time>2016-12-04T22:06:05Z</time>
      </trkpt>
      <trkpt lat="45.82992" lon="2.86404">
        <ele>742.913</ele>
        <time>2016-12-04T22:06:25Z</time>
      </trkpt>
      <trkpt lat="45.83032" lon="2.8636">
        <ele>742.792</ele>
        <time>2016-12-04T22:06:45Z</time>
      </trkpt>
      <trkpt lat="45.83088" lon="2.86329">
        <ele>736.781</ele>
        <time>2016-12-04T22:07:05Z</time>
      </trkpt>
      <trkpt lat="45.83096" lon="2.86254">
        <ele>736.121</ele>
        <time>2016-12-04T22:07:25Z</time>
      </trkpt>
      <trkpt lat="45.83158" lon="2.86135">
        <ele>730.68</ele>
        <time>2016-12-04T22:07:45Z</time>
      </trkpt>
      <trkpt lat="45.83199" lon="2.8611">
        <ele>726.814</ele>
        <time>2016-12-04T22:08:05Z</time>
      </trkpt>
      <trkpt lat="45.83232" lon="2.86066">
        <ele>723.454</ele>
        <time>2016-12-04T22:08:25Z</time>
      </trkpt>
      <trkpt lat="45.83269" lon="2.86042">
        <ele>721.509</ele>
        <time>2016-12-04T22:08:45Z</time>
      </trkpt>
      <trkpt lat="45.83289" lon="2.85996">
        <ele>718.308</ele>
        <time>2016-12-04T22:10:05Z</time>
      </trkpt>
      <trkpt lat="45.83319" lon="2.86059">
        <ele>721.817</ele>
        <time>2016-12-04T22:10:25Z</time>
      </trkpt>
      <trkpt lat="45.83373" lon="2.86057">
        <ele>720.989</ele>
        <time>2016-12-04T22:10:45Z</time>
      </trkpt>
      <trkpt lat="45.8339" lon="2.86135">
        <ele>724.38</ele>
        <time>2021-03-28T19:19:43Z</time>
      </trkpt>
      <trkpt lat="45.83448" lon="2.86281">
        <ele>725.218</ele>
        <time>2021-03-28T19:20:03Z</time>
      </trkpt>
      <trkpt lat="45.83463" lon="2.86358">
        <ele>724.947</ele>
        <time>2021-03-28T19:20:23Z</time>
      </trkpt>
      <trkpt lat="45.8348" lon="2.86391">
        <ele>725.826</ele>
        <time>2021-03-28T19:20:43Z</time>
      </trkpt>
      <trkpt lat="45.83488" lon="2.86477">
        <ele>729.156</ele>
        <time>2021-03-28T19:21:03Z</time>
      </trkpt>
      <trkpt lat="45.83513" lon="2.86487">
        <ele>732.575</ele>
        <time>2016-12-04T22:11:45Z</time>
      </trkpt>
      <trkpt lat="45.83531" lon="2.86509">
        <ele>734.293</ele>
        <time>2016-12-04T22:12:05Z</time>
      </trkpt>
      <trkpt lat="45.8358" lon="2.86499">
        <ele>737.565</ele>
        <time>2016-12-04T22:12:25Z</time>
      </trkpt>
      <trkpt lat="45.83628" lon="2.86505">
        <ele>747.921</ele>
        <time>2016-12-04T22:12:45Z</time>
      </trkpt>
      <trkpt lat="45.83675" lon="2.86487">
        <ele>753.808</ele>
        <time>2016-12-04T22:13:05Z</time>
      </trkpt>
      <trkpt lat="45.83728" lon="2.86486">
        <ele>751.935</ele>
        <time>2016-12-04T22:13:25Z</time>
      </trkpt>
      <trkpt lat="45.83773" lon="2.86415">
        <ele>748.757</ele>
        <time>2016-12-04T22:13:45Z</time>
      </trkpt>
      <trkpt lat="45.83864" lon="2.86344">
        <ele>751.088</ele>
        <time>2016-12-04T22:14:05Z</time>
      </trkpt>
      <trkpt lat="45.83895" lon="2.86348">
        <ele>751.326</ele>
        <time>2016-12-04T22:14:25Z</time>
      </trkpt>
      <trkpt lat="45.83944" lon="2.86296">
        <ele>746.475</ele>
        <time>2016-12-04T22:14:45Z</time>
      </trkpt>
      <trkpt lat="45.83969" lon="2.86331">
        <ele>745.144</ele>
        <time>2016-12-04T22:15:05Z</time>
      </trkpt>
      <trkpt lat="45.83987" lon="2.86341">
        <ele>744.264</ele>
        <time>2016-12-04T22:15:25Z</time>
      </trkpt>
      <trkpt lat="45.84047" lon="2.86318">
        <ele>734.823</ele>
        <time>2016-12-04T22:15:45Z</time>
      </trkpt>
      <trkpt lat="45.84069" lon="2.86255">
        <ele>733.588</ele>
        <time>2016-12-04T22:16:05Z</time>
      </trkpt>
      <trkpt lat="45.84108" lon="2.86195">
        <ele>736.724</ele>
        <time>2016-12-04T22:16:25Z</time>
      </trkpt>
      <trkpt lat="45.84151" lon="2.86189">
        <ele>738.826</ele>
        <time>2016-12-04T22:16:45Z</time>
      </trkpt>
      <trkpt lat="45.8418" lon="2.86196">
        <ele>741.008</ele>
        <time>2016-12-04T22:17:05Z</time>
      </trkpt>
      <trkpt lat="45.84296" lon="2.86211">
        <ele>743.184</ele>
        <time>2016-12-04T22:17:25Z</time>
      </trkpt>
      <trkpt lat="45.84365" lon="2.86259">
        <ele>735.236</ele>
        <time>2016-12-04T22:17:45Z</time>
      </trkpt>
      <trkpt lat="45.84451" lon="2.86277">
        <ele>729.577</ele>
        <time>2016-12-04T22:18:05Z</time>
      </trkpt>
      <trkpt lat="45.84487" lon="2.86317">
        <ele>728.925</ele>
        <time>2016-12-04T22:18:25Z</time>
      </trkpt>
      <trkpt lat="45.84513" lon="2.86362">
        <ele>730.664</ele>
        <time>2016-12-04T22:18:45Z</time>
      </trkpt>
      <trkpt lat="45.8459" lon="2.86361">
        <ele>732.013</ele>
        <time>2016-12-04T22:19:05Z</time>
      </trkpt>
      <trkpt lat="45.84604" lon="2.86396">
        <ele>735.743</ele>
        <time>2016-12-04T22:19:25Z</time>
      </trkpt>
      <trkpt lat="45.84627" lon="2.86444">
        <ele>739.442</ele>
        <time>2016-12-04T22:19:45Z</time>
      </trkpt>
      <trkpt lat="45.84657" lon="2.86479">
        <ele>740.144</ele>
        <time>2016-12-04T22:20:05Z</time>
      </trkpt>
      <trkpt lat="45.84722" lon="2.86611">
        <ele>750.005</ele>
        <time>2016-12-04T22:20:25Z</time>
      </trkpt>
      <trkpt lat="45.84666" lon="2.86701">
        <ele>760.515</ele>
        <time>2016-12-04T22:20:45Z</time>
      </trkpt>
      <trkpt lat="45.84634" lon="2.86985">
        <ele>776.208</ele>
        <time>2016-12-04T22:21:05Z</time>
      </trkpt>
      <trkpt lat="45.84685" lon="2.87342">
        <ele>784.47</ele>
        <time>2016-12-04T22:21:25Z</time>
      </trkpt>
      <trkpt lat="45.84683" lon="2.87549">
        <ele>775.862</ele>
        <time>2016-12-04T22:21:45Z</time>
      </trkpt>
      <trkpt lat="45.84689" lon="2.87649">
        <ele>776.013</ele>
        <time>2016-12-04T22:22:05Z</time>
      </trkpt>
      <trkpt lat="45.84676" lon="2.87901">
        <ele>788.141</ele>
        <time>2016-12-04T22:22:25Z</time>
      </trkpt>
      <trkpt lat="45.84635" lon="2.88111">
        <ele>786.16</ele>
        <time>2016-12-04T22:22:45Z</time>
      </trkpt>
      <trkpt lat="45.8464" lon="2.88228">
        <ele>787.179</ele>
        <time>2016-12-04T22:23:05Z</time>
      </trkpt>
      <trkpt lat="45.84664" lon="2.88339">
        <ele>792.219</ele>
        <time>2016-12-04T22:23:25Z</time>
      </trkpt>
      <trkpt lat="45.84735" lon="2.88525">
        <ele>791.628</ele>
        <time>2016-12-04T22:23:45Z</time>
      </trkpt>
      <trkpt lat="45.84782" lon="2.88709">
        <ele>797.776</ele>
        <time>2016-12-04T22:24:05Z</time>
      </trkpt>
      <trkpt lat="45.84806" lon="2.88844">
        <ele>801.49</ele>
        <time>2016-12-04T22:24:25Z</time>
      </trkpt>
      <trkpt lat="45.84907" lon="2.89003">
        <ele>803.819</ele>
        <time>2016-12-04T22:24:45Z</time>
      </trkpt>
      <trkpt lat="45.84889" lon="2.89104">
        <ele>809.008</ele>
        <time>2016-12-04T22:25:05Z</time>
      </trkpt>
      <trkpt lat="45.84879" lon="2.89229">
        <ele>815.213</ele>
        <time>2016-12-04T22:25:25Z</time>
      </trkpt>
      <trkpt lat="45.84864" lon="2.89278">
        <ele>816.145</ele>
        <time>2016-12-04T22:25:45Z</time>
      </trkpt>
      <trkpt lat="45.84877" lon="2.89354">
        <ele>816.346</ele>
        <time>2021-03-28T19:35:43Z</time>
      </trkpt>
      <trkpt lat="45.84895" lon="2.89392">
        <ele>816.094</ele>
        <time>2021-03-28T19:36:03Z</time>
      </trkpt>
      <trkpt lat="45.84824" lon="2.89643">
        <ele>808.893</ele>
        <time>2021-03-28T19:36:23Z</time>
      </trkpt>
      <trkpt lat="45.84835" lon="2.89756">
        <ele>809.282</ele>
        <time>2016-12-04T22:26:45Z</time>
      </trkpt>
      <trkpt lat="45.84752" lon="2.89812">
        <ele>808.542</ele>
        <time>2016-12-04T22:27:05Z</time>
      </trkpt>
      <trkpt lat="45.84686" lon="2.89926">
        <ele>820.571</ele>
        <time>2021-03-28T19:37:23Z</time>
      </trkpt>
      <trkpt lat="45.84679" lon="2.90014">
        <ele>824.141</ele>
        <time>2021-03-28T19:37:43Z</time>
      </trkpt>
      <trkpt lat="45.84641" lon="2.90091">
        <ele>825.981</ele>
        <time>2016-12-04T22:28:05Z</time>
      </trkpt>
      <trkpt lat="45.84563" lon="2.9015">
        <ele>828.409</ele>
        <time>2016-12-04T22:28:25Z</time>
      </trkpt>
      <trkpt lat="45.84585" lon="2.90238">
        <ele>829.508</ele>
        <time>2016-12-04T22:28:45Z</time>
      </trkpt>
      <trkpt lat="45.8463" lon="2.90359">
        <ele>836.99</ele>
        <time>2016-12-04T22:29:05Z</time>
      </trkpt>
      <trkpt lat="45.84642" lon="2.90514">
        <ele>842.592</ele>
        <time>2016-12-04T22:29:25Z</time>
      </trkpt>
      <trkpt lat="45.84615" lon="2.90615">
        <ele>848.023</ele>
        <time>2016-12-04T22:29:45Z</time>
      </trkpt>
      <trkpt lat="45.84628" lon="2.90701">
        <ele>852.141</ele>
        <time>2016-12-04T22:30:05Z</time>
      </trkpt>
      <trkpt lat="45.84618" lon="2.90778">
        <ele>853.36</ele>
        <time>2016-12-04T22:30:25Z</time>
      </trkpt>
      <trkpt lat="45.84646" lon="2.90887">
        <ele>857.269</ele>
        <time>2016-12-04T22:30:45Z</time>
      </trkpt>
      <trkpt lat="45.84641" lon="2.91018">
        <ele>857.179</ele>
        <time>2016-12-04T22:31:05Z</time>
      </trkpt>
      <trkpt lat="45.84737" lon="2.91036">
        <ele>865.488</ele>
        <time>2016-12-04T22:31:25Z</time>
      </trkpt>
      <trkpt lat="45.84808" lon="2.91071">
        <ele>875.597</ele>
        <time>2016-12-04T22:31:45Z</time>
      </trkpt>
      <trkpt lat="45.8484" lon="2.91172">
        <ele>873.323</ele>
        <time>2016-12-04T22:32:05Z</time>
      </trkpt>
      <trkpt lat="45.84896" lon="2.91221">
        <ele>874.025</ele>
        <time>2016-12-04T22:32:25Z</time>
      </trkpt>
      <trkpt lat="45.85003" lon="2.91232">
        <ele>873.708</ele>
        <time>2016-12-04T22:32:45Z</time>
      </trkpt>
      <trkpt lat="45.85107" lon="2.91272">
        <ele>876.045</ele>
        <time>2016-12-04T22:33:05Z</time>
      </trkpt>
      <trkpt lat="45.85156" lon="2.91266">
        <ele>878.037</ele>
        <time>2016-12-04T22:33:25Z</time>
      </trkpt>
      <trkpt lat="45.85239" lon="2.91318">
        <ele>880.388</ele>
        <time>2016-12-04T22:33:45Z</time>
      </trkpt>
      <trkpt lat="45.85246" lon="2.91348">
        <ele>881.386</ele>
        <time>2021-01-03T21:32:10Z</time>
      </trkpt>
      <trkpt lat="45.85259" lon="2.91374">
        <ele>882.185</ele>
        <time>2021-01-03T21:32:30Z</time>
      </trkpt>
      <trkpt lat="45.85266" lon="2.91414">
        <ele>883.344</ele>
        <time>2021-01-03T21:32:50Z</time>
      </trkpt>
      <trkpt lat="45.85313" lon="2.9149">
        <ele>885.674</ele>
        <time>2021-01-03T21:33:10Z</time>
      </trkpt>
      <trkpt lat="45.85337" lon="2.91549">
        <ele>886.073</ele>
        <time>2021-01-03T21:33:30Z</time>
      </trkpt>
      <trkpt lat="45.85367" lon="2.91587">
        <ele>885.757</ele>
        <time>2021-01-03T21:33:50Z</time>
      </trkpt>
      <trkpt lat="45.85381" lon="2.91592">
        <ele>885.6</ele>
        <time>2021-01-03T21:34:10Z</time>
      </trkpt>
      <trkpt lat="45.85401" lon="2.91747">
        <ele>891.12</ele>
        <time>2021-01-03T21:34:30Z</time>
      </trkpt>
      <trkpt lat="45.85494" lon="2.91928">
        <ele>890.908</ele>
        <time>2021-01-03T21:34:50Z</time>
      </trkpt>
      <trkpt lat="45.85553" lon="2.92">
        <ele>893.541</ele>
        <time>2021-01-03T21:35:10Z</time>
      </trkpt>
      <trkpt lat="45.85578" lon="2.92055">
        <ele>894.273</ele>
        <time>2021-01-03T21:35:30Z</time>
      </trkpt>
      <trkpt lat="45.85628" lon="2.92131">
        <ele>894.764</ele>
        <time>2021-01-03T21:35:50Z</time>
      </trkpt>
      <trkpt lat="45.85645" lon="2.92177">
        <ele>894.342</ele>
        <time>2021-01-03T21:36:10Z</time>
      </trkpt>
      <trkpt lat="45.85653" lon="2.92191">
        <ele>894.281</ele>
        <time>2021-01-03T21:36:30Z</time>
      </trkpt>
      <trkpt lat="45.85682" lon="2.92245">
        <ele>892.74</ele>
        <time>2021-01-03T21:36:50Z</time>
      </trkpt>
      <trkpt lat="45.85705" lon="2.92314">
        <ele>892.94</ele>
        <time>2021-01-03T21:37:10Z</time>
      </trkpt>
      <trkpt lat="45.85769" lon="2.92212">
        <ele>891.159</ele>
        <time>2021-01-03T21:37:30Z</time>
      </trkpt>
      <trkpt lat="45.85823" lon="2.92168">
        <ele>888.628</ele>
        <time>2021-01-03T21:37:50Z</time>
      </trkpt>
      <trkpt lat="45.85852" lon="2.92139">
        <ele>885.789</ele>
        <time>2021-01-03T21:38:10Z</time>
      </trkpt>
      <trkpt lat="45.85907" lon="2.92127">
        <ele>879.217</ele>
        <time>2016-12-04T22:37:45Z</time>
      </trkpt>
      <trkpt lat="45.85944" lon="2.92108">
        <ele>878.908</ele>
        <time>2016-12-04T22:38:05Z</time>
      </trkpt>
      <trkpt lat="45.85965" lon="2.92205">
        <ele>877.458</ele>
        <time>2016-12-04T22:38:25Z</time>
      </trkpt>
      <trkpt lat="45.85965" lon="2.92301">
        <ele>879.28</ele>
        <time>2016-12-04T22:38:45Z</time>
      </trkpt>
      <trkpt lat="45.8598" lon="2.92381">
        <ele>880.061</ele>
        <time>2016-12-04T22:39:05Z</time>
      </trkpt>
      <trkpt lat="45.86017" lon="2.92439">
        <ele>878.069</ele>
        <time>2016-12-04T22:39:25Z</time>
      </trkpt>
      <trkpt lat="45.86018" lon="2.92507">
        <ele>876.458</ele>
        <time>2016-12-04T22:39:45Z</time>
      </trkpt>
      <trkpt lat="45.86012" lon="2.92614">
        <ele>879.317</ele>
        <time>2016-12-04T22:40:05Z</time>
      </trkpt>
      <trkpt lat="45.86035" lon="2.92772">
        <ele>883.017</ele>
        <time>2016-12-04T22:40:25Z</time>
      </trkpt>
      <trkpt lat="45.86041" lon="2.9287">
        <ele>878.456</ele>
        <time>2016-12-04T22:40:45Z</time>
      </trkpt>
      <trkpt lat="45.86021" lon="2.93035">
        <ele>876.981</ele>
        <time>2016-12-04T22:41:05Z</time>
      </trkpt>
      <trkpt lat="45.85997" lon="2.93148">
        <ele>874.761</ele>
        <time>2016-12-04T22:41:25Z</time>
      </trkpt>
      <trkpt lat="45.86029" lon="2.93218">
        <ele>877.417</ele>
        <time>2016-12-04T22:41:45Z</time>
      </trkpt>
      <trkpt lat="45.86088" lon="2.93234">
        <ele>875.808</ele>
        <time>2016-12-04T22:42:05Z</time>
      </trkpt>
      <trkpt lat="45.8617" lon="2.93209">
        <ele>874.494</ele>
        <time>2016-12-04T22:42:25Z</time>
      </trkpt>
      <trkpt lat="45.86203" lon="2.93185">
        <ele>869.936</ele>
        <time>2016-12-04T22:42:45Z</time>
      </trkpt>
      <trkpt lat="45.86263" lon="2.93184">
        <ele>863.117</ele>
        <time>2016-12-04T22:43:05Z</time>
      </trkpt>
      <trkpt lat="45.86295" lon="2.93214">
        <ele>861.755</ele>
        <time>2016-12-04T22:43:25Z</time>
      </trkpt>
      <trkpt lat="45.86376" lon="2.93501">
        <ele>862.894</ele>
        <time>2016-12-04T22:43:45Z</time>
      </trkpt>
      <trkpt lat="45.86296" lon="2.93875">
        <ele>862.743</ele>
        <time>2021-03-28T19:56:43Z</time>
      </trkpt>
      <trkpt lat="45.86292" lon="2.93934">
        <ele>863.163</ele>
        <time>2016-12-04T22:44:05Z</time>
      </trkpt>
      <trkpt lat="45.86332" lon="2.93997">
        <ele>867.942</ele>
        <time>2021-03-28T19:57:23Z</time>
      </trkpt>
      <trkpt lat="45.86499" lon="2.94218">
        <ele>869.333</ele>
        <time>2016-12-04T22:44:25Z</time>
      </trkpt>
      <trkpt lat="45.8663" lon="2.94414">
        <ele>870.323</ele>
        <time>2016-12-04T22:44:45Z</time>
      </trkpt>
      <trkpt lat="45.86687" lon="2.94472">
        <ele>871.315</ele>
        <time>2016-12-04T22:45:05Z</time>
      </trkpt>
      <trkpt lat="45.86804" lon="2.94555">
        <ele>873.908</ele>
        <time>2016-12-04T22:45:25Z</time>
      </trkpt>
      <trkpt lat="45.86796" lon="2.94615">
        <ele>878.069</ele>
        <time>2016-12-04T22:45:45Z</time>
      </trkpt>
      <trkpt lat="45.86826" lon="2.94866">
        <ele>888.811</ele>
        <time>2016-12-04T22:46:05Z</time>
      </trkpt>
      <trkpt lat="45.86788" lon="2.94972">
        <ele>896.922</ele>
        <time>2016-12-04T22:46:25Z</time>
      </trkpt>
      <trkpt lat="45.86777" lon="2.9505">
        <ele>898.99</ele>
        <time>2016-12-04T22:46:45Z</time>
      </trkpt>
      <trkpt lat="45.86774" lon="2.9513">
        <ele>902.489</ele>
        <time>2016-12-04T22:47:05Z</time>
      </trkpt>
      <trkpt lat="45.86766" lon="2.95193">
        <ele>904.538</ele>
        <time>2016-12-04T22:47:25Z</time>
      </trkpt>
      <trkpt lat="45.86778" lon="2.95311">
        <ele>902.478</ele>
        <time>2016-12-04T22:47:45Z</time>
      </trkpt>
      <trkpt lat="45.86787" lon="2.95399">
        <ele>908.857</ele>
        <time>2016-12-04T22:48:05Z</time>
      </trkpt>
      <trkpt lat="45.86792" lon="2.95387">
        <ele>906.776</ele>
        <time>2016-12-04T22:48:25Z</time>
      </trkpt>
      <trkpt lat="45.86798" lon="2.95311">
        <ele>900.99</ele>
        <time>2016-12-04T22:48:45Z</time>
      </trkpt>
      <trkpt lat="45.86845" lon="2.95242">
        <ele>900.919</ele>
        <time>2016-12-04T22:49:05Z</time>
      </trkpt>
      <trkpt lat="45.86874" lon="2.95185">
        <ele>898.008</ele>
        <time>2016-12-04T22:49:25Z</time>
      </trkpt>
      <trkpt lat="45.87" lon="2.95101">
        <ele>898.973</ele>
        <time>2016-12-04T22:49:45Z</time>
      </trkpt>
      <trkpt lat="45.87068" lon="2.95108">
        <ele>897.825</ele>
        <time>2016-12-04T22:50:05Z</time>
      </trkpt>
      <trkpt lat="45.87144" lon="2.95063">
        <ele>891.726</ele>
        <time>2016-12-04T22:50:25Z</time>
      </trkpt>
      <trkpt lat="45.8725" lon="2.94963">
        <ele>884.384</ele>
        <time>2016-12-04T22:50:45Z</time>
      </trkpt>
      <trkpt lat="45.87264" lon="2.94913">
        <ele>881.913</ele>
        <time>2016-12-04T22:51:05Z</time>
      </trkpt>
      <trkpt lat="45.87296" lon="2.94871">
        <ele>877.112</ele>
        <time>2016-12-04T22:51:25Z</time>
      </trkpt>
      <trkpt lat="45.8733" lon="2.94745">
        <ele>877.322</ele>
        <time>2016-12-04T22:51:45Z</time>
      </trkpt>
      <trkpt lat="45.87329" lon="2.94695">
        <ele>879.131</ele>
        <time>2016-12-04T22:52:05Z</time>
      </trkpt>
      <trkpt lat="45.87393" lon="2.94556">
        <ele>868.729</ele>
        <time>2016-12-04T22:52:25Z</time>
      </trkpt>
      <trkpt lat="45.87483" lon="2.94421">
        <ele>856.9</ele>
        <time>2016-12-04T22:52:45Z</time>
      </trkpt>
      <trkpt lat="45.87517" lon="2.94341">
        <ele>853.02</ele>
        <time>2016-12-04T22:53:05Z</time>
      </trkpt>
      <trkpt lat="45.87554" lon="2.94193">
        <ele>852.008</ele>
        <time>2016-12-04T22:53:25Z</time>
      </trkpt>
      <trkpt lat="45.87555" lon="2.94138">
        <ele>851.088</ele>
        <time>2016-12-04T22:53:45Z</time>
      </trkpt>
      <trkpt lat="45.8754" lon="2.94092">
        <ele>850.35</ele>
        <time>2016-12-04T22:54:05Z</time>
      </trkpt>
      <trkpt lat="45.87535" lon="2.93987">
        <ele>846.251</ele>
        <time>2016-12-04T22:54:25Z</time>
      </trkpt>
      <trkpt lat="45.87548" lon="2.93945">
        <ele>848.889</ele>
        <time>2021-03-28T20:08:03Z</time>
      </trkpt>
      <trkpt lat="45.87577" lon="2.93896">
        <ele>849.628</ele>
        <time>2016-12-04T22:54:45Z</time>
      </trkpt>
      <trkpt lat="45.87633" lon="2.93921">
        <ele>848.837</ele>
        <time>2021-03-28T20:08:43Z</time>
      </trkpt>
      <trkpt lat="45.87713" lon="2.93936">
        <ele>846.917</ele>
        <time>2016-12-04T22:55:25Z</time>
      </trkpt>
      <trkpt lat="45.87803" lon="2.93993">
        <ele>838.796</ele>
        <time>2016-12-04T22:55:45Z</time>
      </trkpt>
      <trkpt lat="45.87861" lon="2.94009">
        <ele>837.735</ele>
        <time>2016-12-04T22:56:05Z</time>
      </trkpt>
      <trkpt lat="45.87904" lon="2.94075">
        <ele>837.886</ele>
        <time>2016-12-04T22:56:25Z</time>
      </trkpt>
      <trkpt lat="45.87907" lon="2.94157">
        <ele>834.414</ele>
        <time>2016-12-04T22:56:45Z</time>
      </trkpt>
      <trkpt lat="45.87934" lon="2.94228">
        <ele>834.108</ele>
        <time>2016-12-04T22:57:05Z</time>
      </trkpt>
      <trkpt lat="45.87918" lon="2.94271">
        <ele>833.839</ele>
        <time>2021-03-28T20:11:03Z</time>
      </trkpt>
      <trkpt lat="45.87989" lon="2.94331">
        <ele>832.921</ele>
        <time>2016-12-04T22:57:45Z</time>
      </trkpt>
      <trkpt lat="45.88054" lon="2.94427">
        <ele>826.412</ele>
        <time>2016-12-04T22:58:05Z</time>
      </trkpt>
      <trkpt lat="45.88069" lon="2.94473">
        <ele>826.07</ele>
        <time>2016-12-04T22:58:25Z</time>
      </trkpt>
      <trkpt lat="45.88122" lon="2.9448">
        <ele>823.349</ele>
        <time>2016-12-04T22:58:45Z</time>
      </trkpt>
      <trkpt lat="45.88158" lon="2.94502">
        <ele>823.778</ele>
        <time>2016-12-04T22:59:05Z</time>
      </trkpt>
      <trkpt lat="45.8829" lon="2.94504">
        <ele>822.868</ele>
        <time>2016-12-04T22:59:25Z</time>
      </trkpt>
      <trkpt lat="45.88314" lon="2.94532">
        <ele>822.187</ele>
        <time>2016-12-04T22:59:45Z</time>
      </trkpt>
      <trkpt lat="45.88382" lon="2.94475">
        <ele>826.694</ele>
        <time>2016-12-04T23:00:05Z</time>
      </trkpt>
      <trkpt lat="45.88437" lon="2.94359">
        <ele>826.757</ele>
        <time>2016-12-04T23:00:25Z</time>
      </trkpt>
      <trkpt lat="45.8853" lon="2.94282">
        <ele>828.622</ele>
        <time>2016-12-04T23:00:45Z</time>
      </trkpt>
      <trkpt lat="45.88547" lon="2.94237">
        <ele>830.708</ele>
        <time>2016-12-04T23:01:05Z</time>
      </trkpt>
      <trkpt lat="45.8854" lon="2.94178">
        <ele>835.855</ele>
        <time>2016-12-04T23:01:25Z</time>
      </trkpt>
      <trkpt lat="45.88522" lon="2.94109">
        <ele>838.157</ele>
        <time>2016-12-04T23:01:45Z</time>
      </trkpt>
      <trkpt lat="45.88507" lon="2.93993">
        <ele>845.268</ele>
        <time>2021-03-28T20:15:43Z</time>
      </trkpt>
      <trkpt lat="45.88576" lon="2.94013">
        <ele>840.036</ele>
        <time>2021-03-28T20:16:03Z</time>
      </trkpt>
      <trkpt lat="45.88595" lon="2.94029">
        <ele>839.015</ele>
        <time>2016-12-04T23:02:45Z</time>
      </trkpt>
      <trkpt lat="45.88604" lon="2.94067">
        <ele>838.754</ele>
        <time>2016-12-04T23:03:05Z</time>
      </trkpt>
      <trkpt lat="45.88648" lon="2.94074">
        <ele>840.254</ele>
        <time>2016-12-04T23:03:25Z</time>
      </trkpt>
      <trkpt lat="45.88754" lon="2.94063">
        <ele>839.783</ele>
        <time>2016-12-04T23:03:45Z</time>
      </trkpt>
      <trkpt lat="45.88841" lon="2.94067">
        <ele>834.083</ele>
        <time>2016-12-04T23:04:05Z</time>
      </trkpt>
      <trkpt lat="45.88878" lon="2.94057">
        <ele>833.925</ele>
        <time>2016-12-04T23:04:25Z</time>
      </trkpt>
      <trkpt lat="45.88928" lon="2.94089">
        <ele>830.517</ele>
        <time>2016-12-04T23:04:45Z</time>
      </trkpt>
      <trkpt lat="45.89014" lon="2.9422">
        <ele>828.508</ele>
        <time>2016-12-04T23:05:05Z</time>
      </trkpt>
      <trkpt lat="45.89034" lon="2.94332">
        <ele>825.674</ele>
        <time>2016-12-04T23:05:25Z</time>
      </trkpt>
      <trkpt lat="45.89062" lon="2.9441">
        <ele>828.046</ele>
        <time>2016-12-04T23:05:45Z</time>
      </trkpt>
      <trkpt lat="45.89095" lon="2.94546">
        <ele>824.217</ele>
        <time>2016-12-04T23:06:05Z</time>
      </trkpt>
      <trkpt lat="45.89127" lon="2.94595">
        <ele>823.695</ele>
        <time>2016-12-04T23:06:25Z</time>
      </trkpt>
      <trkpt lat="45.8912" lon="2.94637">
        <ele>823.764</ele>
        <time>2016-12-04T23:06:45Z</time>
      </trkpt>
      <trkpt lat="45.89104" lon="2.94673">
        <ele>825.093</ele>
        <time>2016-12-04T23:07:05Z</time>
      </trkpt>
      <trkpt lat="45.89119" lon="2.94677">
        <ele>824.993</ele>
        <time>2016-12-04T23:07:25Z</time>
      </trkpt>
      <trkpt lat="45.89158" lon="2.94673">
        <ele>823.352</ele>
        <time>2016-12-04T23:07:45Z</time>
      </trkpt>
      <trkpt lat="45.89209" lon="2.94708">
        <ele>824.596</ele>
        <time>2016-12-04T23:08:05Z</time>
      </trkpt>
      <trkpt lat="45.89235" lon="2.94753">
        <ele>824.431</ele>
        <time>2016-12-04T23:08:25Z</time>
      </trkpt>
      <trkpt lat="45.89256" lon="2.94773">
        <ele>826.224</ele>
        <time>2016-12-04T23:08:45Z</time>
      </trkpt>
      <trkpt lat="45.89262" lon="2.94806">
        <ele>827.008</ele>
        <time>2016-12-04T23:09:05Z</time>
      </trkpt>
      <trkpt lat="45.89259" lon="2.94864">
        <ele>829.125</ele>
        <time>2016-12-04T23:09:25Z</time>
      </trkpt>
      <trkpt lat="45.89277" lon="2.94894">
        <ele>828.947</ele>
        <time>2016-12-04T23:09:45Z</time>
      </trkpt>
      <trkpt lat="45.89302" lon="2.94876">
        <ele>828.128</ele>
        <time>2016-12-04T23:10:05Z</time>
      </trkpt>
      <trkpt lat="45.89318" lon="2.94898">
        <ele>827.686</ele>
        <time>2016-12-04T23:10:25Z</time>
      </trkpt>
      <trkpt lat="45.89312" lon="2.95051">
        <ele>831.625</ele>
        <time>2016-12-04T23:10:45Z</time>
      </trkpt>
      <trkpt lat="45.89401" lon="2.95066">
        <ele>827.184</ele>
        <time>2016-12-04T23:11:05Z</time>
      </trkpt>
      <trkpt lat="45.89454" lon="2.95122">
        <ele>828.084</ele>
        <time>2016-12-04T23:11:25Z</time>
      </trkpt>
      <trkpt lat="45.89537" lon="2.95182">
        <ele>837.453</ele>
        <time>2021-03-28T20:25:23Z</time>
      </trkpt>
      <trkpt lat="45.8956" lon="2.95222">
        <ele>839.271</ele>
        <time>2016-12-04T23:12:05Z</time>
      </trkpt>
      <trkpt lat="45.8958" lon="2.95229">
        <ele>840.641</ele>
        <time>2016-12-04T23:12:25Z</time>
      </trkpt>
      <trkpt lat="45.89598" lon="2.95291">
        <ele>845.115</ele>
        <time>2016-12-04T23:12:45Z</time>
      </trkpt>
      <trkpt lat="45.89595" lon="2.95361">
        <ele>845.308</ele>
        <time>2016-12-04T23:13:05Z</time>
      </trkpt>
      <trkpt lat="45.89562" lon="2.95463">
        <ele>839.943</ele>
        <time>2021-03-28T20:27:03Z</time>
      </trkpt>
      <trkpt lat="45.89608" lon="2.95451">
        <ele>830.275</ele>
        <time>2021-03-28T20:27:23Z</time>
      </trkpt>
      <trkpt lat="45.89658" lon="2.95526">
        <ele>821.486</ele>
        <time>2016-12-04T23:14:25Z</time>
      </trkpt>
      <trkpt lat="45.89686" lon="2.95559">
        <ele>818.574</ele>
        <time>2016-12-04T23:14:45Z</time>
      </trkpt>
      <trkpt lat="45.89689" lon="2.95613">
        <ele>819.343</ele>
        <time>2016-12-04T23:15:05Z</time>
      </trkpt>
      <trkpt lat="45.89706" lon="2.95685">
        <ele>815.642</ele>
        <time>2016-12-04T23:15:25Z</time>
      </trkpt>
      <trkpt lat="45.89705" lon="2.9574">
        <ele>815.142</ele>
        <time>2016-12-04T23:15:45Z</time>
      </trkpt>
      <trkpt lat="45.8974" lon="2.9582">
        <ele>815.271</ele>
        <time>2016-12-04T23:16:05Z</time>
      </trkpt>
      <trkpt lat="45.89741" lon="2.95996">
        <ele>813.188</ele>
        <time>2021-03-28T20:29:43Z</time>
      </trkpt>
      <trkpt lat="45.89721" lon="2.96076">
        <ele>813.624</ele>
        <time>2021-03-28T20:30:03Z</time>
      </trkpt>
      <trkpt lat="45.89721" lon="2.9614">
        <ele>812.726</ele>
        <time>2021-03-28T20:30:23Z</time>
      </trkpt>
      <trkpt lat="45.89775" lon="2.96327">
        <ele>812.808</ele>
        <time>2021-03-28T20:30:43Z</time>
      </trkpt>
      <trkpt lat="45.89793" lon="2.96403">
        <ele>810.034</ele>
        <time>2016-12-04T23:17:45Z</time>
      </trkpt>
      <trkpt lat="45.89907" lon="2.96403">
        <ele>808.116</ele>
        <time>2021-03-28T20:31:23Z</time>
      </trkpt>
      <trkpt lat="45.89975" lon="2.96391">
        <ele>805.197</ele>
        <time>2021-03-28T20:31:43Z</time>
      </trkpt>
      <trkpt lat="45.90036" lon="2.96345">
        <ele>802.265</ele>
        <time>2021-03-28T20:32:03Z</time>
      </trkpt>
      <trkpt lat="45.90078" lon="2.96346">
        <ele>802.124</ele>
        <time>2021-03-28T20:32:23Z</time>
      </trkpt>
      <trkpt lat="45.9015" lon="2.964">
        <ele>800.843</ele>
        <time>2021-03-28T20:32:43Z</time>
      </trkpt>
      <trkpt lat="45.90198" lon="2.9643">
        <ele>801.383</ele>
        <time>2021-03-28T20:33:03Z</time>
      </trkpt>
      <trkpt lat="45.90287" lon="2.96454">
        <ele>795.792</ele>
        <time>2016-12-04T23:19:45Z</time>
      </trkpt>
      <trkpt lat="45.90335" lon="2.96495">
        <ele>792.635</ele>
        <time>2016-12-04T23:20:05Z</time>
      </trkpt>
      <trkpt lat="45.90361" lon="2.96582">
        <ele>788.286</ele>
        <time>2016-12-04T23:20:25Z</time>
      </trkpt>
      <trkpt lat="45.90348" lon="2.96622">
        <ele>788.914</ele>
        <time>2016-12-04T23:20:45Z</time>
      </trkpt>
      <trkpt lat="45.90276" lon="2.96732">
        <ele>791.008</ele>
        <time>2016-12-04T23:21:05Z</time>
      </trkpt>
      <trkpt lat="45.90236" lon="2.96775">
        <ele>800.089</ele>
        <time>2016-12-04T23:21:25Z</time>
      </trkpt>
      <trkpt lat="45.90237" lon="2.96815">
        <ele>799.451</ele>
        <time>2016-12-04T23:21:45Z</time>
      </trkpt>
      <trkpt lat="45.90278" lon="2.96861">
        <ele>796.882</ele>
        <time>2016-12-04T23:22:05Z</time>
      </trkpt>
      <trkpt lat="45.90344" lon="2.96892">
        <ele>791.18</ele>
        <time>2016-12-04T23:22:25Z</time>
      </trkpt>
      <trkpt lat="45.9038" lon="2.96957">
        <ele>790.589</ele>
        <time>2016-12-04T23:22:45Z</time>
      </trkpt>
      <trkpt lat="45.90416" lon="2.97057">
        <ele>785.128</ele>
        <time>2016-12-04T23:23:05Z</time>
      </trkpt>
      <trkpt lat="45.90459" lon="2.97139">
        <ele>786.118</ele>
        <time>2016-12-04T23:23:25Z</time>
      </trkpt>
      <trkpt lat="45.90429" lon="2.97222">
        <ele>788.347</ele>
        <time>2016-12-04T23:23:45Z</time>
      </trkpt>
      <trkpt lat="45.90363" lon="2.97294">
        <ele>793.718</ele>
        <time>2016-12-04T23:24:05Z</time>
      </trkpt>
      <trkpt lat="45.90308" lon="2.97321">
        <ele>791.698</ele>
        <time>2016-12-04T23:24:25Z</time>
      </trkpt>
      <trkpt lat="45.90251" lon="2.97379">
        <ele>795.617</ele>
        <time>2016-12-04T23:24:45Z</time>
      </trkpt>
      <trkpt lat="45.9021" lon="2.97391">
        <ele>794.908</ele>
        <time>2016-12-04T23:25:05Z</time>
      </trkpt>
      <trkpt lat="45.90139" lon="2.97372">
        <ele>789.677</ele>
        <time>2016-12-04T23:25:25Z</time>
      </trkpt>
      <trkpt lat="45.90088" lon="2.974">
        <ele>785.539</ele>
        <time>2016-12-04T23:25:45Z</time>
      </trkpt>
      <trkpt lat="45.90068" lon="2.97448">
        <ele>784.32</ele>
        <time>2016-12-04T23:26:05Z</time>
      </trkpt>
      <trkpt lat="45.90148" lon="2.97747">
        <ele>788.187</ele>
        <time>2016-12-04T23:26:45Z</time>
      </trkpt>
      <trkpt lat="45.90167" lon="2.97783">
        <ele>790.986</ele>
        <time>2016-12-04T23:27:05Z</time>
      </trkpt>
      <trkpt lat="45.90257" lon="2.97905">
        <ele>790.086</ele>
        <time>2016-12-04T23:27:25Z</time>
      </trkpt>
      <trkpt lat="45.90331" lon="2.98034">
        <ele>786.465</ele>
        <time>2016-12-04T23:27:45Z</time>
      </trkpt>
      <trkpt lat="45.90405" lon="2.98107">
        <ele>786.082</ele>
        <time>2016-12-04T23:28:05Z</time>
      </trkpt>
      <trkpt lat="45.90366" lon="2.9836">
        <ele>761.943</ele>
        <time>2016-12-04T23:28:25Z</time>
      </trkpt>
      <trkpt lat="45.9037" lon="2.98382">
        <ele>761.217</ele>
        <time>2016-12-04T23:28:45Z</time>
      </trkpt>
      <trkpt lat="45.90339" lon="2.98433">
        <ele>764.208</ele>
        <time>2016-12-04T23:29:05Z</time>
      </trkpt>
      <trkpt lat="45.90327" lon="2.98538">
        <ele>763.064</ele>
        <time>2016-12-04T23:29:25Z</time>
      </trkpt>
      <trkpt lat="45.90296" lon="2.98558">
        <ele>764.096</ele>
        <time>2016-12-04T23:29:45Z</time>
      </trkpt>
      <trkpt lat="45.90252" lon="2.9862">
        <ele>765.477</ele>
        <time>2016-12-04T23:30:05Z</time>
      </trkpt>
      <trkpt lat="45.90236" lon="2.98704">
        <ele>764.245</ele>
        <time>2016-12-04T23:30:25Z</time>
      </trkpt>
      <trkpt lat="45.9027" lon="2.98815">
        <ele>760.264</ele>
        <time>2016-12-04T23:30:45Z</time>
      </trkpt>
      <trkpt lat="45.90287" lon="2.98948">
        <ele>752.473</ele>
        <time>2016-12-04T23:31:05Z</time>
      </trkpt>
      <trkpt lat="45.9036" lon="2.99101">
        <ele>746.113</ele>
        <time>2016-12-04T23:31:25Z</time>
      </trkpt>
      <trkpt lat="45.90418" lon="2.99309">
        <ele>736.632</ele>
        <time>2016-12-04T23:31:45Z</time>
      </trkpt>
      <trkpt lat="45.90499" lon="2.99423">
        <ele>726.093</ele>
        <time>2021-03-28T20:45:43Z</time>
      </trkpt>
      <trkpt lat="45.90521" lon="2.99474">
        <ele>725.065</ele>
        <time>2021-03-28T20:46:03Z</time>
      </trkpt>
      <trkpt lat="45.90553" lon="2.99517">
        <ele>723.221</ele>
        <time>2021-03-28T20:46:23Z</time>
      </trkpt>
      <trkpt lat="45.90559" lon="2.99635">
        <ele>720.708</ele>
        <time>2021-03-28T20:46:43Z</time>
      </trkpt>
      <trkpt lat="45.90549" lon="2.99624">
        <ele>721.065</ele>
        <time>2021-03-28T20:47:03Z</time>
      </trkpt>
      <trkpt lat="45.90508" lon="2.99634">
        <ele>722.187</ele>
        <time>2021-03-28T20:47:23Z</time>
      </trkpt>
      <trkpt lat="45.90486" lon="2.99699">
        <ele>724.258</ele>
        <time>2021-03-28T20:47:43Z</time>
      </trkpt>
      <trkpt lat="45.90461" lon="2.99754">
        <ele>728.256</ele>
        <time>2021-03-28T20:48:03Z</time>
      </trkpt>
      <trkpt lat="45.90436" lon="2.99845">
        <ele>724.035</ele>
        <time>2016-12-04T23:34:25Z</time>
      </trkpt>
      <trkpt lat="45.90291" lon="3.00081">
        <ele>733.514</ele>
        <time>2016-12-04T23:34:45Z</time>
      </trkpt>
      <trkpt lat="45.90069" lon="3.00131">
        <ele>744.414</ele>
        <time>2016-12-04T23:35:05Z</time>
      </trkpt>
      <trkpt lat="45.89988" lon="3.00083">
        <ele>752.173</ele>
        <time>2016-12-04T23:35:25Z</time>
      </trkpt>
      <trkpt lat="45.89813" lon="3.00193">
        <ele>770.493</ele>
        <time>2016-12-04T23:35:45Z</time>
      </trkpt>
      <trkpt lat="45.89785" lon="3.00191">
        <ele>771.765</ele>
        <time>2016-12-04T23:36:05Z</time>
      </trkpt>
      <trkpt lat="45.89751" lon="3.00249">
        <ele>771.021</ele>
        <time>2016-12-04T23:36:25Z</time>
      </trkpt>
      <trkpt lat="45.89611" lon="3.00608">
        <ele>772.008</ele>
        <time>2016-12-04T23:36:45Z</time>
      </trkpt>
      <trkpt lat="45.89588" lon="3.00659">
        <ele>771.215</ele>
        <time>2016-12-04T23:37:05Z</time>
      </trkpt>
      <trkpt lat="45.89502" lon="3.0073">
        <ele>768.077</ele>
        <time>2016-12-04T23:37:25Z</time>
      </trkpt>
      <trkpt lat="45.89412" lon="3.00859">
        <ele>760.778</ele>
        <time>2016-12-04T23:37:45Z</time>
      </trkpt>
      <trkpt lat="45.89265" lon="3.01164">
        <ele>754.036</ele>
        <time>2016-12-04T23:38:05Z</time>
      </trkpt>
      <trkpt lat="45.8923" lon="3.01217">
        <ele>753.815</ele>
        <time>2016-12-04T23:38:25Z</time>
      </trkpt>
      <trkpt lat="45.89195" lon="3.01299">
        <ele>752.264</ele>
        <time>2016-12-04T23:38:45Z</time>
      </trkpt>
      <trkpt lat="45.89111" lon="3.01384">
        <ele>745.683</ele>
        <time>2016-12-04T23:39:25Z</time>
      </trkpt>
      <trkpt lat="45.89144" lon="3.01478">
        <ele>750.441</ele>
        <time>2016-12-04T23:39:45Z</time>
      </trkpt>
      <trkpt lat="45.89155" lon="3.01596">
        <ele>743.881</ele>
        <time>2016-12-04T23:40:05Z</time>
      </trkpt>
      <trkpt lat="45.89185" lon="3.01757">
        <ele>741.709</ele>
        <time>2016-12-04T23:40:25Z</time>
      </trkpt>
      <trkpt lat="45.89183" lon="3.01937">
        <ele>740.708</ele>
        <time>2016-12-04T23:40:45Z</time>
      </trkpt>
      <trkpt lat="45.89061" lon="3.02015">
        <ele>736.68</ele>
        <time>2016-12-04T23:41:05Z</time>
      </trkpt>
      <trkpt lat="45.88949" lon="3.0212">
        <ele>729.522</ele>
        <time>2016-12-04T23:41:25Z</time>
      </trkpt>
      <trkpt lat="45.88638" lon="3.02218">
        <ele>735.973</ele>
        <time>2016-12-04T23:41:45Z</time>
      </trkpt>
      <trkpt lat="45.88572" lon="3.02362">
        <ele>739.691</ele>
        <time>2016-12-04T23:42:05Z</time>
      </trkpt>
      <trkpt lat="45.88415" lon="3.02377">
        <ele>736.53</ele>
        <time>2016-12-04T23:42:25Z</time>
      </trkpt>
      <trkpt lat="45.88393" lon="3.02398">
        <ele>732.699</ele>
        <time>2016-12-04T23:42:45Z</time>
      </trkpt>
      <trkpt lat="45.8829" lon="3.02446">
        <ele>729.579</ele>
        <time>2016-12-04T23:43:05Z</time>
      </trkpt>
      <trkpt lat="45.8823" lon="3.02568">
        <ele>727.838</ele>
        <time>2016-12-04T23:43:25Z</time>
      </trkpt>
      <trkpt lat="45.88261" lon="3.02652">
        <ele>718.954</ele>
        <time>2016-12-04T23:43:45Z</time>
      </trkpt>
      <trkpt lat="45.88305" lon="3.02713">
        <ele>711.456</ele>
        <time>2016-12-04T23:44:05Z</time>
      </trkpt>
      <trkpt lat="45.88303" lon="3.0274">
        <ele>708.111</ele>
        <time>2016-12-04T23:44:25Z</time>
      </trkpt>
      <trkpt lat="45.88268" lon="3.02764">
        <ele>700.708</ele>
        <time>2021-03-28T20:58:43Z</time>
      </trkpt>
      <trkpt lat="45.8822" lon="3.02761">
        <ele>698.811</ele>
        <time>2016-12-04T23:45:05Z</time>
      </trkpt>
      <trkpt lat="45.88137" lon="3.02779">
        <ele>687.743</ele>
        <time>2016-12-04T23:45:25Z</time>
      </trkpt>
      <trkpt lat="45.88119" lon="3.02805">
        <ele>681.694</ele>
        <time>2016-12-04T23:45:45Z</time>
      </trkpt>
      <trkpt lat="45.88143" lon="3.02963">
        <ele>666.092</ele>
        <time>2016-12-04T23:46:05Z</time>
      </trkpt>
      <trkpt lat="45.88165" lon="3.03024">
        <ele>660.621</ele>
        <time>2016-12-04T23:46:25Z</time>
      </trkpt>
      <trkpt lat="45.88242" lon="3.0315">
        <ele>648.91</ele>
        <time>2016-12-04T23:46:45Z</time>
      </trkpt>
      <trkpt lat="45.88316" lon="3.03263">
        <ele>637.37</ele>
        <time>2016-12-04T23:47:05Z</time>
      </trkpt>
      <trkpt lat="45.88402" lon="3.03416">
        <ele>619.939</ele>
        <time>2016-12-04T23:47:25Z</time>
      </trkpt>
      <trkpt lat="45.88413" lon="3.03504">
        <ele>609.634</ele>
        <time>2016-12-04T23:47:45Z</time>
      </trkpt>
      <trkpt lat="45.88372" lon="3.03566">
        <ele>612.555</ele>
        <time>2016-12-04T23:48:05Z</time>
      </trkpt>
      <trkpt lat="45.88377" lon="3.03605">
        <ele>606.51</ele>
        <time>2016-12-04T23:48:25Z</time>
      </trkpt>
      <trkpt lat="45.88479" lon="3.0376">
        <ele>592.208</ele>
        <time>2016-12-04T23:48:45Z</time>
      </trkpt>
      <trkpt lat="45.8846" lon="3.03796">
        <ele>594.199</ele>
        <time>2016-12-04T23:49:05Z</time>
      </trkpt>
      <trkpt lat="45.88409" lon="3.03754">
        <ele>595.211</ele>
        <time>2016-12-04T23:49:25Z</time>
      </trkpt>
      <trkpt lat="45.88282" lon="3.0368">
        <ele>604.952</ele>
        <time>2016-12-04T23:49:45Z</time>
      </trkpt>
      <trkpt lat="45.88212" lon="3.03631">
        <ele>613.07</ele>
        <time>2016-12-04T23:50:05Z</time>
      </trkpt>
      <trkpt lat="45.88171" lon="3.03637">
        <ele>615.179</ele>
        <time>2016-12-04T23:50:25Z</time>
      </trkpt>
      <trkpt lat="45.88042" lon="3.03668">
        <ele>613.468</ele>
        <time>2016-12-04T23:50:45Z</time>
      </trkpt>
      <trkpt lat="45.87903" lon="3.03664">
        <ele>625.488</ele>
        <time>2016-12-04T23:51:05Z</time>
      </trkpt>
      <trkpt lat="45.87806" lon="3.03681">
        <ele>631.467</ele>
        <time>2016-12-04T23:51:25Z</time>
      </trkpt>
      <trkpt lat="45.87741" lon="3.03707">
        <ele>629.317</ele>
        <time>2016-12-04T23:51:45Z</time>
      </trkpt>
      <trkpt lat="45.87624" lon="3.03682">
        <ele>628.787</ele>
        <time>2016-12-04T23:52:05Z</time>
      </trkpt>
      <trkpt lat="45.87563" lon="3.03612">
        <ele>626.415</ele>
        <time>2016-12-04T23:52:25Z</time>
      </trkpt>
      <trkpt lat="45.87526" lon="3.03532">
        <ele>623.008</ele>
        <time>2016-12-04T23:52:45Z</time>
      </trkpt>
      <trkpt lat="45.87441" lon="3.03473">
        <ele>609.417</ele>
        <time>2016-12-04T23:53:05Z</time>
      </trkpt>
      <trkpt lat="45.87381" lon="3.03457">
        <ele>597.049</ele>
        <time>2019-11-14T20:04:44Z</time>
      </trkpt>
      <trkpt lat="45.87345" lon="3.03428">
        <ele>584.32</ele>
        <time>2021-03-28T21:07:43Z</time>
      </trkpt>
      <trkpt lat="45.87323" lon="3.03429">
        <ele>578.268</ele>
        <time>2021-03-28T21:08:03Z</time>
      </trkpt>
      <trkpt lat="45.87304" lon="3.03401">
        <ele>575.487</ele>
        <time>2021-03-28T21:08:23Z</time>
      </trkpt>
      <trkpt lat="45.8727" lon="3.03387">
        <ele>568.886</ele>
        <time>2019-11-14T20:06:24Z</time>
      </trkpt>
      <trkpt lat="45.87288" lon="3.0335">
        <ele>572.116</ele>
        <time>2019-11-14T20:06:44Z</time>
      </trkpt>
      <trkpt lat="45.87217" lon="3.03392">
        <ele>559.885</ele>
        <time>2019-11-14T20:07:04Z</time>
      </trkpt>
    </trkseg>
  </trk>
</gpx>